<?xml version="1.0" encoding="UTF-8" standalone="no" ?>
<gpx xmlns="http://www.topografix.com/GPX/1/1" xmlns:xsi="http://www.w3.org/2001/XMLSchema-instance" xsi:schemaLocation="http://www.topografix.com/GPX/1/1 http://www.topografix.com/GPX/1/1/gpx.xsd" version="1.1" creator="VisuGPX - https://www.visugpx.com">
  <metadata>
    <name>Esterel depuis Theoule sur mer</name>
    <desc><![CDATA[Boucle sympa sans difficulté dans l\'esterel]]></desc>
  </metadata>
  <trk>
    <name><![CDATA[Esterel - Theoule]]></name>
    <trkseg>
      <trkpt lat="43.50702" lon="6.94229">
        <ele>13</ele>
        <time>2012-04-23T09:30:01Z</time>
      </trkpt>
      <trkpt lat="43.50704" lon="6.94225">
        <ele>13</ele>
        <time>2012-04-23T09:30:06Z</time>
      </trkpt>
      <trkpt lat="43.50704" lon="6.94223">
        <ele>13</ele>
        <time>2012-04-23T09:30:17Z</time>
      </trkpt>
      <trkpt lat="43.50705" lon="6.94222">
        <ele>13</ele>
        <time>2012-04-23T09:30:23Z</time>
      </trkpt>
      <trkpt lat="43.50708" lon="6.94219">
        <ele>12</ele>
        <time>2012-04-23T09:30:29Z</time>
      </trkpt>
      <trkpt lat="43.50708" lon="6.94219">
        <ele>12</ele>
        <time>2012-04-23T09:30:35Z</time>
      </trkpt>
      <trkpt lat="43.50709" lon="6.94218">
        <ele>12</ele>
        <time>2012-04-23T09:30:49Z</time>
      </trkpt>
      <trkpt lat="43.5071" lon="6.94215">
        <ele>12</ele>
        <time>2012-04-23T09:30:51Z</time>
      </trkpt>
      <trkpt lat="43.50702" lon="6.9421">
        <ele>12</ele>
        <time>2012-04-23T09:30:55Z</time>
      </trkpt>
      <trkpt lat="43.50686" lon="6.94207">
        <ele>12</ele>
        <time>2012-04-23T09:31:00Z</time>
      </trkpt>
      <trkpt lat="43.50674" lon="6.94196">
        <ele>12</ele>
        <time>2012-04-23T09:31:06Z</time>
      </trkpt>
      <trkpt lat="43.50673" lon="6.94195">
        <ele>12</ele>
        <time>2012-04-23T09:31:07Z</time>
      </trkpt>
      <trkpt lat="43.50674" lon="6.9419">
        <ele>11</ele>
        <time>2012-04-23T09:31:13Z</time>
      </trkpt>
      <trkpt lat="43.50674" lon="6.94191">
        <ele>11</ele>
        <time>2012-04-23T09:31:21Z</time>
      </trkpt>
      <trkpt lat="43.50674" lon="6.9419">
        <ele>11</ele>
        <time>2012-04-23T09:31:33Z</time>
      </trkpt>
      <trkpt lat="43.50671" lon="6.9418">
        <ele>11</ele>
        <time>2012-04-23T09:31:38Z</time>
      </trkpt>
      <trkpt lat="43.50665" lon="6.94167">
        <ele>11</ele>
        <time>2012-04-23T09:31:45Z</time>
      </trkpt>
      <trkpt lat="43.50665" lon="6.94166">
        <ele>11</ele>
        <time>2012-04-23T09:31:55Z</time>
      </trkpt>
      <trkpt lat="43.50664" lon="6.94166">
        <ele>11</ele>
        <time>2012-04-23T09:32:07Z</time>
      </trkpt>
      <trkpt lat="43.50657" lon="6.94158">
        <ele>15</ele>
        <time>2012-04-23T09:32:12Z</time>
      </trkpt>
      <trkpt lat="43.5065" lon="6.94137">
        <ele>18</ele>
        <time>2012-04-23T09:32:19Z</time>
      </trkpt>
      <trkpt lat="43.50642" lon="6.9412">
        <ele>18</ele>
        <time>2012-04-23T09:32:25Z</time>
      </trkpt>
      <trkpt lat="43.5063" lon="6.94094">
        <ele>19</ele>
        <time>2012-04-23T09:32:34Z</time>
      </trkpt>
      <trkpt lat="43.50616" lon="6.94065">
        <ele>16</ele>
        <time>2012-04-23T09:32:45Z</time>
      </trkpt>
      <trkpt lat="43.50601" lon="6.94045">
        <ele>16</ele>
        <time>2012-04-23T09:32:54Z</time>
      </trkpt>
      <trkpt lat="43.50584" lon="6.94031">
        <ele>15</ele>
        <time>2012-04-23T09:33:02Z</time>
      </trkpt>
      <trkpt lat="43.50566" lon="6.94017">
        <ele>26</ele>
        <time>2012-04-23T09:33:11Z</time>
      </trkpt>
      <trkpt lat="43.50545" lon="6.93999">
        <ele>20</ele>
        <time>2012-04-23T09:33:21Z</time>
      </trkpt>
      <trkpt lat="43.50527" lon="6.93982">
        <ele>23</ele>
        <time>2012-04-23T09:33:30Z</time>
      </trkpt>
      <trkpt lat="43.50509" lon="6.93962">
        <ele>22</ele>
        <time>2012-04-23T09:33:39Z</time>
      </trkpt>
      <trkpt lat="43.50493" lon="6.93941">
        <ele>33</ele>
        <time>2012-04-23T09:33:48Z</time>
      </trkpt>
      <trkpt lat="43.50476" lon="6.93919">
        <ele>32</ele>
        <time>2012-04-23T09:33:58Z</time>
      </trkpt>
      <trkpt lat="43.50459" lon="6.93899">
        <ele>27</ele>
        <time>2012-04-23T09:34:07Z</time>
      </trkpt>
      <trkpt lat="43.50446" lon="6.93877">
        <ele>28</ele>
        <time>2012-04-23T09:34:15Z</time>
      </trkpt>
      <trkpt lat="43.50437" lon="6.9385">
        <ele>27</ele>
        <time>2012-04-23T09:34:24Z</time>
      </trkpt>
      <trkpt lat="43.50435" lon="6.93847">
        <ele>27</ele>
        <time>2012-04-23T09:34:25Z</time>
      </trkpt>
      <trkpt lat="43.50422" lon="6.9384">
        <ele>27</ele>
        <time>2012-04-23T09:34:31Z</time>
      </trkpt>
      <trkpt lat="43.5041" lon="6.93847">
        <ele>39</ele>
        <time>2012-04-23T09:34:36Z</time>
      </trkpt>
      <trkpt lat="43.50407" lon="6.93853">
        <ele>42</ele>
        <time>2012-04-23T09:34:38Z</time>
      </trkpt>
      <trkpt lat="43.50408" lon="6.93876">
        <ele>47</ele>
        <time>2012-04-23T09:34:44Z</time>
      </trkpt>
      <trkpt lat="43.5042" lon="6.93892">
        <ele>32</ele>
        <time>2012-04-23T09:34:50Z</time>
      </trkpt>
      <trkpt lat="43.50435" lon="6.93904">
        <ele>32</ele>
        <time>2012-04-23T09:34:56Z</time>
      </trkpt>
      <trkpt lat="43.5045" lon="6.93927">
        <ele>40</ele>
        <time>2012-04-23T09:35:04Z</time>
      </trkpt>
      <trkpt lat="43.50469" lon="6.93962">
        <ele>41</ele>
        <time>2012-04-23T09:35:15Z</time>
      </trkpt>
      <trkpt lat="43.50489" lon="6.93985">
        <ele>40</ele>
        <time>2012-04-23T09:35:24Z</time>
      </trkpt>
      <trkpt lat="43.50514" lon="6.94012">
        <ele>36</ele>
        <time>2012-04-23T09:35:35Z</time>
      </trkpt>
      <trkpt lat="43.50537" lon="6.94037">
        <ele>36</ele>
        <time>2012-04-23T09:35:45Z</time>
      </trkpt>
      <trkpt lat="43.50533" lon="6.94041">
        <ele>37</ele>
        <time>2012-04-23T09:35:49Z</time>
      </trkpt>
      <trkpt lat="43.50529" lon="6.94037">
        <ele>37</ele>
        <time>2012-04-23T09:35:52Z</time>
      </trkpt>
      <trkpt lat="43.50524" lon="6.94029">
        <ele>37</ele>
        <time>2012-04-23T09:35:58Z</time>
      </trkpt>
      <trkpt lat="43.50517" lon="6.94024">
        <ele>37</ele>
        <time>2012-04-23T09:36:05Z</time>
      </trkpt>
      <trkpt lat="43.50515" lon="6.94022">
        <ele>37</ele>
        <time>2012-04-23T09:36:07Z</time>
      </trkpt>
      <trkpt lat="43.50512" lon="6.94016">
        <ele>36</ele>
        <time>2012-04-23T09:36:14Z</time>
      </trkpt>
      <trkpt lat="43.50507" lon="6.94011">
        <ele>36</ele>
        <time>2012-04-23T09:36:42Z</time>
      </trkpt>
      <trkpt lat="43.50502" lon="6.94007">
        <ele>36</ele>
        <time>2012-04-23T09:36:47Z</time>
      </trkpt>
      <trkpt lat="43.50491" lon="6.94002">
        <ele>48</ele>
        <time>2012-04-23T09:36:56Z</time>
      </trkpt>
      <trkpt lat="43.5048" lon="6.93998">
        <ele>41</ele>
        <time>2012-04-23T09:37:04Z</time>
      </trkpt>
      <trkpt lat="43.50471" lon="6.93994">
        <ele>44</ele>
        <time>2012-04-23T09:37:12Z</time>
      </trkpt>
      <trkpt lat="43.50462" lon="6.93989">
        <ele>46</ele>
        <time>2012-04-23T09:37:20Z</time>
      </trkpt>
      <trkpt lat="43.50453" lon="6.93977">
        <ele>47</ele>
        <time>2012-04-23T09:37:30Z</time>
      </trkpt>
      <trkpt lat="43.50444" lon="6.93967">
        <ele>47</ele>
        <time>2012-04-23T09:37:39Z</time>
      </trkpt>
      <trkpt lat="43.50434" lon="6.9396">
        <ele>48</ele>
        <time>2012-04-23T09:37:48Z</time>
      </trkpt>
      <trkpt lat="43.5043" lon="6.93956">
        <ele>47</ele>
        <time>2012-04-23T09:37:52Z</time>
      </trkpt>
      <trkpt lat="43.50422" lon="6.93953">
        <ele>47</ele>
        <time>2012-04-23T09:38:00Z</time>
      </trkpt>
      <trkpt lat="43.50414" lon="6.93949">
        <ele>68</ele>
        <time>2012-04-23T09:38:07Z</time>
      </trkpt>
      <trkpt lat="43.50412" lon="6.93949">
        <ele>68</ele>
        <time>2012-04-23T09:38:08Z</time>
      </trkpt>
      <trkpt lat="43.504" lon="6.93945">
        <ele>69</ele>
        <time>2012-04-23T09:38:17Z</time>
      </trkpt>
      <trkpt lat="43.50389" lon="6.93943">
        <ele>72</ele>
        <time>2012-04-23T09:38:26Z</time>
      </trkpt>
      <trkpt lat="43.50376" lon="6.93931">
        <ele>74</ele>
        <time>2012-04-23T09:38:37Z</time>
      </trkpt>
      <trkpt lat="43.5037" lon="6.93911">
        <ele>59</ele>
        <time>2012-04-23T09:38:47Z</time>
      </trkpt>
      <trkpt lat="43.50363" lon="6.93887">
        <ele>58</ele>
        <time>2012-04-23T09:38:59Z</time>
      </trkpt>
      <trkpt lat="43.50357" lon="6.93873">
        <ele>57</ele>
        <time>2012-04-23T09:39:07Z</time>
      </trkpt>
      <trkpt lat="43.50352" lon="6.93853">
        <ele>56</ele>
        <time>2012-04-23T09:39:18Z</time>
      </trkpt>
      <trkpt lat="43.50343" lon="6.9384">
        <ele>58</ele>
        <time>2012-04-23T09:39:27Z</time>
      </trkpt>
      <trkpt lat="43.50332" lon="6.93837">
        <ele>63</ele>
        <time>2012-04-23T09:39:35Z</time>
      </trkpt>
      <trkpt lat="43.50321" lon="6.93833">
        <ele>59</ele>
        <time>2012-04-23T09:39:44Z</time>
      </trkpt>
      <trkpt lat="43.50306" lon="6.93821">
        <ele>58</ele>
        <time>2012-04-23T09:39:56Z</time>
      </trkpt>
      <trkpt lat="43.50295" lon="6.93816">
        <ele>58</ele>
        <time>2012-04-23T09:40:04Z</time>
      </trkpt>
      <trkpt lat="43.50282" lon="6.93811">
        <ele>59</ele>
        <time>2012-04-23T09:40:14Z</time>
      </trkpt>
      <trkpt lat="43.50269" lon="6.93809">
        <ele>61</ele>
        <time>2012-04-23T09:40:23Z</time>
      </trkpt>
      <trkpt lat="43.50256" lon="6.93811">
        <ele>63</ele>
        <time>2012-04-23T09:40:32Z</time>
      </trkpt>
      <trkpt lat="43.50244" lon="6.93815">
        <ele>68</ele>
        <time>2012-04-23T09:40:41Z</time>
      </trkpt>
      <trkpt lat="43.5023" lon="6.93823">
        <ele>68</ele>
        <time>2012-04-23T09:40:51Z</time>
      </trkpt>
      <trkpt lat="43.50214" lon="6.93829">
        <ele>68</ele>
        <time>2012-04-23T09:41:02Z</time>
      </trkpt>
      <trkpt lat="43.50199" lon="6.93838">
        <ele>85</ele>
        <time>2012-04-23T09:41:12Z</time>
      </trkpt>
      <trkpt lat="43.50193" lon="6.9384">
        <ele>85</ele>
        <time>2012-04-23T09:41:16Z</time>
      </trkpt>
      <trkpt lat="43.50183" lon="6.93835">
        <ele>83</ele>
        <time>2012-04-23T09:41:24Z</time>
      </trkpt>
      <trkpt lat="43.50172" lon="6.93832">
        <ele>75</ele>
        <time>2012-04-23T09:41:32Z</time>
      </trkpt>
      <trkpt lat="43.50159" lon="6.93837">
        <ele>81</ele>
        <time>2012-04-23T09:41:41Z</time>
      </trkpt>
      <trkpt lat="43.50148" lon="6.93846">
        <ele>84</ele>
        <time>2012-04-23T09:41:49Z</time>
      </trkpt>
      <trkpt lat="43.50135" lon="6.93847">
        <ele>85</ele>
        <time>2012-04-23T09:41:58Z</time>
      </trkpt>
      <trkpt lat="43.5012" lon="6.93846">
        <ele>84</ele>
        <time>2012-04-23T09:42:08Z</time>
      </trkpt>
      <trkpt lat="43.5011" lon="6.93853">
        <ele>85</ele>
        <time>2012-04-23T09:42:16Z</time>
      </trkpt>
      <trkpt lat="43.50102" lon="6.93873">
        <ele>87</ele>
        <time>2012-04-23T09:42:27Z</time>
      </trkpt>
      <trkpt lat="43.50095" lon="6.93888">
        <ele>89</ele>
        <time>2012-04-23T09:42:36Z</time>
      </trkpt>
      <trkpt lat="43.50089" lon="6.93901">
        <ele>91</ele>
        <time>2012-04-23T09:42:44Z</time>
      </trkpt>
      <trkpt lat="43.50087" lon="6.93915">
        <ele>93</ele>
        <time>2012-04-23T09:42:52Z</time>
      </trkpt>
      <trkpt lat="43.50086" lon="6.93925">
        <ele>99</ele>
        <time>2012-04-23T09:42:58Z</time>
      </trkpt>
      <trkpt lat="43.50083" lon="6.9394">
        <ele>105</ele>
        <time>2012-04-23T09:43:07Z</time>
      </trkpt>
      <trkpt lat="43.50081" lon="6.93957">
        <ele>109</ele>
        <time>2012-04-23T09:43:17Z</time>
      </trkpt>
      <trkpt lat="43.50084" lon="6.93973">
        <ele>110</ele>
        <time>2012-04-23T09:43:26Z</time>
      </trkpt>
      <trkpt lat="43.50085" lon="6.93974">
        <ele>110</ele>
        <time>2012-04-23T09:43:31Z</time>
      </trkpt>
      <trkpt lat="43.50086" lon="6.93976">
        <ele>110</ele>
        <time>2012-04-23T09:44:05Z</time>
      </trkpt>
      <trkpt lat="43.50091" lon="6.93976">
        <ele>110</ele>
        <time>2012-04-23T09:44:50Z</time>
      </trkpt>
      <trkpt lat="43.50093" lon="6.93975">
        <ele>110</ele>
        <time>2012-04-23T09:44:53Z</time>
      </trkpt>
      <trkpt lat="43.50097" lon="6.93965">
        <ele>109</ele>
        <time>2012-04-23T09:44:59Z</time>
      </trkpt>
      <trkpt lat="43.50097" lon="6.9396">
        <ele>108</ele>
        <time>2012-04-23T09:45:01Z</time>
      </trkpt>
      <trkpt lat="43.50103" lon="6.93929">
        <ele>103</ele>
        <time>2012-04-23T09:45:12Z</time>
      </trkpt>
      <trkpt lat="43.50112" lon="6.93915">
        <ele>91</ele>
        <time>2012-04-23T09:45:19Z</time>
      </trkpt>
      <trkpt lat="43.50125" lon="6.93912">
        <ele>92</ele>
        <time>2012-04-23T09:45:26Z</time>
      </trkpt>
      <trkpt lat="43.50131" lon="6.93913">
        <ele>93</ele>
        <time>2012-04-23T09:45:29Z</time>
      </trkpt>
      <trkpt lat="43.50144" lon="6.93932">
        <ele>107</ele>
        <time>2012-04-23T09:45:39Z</time>
      </trkpt>
      <trkpt lat="43.50154" lon="6.93935">
        <ele>107</ele>
        <time>2012-04-23T09:45:46Z</time>
      </trkpt>
      <trkpt lat="43.50164" lon="6.93937">
        <ele>107</ele>
        <time>2012-04-23T09:45:54Z</time>
      </trkpt>
      <trkpt lat="43.50177" lon="6.93938">
        <ele>110</ele>
        <time>2012-04-23T09:46:03Z</time>
      </trkpt>
      <trkpt lat="43.50188" lon="6.93939">
        <ele>111</ele>
        <time>2012-04-23T09:46:11Z</time>
      </trkpt>
      <trkpt lat="43.50194" lon="6.9394">
        <ele>112</ele>
        <time>2012-04-23T09:46:16Z</time>
      </trkpt>
      <trkpt lat="43.50199" lon="6.93945">
        <ele>113</ele>
        <time>2012-04-23T09:46:20Z</time>
      </trkpt>
      <trkpt lat="43.50205" lon="6.9396">
        <ele>114</ele>
        <time>2012-04-23T09:46:29Z</time>
      </trkpt>
      <trkpt lat="43.50219" lon="6.93971">
        <ele>116</ele>
        <time>2012-04-23T09:46:40Z</time>
      </trkpt>
      <trkpt lat="43.50232" lon="6.93973">
        <ele>117</ele>
        <time>2012-04-23T09:46:49Z</time>
      </trkpt>
      <trkpt lat="43.50242" lon="6.9397">
        <ele>117</ele>
        <time>2012-04-23T09:46:57Z</time>
      </trkpt>
      <trkpt lat="43.50252" lon="6.93974">
        <ele>114</ele>
        <time>2012-04-23T09:47:05Z</time>
      </trkpt>
      <trkpt lat="43.50258" lon="6.93981">
        <ele>115</ele>
        <time>2012-04-23T09:47:10Z</time>
      </trkpt>
      <trkpt lat="43.5027" lon="6.93992">
        <ele>115</ele>
        <time>2012-04-23T09:47:19Z</time>
      </trkpt>
      <trkpt lat="43.50283" lon="6.94008">
        <ele>127</ele>
        <time>2012-04-23T09:47:31Z</time>
      </trkpt>
      <trkpt lat="43.50292" lon="6.94023">
        <ele>127</ele>
        <time>2012-04-23T09:47:41Z</time>
      </trkpt>
      <trkpt lat="43.50301" lon="6.94036">
        <ele>128</ele>
        <time>2012-04-23T09:47:51Z</time>
      </trkpt>
      <trkpt lat="43.50303" lon="6.94041">
        <ele>129</ele>
        <time>2012-04-23T09:47:54Z</time>
      </trkpt>
      <trkpt lat="43.50301" lon="6.94047">
        <ele>130</ele>
        <time>2012-04-23T09:48:00Z</time>
      </trkpt>
      <trkpt lat="43.50298" lon="6.94046">
        <ele>130</ele>
        <time>2012-04-23T09:48:02Z</time>
      </trkpt>
      <trkpt lat="43.50294" lon="6.94045">
        <ele>130</ele>
        <time>2012-04-23T09:48:08Z</time>
      </trkpt>
      <trkpt lat="43.5029" lon="6.94046">
        <ele>130</ele>
        <time>2012-04-23T09:48:54Z</time>
      </trkpt>
      <trkpt lat="43.50278" lon="6.94052">
        <ele>132</ele>
        <time>2012-04-23T09:49:03Z</time>
      </trkpt>
      <trkpt lat="43.50268" lon="6.94061">
        <ele>134</ele>
        <time>2012-04-23T09:49:12Z</time>
      </trkpt>
      <trkpt lat="43.50257" lon="6.94071">
        <ele>138</ele>
        <time>2012-04-23T09:49:21Z</time>
      </trkpt>
      <trkpt lat="43.50248" lon="6.94079">
        <ele>143</ele>
        <time>2012-04-23T09:49:28Z</time>
      </trkpt>
      <trkpt lat="43.50234" lon="6.94092">
        <ele>149</ele>
        <time>2012-04-23T09:49:38Z</time>
      </trkpt>
      <trkpt lat="43.50223" lon="6.94101">
        <ele>150</ele>
        <time>2012-04-23T09:49:46Z</time>
      </trkpt>
      <trkpt lat="43.50207" lon="6.94104">
        <ele>151</ele>
        <time>2012-04-23T09:49:56Z</time>
      </trkpt>
      <trkpt lat="43.5019" lon="6.94109">
        <ele>151</ele>
        <time>2012-04-23T09:50:06Z</time>
      </trkpt>
      <trkpt lat="43.50177" lon="6.94111">
        <ele>151</ele>
        <time>2012-04-23T09:50:15Z</time>
      </trkpt>
      <trkpt lat="43.50167" lon="6.94112">
        <ele>151</ele>
        <time>2012-04-23T09:50:22Z</time>
      </trkpt>
      <trkpt lat="43.50151" lon="6.94113">
        <ele>151</ele>
        <time>2012-04-23T09:50:33Z</time>
      </trkpt>
      <trkpt lat="43.50141" lon="6.94114">
        <ele>152</ele>
        <time>2012-04-23T09:50:40Z</time>
      </trkpt>
      <trkpt lat="43.50135" lon="6.94113">
        <ele>152</ele>
        <time>2012-04-23T09:50:47Z</time>
      </trkpt>
      <trkpt lat="43.50131" lon="6.94114">
        <ele>152</ele>
        <time>2012-04-23T09:51:13Z</time>
      </trkpt>
      <trkpt lat="43.50119" lon="6.94119">
        <ele>152</ele>
        <time>2012-04-23T09:51:22Z</time>
      </trkpt>
      <trkpt lat="43.5011" lon="6.94125">
        <ele>153</ele>
        <time>2012-04-23T09:51:29Z</time>
      </trkpt>
      <trkpt lat="43.50094" lon="6.94129">
        <ele>154</ele>
        <time>2012-04-23T09:51:39Z</time>
      </trkpt>
      <trkpt lat="43.50091" lon="6.9413">
        <ele>154</ele>
        <time>2012-04-23T09:51:45Z</time>
      </trkpt>
      <trkpt lat="43.50086" lon="6.94132">
        <ele>155</ele>
        <time>2012-04-23T09:51:50Z</time>
      </trkpt>
      <trkpt lat="43.5008" lon="6.94134">
        <ele>158</ele>
        <time>2012-04-23T09:51:57Z</time>
      </trkpt>
      <trkpt lat="43.50079" lon="6.94134">
        <ele>158</ele>
        <time>2012-04-23T09:52:03Z</time>
      </trkpt>
      <trkpt lat="43.50077" lon="6.94134">
        <ele>158</ele>
        <time>2012-04-23T09:52:09Z</time>
      </trkpt>
      <trkpt lat="43.50076" lon="6.94134">
        <ele>158</ele>
        <time>2012-04-23T09:52:18Z</time>
      </trkpt>
      <trkpt lat="43.50077" lon="6.94133">
        <ele>158</ele>
        <time>2012-04-23T09:53:05Z</time>
      </trkpt>
      <trkpt lat="43.50072" lon="6.94135">
        <ele>158</ele>
        <time>2012-04-23T09:53:12Z</time>
      </trkpt>
      <trkpt lat="43.50061" lon="6.94136">
        <ele>158</ele>
        <time>2012-04-23T09:53:19Z</time>
      </trkpt>
      <trkpt lat="43.50048" lon="6.94136">
        <ele>159</ele>
        <time>2012-04-23T09:53:27Z</time>
      </trkpt>
      <trkpt lat="43.50036" lon="6.94138">
        <ele>159</ele>
        <time>2012-04-23T09:53:35Z</time>
      </trkpt>
      <trkpt lat="43.50025" lon="6.94148">
        <ele>162</ele>
        <time>2012-04-23T09:53:44Z</time>
      </trkpt>
      <trkpt lat="43.50024" lon="6.94149">
        <ele>162</ele>
        <time>2012-04-23T09:53:45Z</time>
      </trkpt>
      <trkpt lat="43.50015" lon="6.94156">
        <ele>165</ele>
        <time>2012-04-23T09:53:53Z</time>
      </trkpt>
      <trkpt lat="43.50008" lon="6.94154">
        <ele>165</ele>
        <time>2012-04-23T09:53:59Z</time>
      </trkpt>
      <trkpt lat="43.49996" lon="6.94145">
        <ele>170</ele>
        <time>2012-04-23T09:54:09Z</time>
      </trkpt>
      <trkpt lat="43.49986" lon="6.9414">
        <ele>170</ele>
        <time>2012-04-23T09:54:17Z</time>
      </trkpt>
      <trkpt lat="43.49984" lon="6.94139">
        <ele>170</ele>
        <time>2012-04-23T09:54:22Z</time>
      </trkpt>
      <trkpt lat="43.49982" lon="6.94136">
        <ele>169</ele>
        <time>2012-04-23T09:54:30Z</time>
      </trkpt>
      <trkpt lat="43.4997" lon="6.94132">
        <ele>170</ele>
        <time>2012-04-23T09:54:39Z</time>
      </trkpt>
      <trkpt lat="43.49955" lon="6.94129">
        <ele>171</ele>
        <time>2012-04-23T09:54:49Z</time>
      </trkpt>
      <trkpt lat="43.49943" lon="6.94126">
        <ele>171</ele>
        <time>2012-04-23T09:54:57Z</time>
      </trkpt>
      <trkpt lat="43.4993" lon="6.94122">
        <ele>172</ele>
        <time>2012-04-23T09:55:06Z</time>
      </trkpt>
      <trkpt lat="43.49916" lon="6.94119">
        <ele>177</ele>
        <time>2012-04-23T09:55:16Z</time>
      </trkpt>
      <trkpt lat="43.49903" lon="6.94117">
        <ele>177</ele>
        <time>2012-04-23T09:55:24Z</time>
      </trkpt>
      <trkpt lat="43.49888" lon="6.94116">
        <ele>177</ele>
        <time>2012-04-23T09:55:34Z</time>
      </trkpt>
      <trkpt lat="43.49876" lon="6.94118">
        <ele>177</ele>
        <time>2012-04-23T09:55:42Z</time>
      </trkpt>
      <trkpt lat="43.49862" lon="6.94124">
        <ele>178</ele>
        <time>2012-04-23T09:55:52Z</time>
      </trkpt>
      <trkpt lat="43.49847" lon="6.94125">
        <ele>178</ele>
        <time>2012-04-23T09:56:02Z</time>
      </trkpt>
      <trkpt lat="43.49841" lon="6.94126">
        <ele>178</ele>
        <time>2012-04-23T09:56:07Z</time>
      </trkpt>
      <trkpt lat="43.49836" lon="6.94125">
        <ele>178</ele>
        <time>2012-04-23T09:56:13Z</time>
      </trkpt>
      <trkpt lat="43.49836" lon="6.94126">
        <ele>178</ele>
        <time>2012-04-23T09:56:45Z</time>
      </trkpt>
      <trkpt lat="43.49837" lon="6.94125">
        <ele>178</ele>
        <time>2012-04-23T09:57:01Z</time>
      </trkpt>
      <trkpt lat="43.49836" lon="6.94123">
        <ele>178</ele>
        <time>2012-04-23T09:57:16Z</time>
      </trkpt>
      <trkpt lat="43.49837" lon="6.94123">
        <ele>178</ele>
        <time>2012-04-23T09:57:38Z</time>
      </trkpt>
      <trkpt lat="43.49835" lon="6.94123">
        <ele>178</ele>
        <time>2012-04-23T09:57:45Z</time>
      </trkpt>
      <trkpt lat="43.49835" lon="6.94123">
        <ele>178</ele>
        <time>2012-04-23T09:58:27Z</time>
      </trkpt>
      <trkpt lat="43.4983" lon="6.94136">
        <ele>178</ele>
        <time>2012-04-23T09:58:35Z</time>
      </trkpt>
      <trkpt lat="43.49824" lon="6.94142">
        <ele>179</ele>
        <time>2012-04-23T09:58:41Z</time>
      </trkpt>
      <trkpt lat="43.4981" lon="6.94147">
        <ele>179</ele>
        <time>2012-04-23T09:58:48Z</time>
      </trkpt>
      <trkpt lat="43.49785" lon="6.9416">
        <ele>178</ele>
        <time>2012-04-23T09:58:55Z</time>
      </trkpt>
      <trkpt lat="43.49778" lon="6.94163">
        <ele>178</ele>
        <time>2012-04-23T09:58:57Z</time>
      </trkpt>
      <trkpt lat="43.49746" lon="6.94166">
        <ele>179</ele>
        <time>2012-04-23T09:59:05Z</time>
      </trkpt>
      <trkpt lat="43.49711" lon="6.94164">
        <ele>169</ele>
        <time>2012-04-23T09:59:14Z</time>
      </trkpt>
      <trkpt lat="43.49696" lon="6.94168">
        <ele>176</ele>
        <time>2012-04-23T09:59:18Z</time>
      </trkpt>
      <trkpt lat="43.4968" lon="6.94181">
        <ele>174</ele>
        <time>2012-04-23T09:59:22Z</time>
      </trkpt>
      <trkpt lat="43.49658" lon="6.94201">
        <ele>166</ele>
        <time>2012-04-23T09:59:26Z</time>
      </trkpt>
      <trkpt lat="43.49618" lon="6.9423">
        <ele>164</ele>
        <time>2012-04-23T09:59:32Z</time>
      </trkpt>
      <trkpt lat="43.49608" lon="6.94236">
        <ele>163</ele>
        <time>2012-04-23T09:59:35Z</time>
      </trkpt>
      <trkpt lat="43.49601" lon="6.94238">
        <ele>163</ele>
        <time>2012-04-23T09:59:39Z</time>
      </trkpt>
      <trkpt lat="43.4958" lon="6.94248">
        <ele>160</ele>
        <time>2012-04-23T09:59:45Z</time>
      </trkpt>
      <trkpt lat="43.49567" lon="6.9426">
        <ele>158</ele>
        <time>2012-04-23T09:59:50Z</time>
      </trkpt>
      <trkpt lat="43.49562" lon="6.94265">
        <ele>157</ele>
        <time>2012-04-23T09:59:53Z</time>
      </trkpt>
      <trkpt lat="43.49562" lon="6.9428">
        <ele>157</ele>
        <time>2012-04-23T10:00:00Z</time>
      </trkpt>
      <trkpt lat="43.49565" lon="6.94292">
        <ele>156</ele>
        <time>2012-04-23T10:00:06Z</time>
      </trkpt>
      <trkpt lat="43.49565" lon="6.94292">
        <ele>156</ele>
        <time>2012-04-23T10:00:26Z</time>
      </trkpt>
      <trkpt lat="43.49564" lon="6.94293">
        <ele>156</ele>
        <time>2012-04-23T10:01:18Z</time>
      </trkpt>
      <trkpt lat="43.49559" lon="6.94284">
        <ele>156</ele>
        <time>2012-04-23T10:01:25Z</time>
      </trkpt>
      <trkpt lat="43.49558" lon="6.94283">
        <ele>156</ele>
        <time>2012-04-23T10:01:30Z</time>
      </trkpt>
      <trkpt lat="43.49554" lon="6.94275">
        <ele>156</ele>
        <time>2012-04-23T10:01:52Z</time>
      </trkpt>
      <trkpt lat="43.49554" lon="6.94267">
        <ele>157</ele>
        <time>2012-04-23T10:01:57Z</time>
      </trkpt>
      <trkpt lat="43.49557" lon="6.94263">
        <ele>157</ele>
        <time>2012-04-23T10:02:04Z</time>
      </trkpt>
      <trkpt lat="43.49561" lon="6.94261">
        <ele>157</ele>
        <time>2012-04-23T10:02:13Z</time>
      </trkpt>
      <trkpt lat="43.49564" lon="6.94259">
        <ele>158</ele>
        <time>2012-04-23T10:02:25Z</time>
      </trkpt>
      <trkpt lat="43.49566" lon="6.94256">
        <ele>158</ele>
        <time>2012-04-23T10:02:35Z</time>
      </trkpt>
      <trkpt lat="43.49567" lon="6.9425">
        <ele>158</ele>
        <time>2012-04-23T10:02:44Z</time>
      </trkpt>
      <trkpt lat="43.49566" lon="6.94252">
        <ele>158</ele>
        <time>2012-04-23T10:02:56Z</time>
      </trkpt>
      <trkpt lat="43.49564" lon="6.94257">
        <ele>158</ele>
        <time>2012-04-23T10:03:05Z</time>
      </trkpt>
      <trkpt lat="43.4956" lon="6.94261">
        <ele>157</ele>
        <time>2012-04-23T10:03:13Z</time>
      </trkpt>
      <trkpt lat="43.49556" lon="6.94262">
        <ele>157</ele>
        <time>2012-04-23T10:03:22Z</time>
      </trkpt>
      <trkpt lat="43.49555" lon="6.94262">
        <ele>157</ele>
        <time>2012-04-23T10:03:23Z</time>
      </trkpt>
      <trkpt lat="43.49557" lon="6.94268">
        <ele>157</ele>
        <time>2012-04-23T10:03:29Z</time>
      </trkpt>
      <trkpt lat="43.49563" lon="6.94266">
        <ele>157</ele>
        <time>2012-04-23T10:03:36Z</time>
      </trkpt>
      <trkpt lat="43.49567" lon="6.94262">
        <ele>158</ele>
        <time>2012-04-23T10:03:43Z</time>
      </trkpt>
      <trkpt lat="43.49567" lon="6.9426">
        <ele>158</ele>
        <time>2012-04-23T10:03:44Z</time>
      </trkpt>
      <trkpt lat="43.4957" lon="6.94253">
        <ele>159</ele>
        <time>2012-04-23T10:03:53Z</time>
      </trkpt>
      <trkpt lat="43.49572" lon="6.94251">
        <ele>159</ele>
        <time>2012-04-23T10:04:00Z</time>
      </trkpt>
      <trkpt lat="43.49578" lon="6.94247">
        <ele>159</ele>
        <time>2012-04-23T10:04:08Z</time>
      </trkpt>
      <trkpt lat="43.49579" lon="6.9424">
        <ele>158</ele>
        <time>2012-04-23T10:04:14Z</time>
      </trkpt>
      <trkpt lat="43.49578" lon="6.94238">
        <ele>158</ele>
        <time>2012-04-23T10:04:21Z</time>
      </trkpt>
      <trkpt lat="43.49578" lon="6.9424">
        <ele>158</ele>
        <time>2012-04-23T10:04:36Z</time>
      </trkpt>
      <trkpt lat="43.49576" lon="6.94248">
        <ele>159</ele>
        <time>2012-04-23T10:04:42Z</time>
      </trkpt>
      <trkpt lat="43.49576" lon="6.9426">
        <ele>159</ele>
        <time>2012-04-23T10:04:47Z</time>
      </trkpt>
      <trkpt lat="43.49575" lon="6.94273">
        <ele>157</ele>
        <time>2012-04-23T10:04:53Z</time>
      </trkpt>
      <trkpt lat="43.49574" lon="6.94278">
        <ele>157</ele>
        <time>2012-04-23T10:04:56Z</time>
      </trkpt>
      <trkpt lat="43.49569" lon="6.94273">
        <ele>157</ele>
        <time>2012-04-23T10:05:02Z</time>
      </trkpt>
      <trkpt lat="43.49561" lon="6.94268">
        <ele>157</ele>
        <time>2012-04-23T10:05:06Z</time>
      </trkpt>
      <trkpt lat="43.49548" lon="6.94262">
        <ele>157</ele>
        <time>2012-04-23T10:05:11Z</time>
      </trkpt>
      <trkpt lat="43.49546" lon="6.94258">
        <ele>157</ele>
        <time>2012-04-23T10:05:15Z</time>
      </trkpt>
      <trkpt lat="43.49544" lon="6.94252">
        <ele>157</ele>
        <time>2012-04-23T10:05:23Z</time>
      </trkpt>
      <trkpt lat="43.49542" lon="6.94246">
        <ele>155</ele>
        <time>2012-04-23T10:05:26Z</time>
      </trkpt>
      <trkpt lat="43.49534" lon="6.94242">
        <ele>155</ele>
        <time>2012-04-23T10:05:32Z</time>
      </trkpt>
      <trkpt lat="43.49532" lon="6.94242">
        <ele>155</ele>
        <time>2012-04-23T10:05:33Z</time>
      </trkpt>
      <trkpt lat="43.49517" lon="6.94246">
        <ele>155</ele>
        <time>2012-04-23T10:05:41Z</time>
      </trkpt>
      <trkpt lat="43.49503" lon="6.94248">
        <ele>157</ele>
        <time>2012-04-23T10:05:49Z</time>
      </trkpt>
      <trkpt lat="43.49488" lon="6.9425">
        <ele>155</ele>
        <time>2012-04-23T10:05:56Z</time>
      </trkpt>
      <trkpt lat="43.49466" lon="6.9425">
        <ele>154</ele>
        <time>2012-04-23T10:06:05Z</time>
      </trkpt>
      <trkpt lat="43.49445" lon="6.9425">
        <ele>153</ele>
        <time>2012-04-23T10:06:12Z</time>
      </trkpt>
      <trkpt lat="43.49432" lon="6.94255">
        <ele>154</ele>
        <time>2012-04-23T10:06:16Z</time>
      </trkpt>
      <trkpt lat="43.49427" lon="6.94255">
        <ele>154</ele>
        <time>2012-04-23T10:06:17Z</time>
      </trkpt>
      <trkpt lat="43.49393" lon="6.94254">
        <ele>153</ele>
        <time>2012-04-23T10:06:24Z</time>
      </trkpt>
      <trkpt lat="43.49379" lon="6.94254">
        <ele>152</ele>
        <time>2012-04-23T10:06:29Z</time>
      </trkpt>
      <trkpt lat="43.49365" lon="6.94254">
        <ele>153</ele>
        <time>2012-04-23T10:06:37Z</time>
      </trkpt>
      <trkpt lat="43.49352" lon="6.94257">
        <ele>154</ele>
        <time>2012-04-23T10:06:45Z</time>
      </trkpt>
      <trkpt lat="43.49348" lon="6.94252">
        <ele>154</ele>
        <time>2012-04-23T10:06:49Z</time>
      </trkpt>
      <trkpt lat="43.49346" lon="6.94233">
        <ele>159</ele>
        <time>2012-04-23T10:06:58Z</time>
      </trkpt>
      <trkpt lat="43.49345" lon="6.94226">
        <ele>159</ele>
        <time>2012-04-23T10:07:03Z</time>
      </trkpt>
      <trkpt lat="43.49346" lon="6.94219">
        <ele>159</ele>
        <time>2012-04-23T10:07:28Z</time>
      </trkpt>
      <trkpt lat="43.49346" lon="6.942">
        <ele>161</ele>
        <time>2012-04-23T10:07:36Z</time>
      </trkpt>
      <trkpt lat="43.49346" lon="6.94189">
        <ele>162</ele>
        <time>2012-04-23T10:07:43Z</time>
      </trkpt>
      <trkpt lat="43.49346" lon="6.94187">
        <ele>162</ele>
        <time>2012-04-23T10:07:55Z</time>
      </trkpt>
      <trkpt lat="43.49344" lon="6.9417">
        <ele>165</ele>
        <time>2012-04-23T10:08:03Z</time>
      </trkpt>
      <trkpt lat="43.49344" lon="6.94168">
        <ele>165</ele>
        <time>2012-04-23T10:08:04Z</time>
      </trkpt>
      <trkpt lat="43.49341" lon="6.94156">
        <ele>165</ele>
        <time>2012-04-23T10:08:10Z</time>
      </trkpt>
      <trkpt lat="43.49341" lon="6.94149">
        <ele>164</ele>
        <time>2012-04-23T10:08:13Z</time>
      </trkpt>
      <trkpt lat="43.49339" lon="6.94129">
        <ele>162</ele>
        <time>2012-04-23T10:08:23Z</time>
      </trkpt>
      <trkpt lat="43.49339" lon="6.9412">
        <ele>163</ele>
        <time>2012-04-23T10:08:27Z</time>
      </trkpt>
      <trkpt lat="43.49341" lon="6.94114">
        <ele>163</ele>
        <time>2012-04-23T10:08:29Z</time>
      </trkpt>
      <trkpt lat="43.4934" lon="6.94101">
        <ele>165</ele>
        <time>2012-04-23T10:08:36Z</time>
      </trkpt>
      <trkpt lat="43.49337" lon="6.94083">
        <ele>170</ele>
        <time>2012-04-23T10:08:45Z</time>
      </trkpt>
      <trkpt lat="43.49336" lon="6.94066">
        <ele>165</ele>
        <time>2012-04-23T10:08:54Z</time>
      </trkpt>
      <trkpt lat="43.49335" lon="6.94049">
        <ele>162</ele>
        <time>2012-04-23T10:09:03Z</time>
      </trkpt>
      <trkpt lat="43.49333" lon="6.94029">
        <ele>176</ele>
        <time>2012-04-23T10:09:13Z</time>
      </trkpt>
      <trkpt lat="43.49332" lon="6.9401">
        <ele>176</ele>
        <time>2012-04-23T10:09:22Z</time>
      </trkpt>
      <trkpt lat="43.49329" lon="6.93994">
        <ele>176</ele>
        <time>2012-04-23T10:09:30Z</time>
      </trkpt>
      <trkpt lat="43.49325" lon="6.93972">
        <ele>176</ele>
        <time>2012-04-23T10:09:38Z</time>
      </trkpt>
      <trkpt lat="43.49321" lon="6.93948">
        <ele>176</ele>
        <time>2012-04-23T10:09:48Z</time>
      </trkpt>
      <trkpt lat="43.49317" lon="6.93927">
        <ele>176</ele>
        <time>2012-04-23T10:09:56Z</time>
      </trkpt>
      <trkpt lat="43.49313" lon="6.93911">
        <ele>174</ele>
        <time>2012-04-23T10:10:03Z</time>
      </trkpt>
      <trkpt lat="43.49308" lon="6.93885">
        <ele>174</ele>
        <time>2012-04-23T10:10:14Z</time>
      </trkpt>
      <trkpt lat="43.49304" lon="6.93863">
        <ele>173</ele>
        <time>2012-04-23T10:10:24Z</time>
      </trkpt>
      <trkpt lat="43.49303" lon="6.93861">
        <ele>173</ele>
        <time>2012-04-23T10:10:25Z</time>
      </trkpt>
      <trkpt lat="43.49299" lon="6.93858">
        <ele>173</ele>
        <time>2012-04-23T10:10:32Z</time>
      </trkpt>
      <trkpt lat="43.49298" lon="6.93859">
        <ele>173</ele>
        <time>2012-04-23T10:10:49Z</time>
      </trkpt>
      <trkpt lat="43.49297" lon="6.93859">
        <ele>173</ele>
        <time>2012-04-23T10:11:03Z</time>
      </trkpt>
      <trkpt lat="43.49296" lon="6.93859">
        <ele>173</ele>
        <time>2012-04-23T10:11:39Z</time>
      </trkpt>
      <trkpt lat="43.493" lon="6.93848">
        <ele>173</ele>
        <time>2012-04-23T10:11:44Z</time>
      </trkpt>
      <trkpt lat="43.49302" lon="6.93829">
        <ele>172</ele>
        <time>2012-04-23T10:11:49Z</time>
      </trkpt>
      <trkpt lat="43.49306" lon="6.93797">
        <ele>172</ele>
        <time>2012-04-23T10:11:56Z</time>
      </trkpt>
      <trkpt lat="43.49308" lon="6.93769">
        <ele>172</ele>
        <time>2012-04-23T10:12:02Z</time>
      </trkpt>
      <trkpt lat="43.49305" lon="6.93739">
        <ele>170</ele>
        <time>2012-04-23T10:12:10Z</time>
      </trkpt>
      <trkpt lat="43.49305" lon="6.93739">
        <ele>170</ele>
        <time>2012-04-23T10:12:17Z</time>
      </trkpt>
      <trkpt lat="43.49305" lon="6.93738">
        <ele>170</ele>
        <time>2012-04-23T10:12:26Z</time>
      </trkpt>
      <trkpt lat="43.49305" lon="6.93736">
        <ele>170</ele>
        <time>2012-04-23T10:12:46Z</time>
      </trkpt>
      <trkpt lat="43.493" lon="6.93728">
        <ele>170</ele>
        <time>2012-04-23T10:12:50Z</time>
      </trkpt>
      <trkpt lat="43.49297" lon="6.93706">
        <ele>169</ele>
        <time>2012-04-23T10:12:55Z</time>
      </trkpt>
      <trkpt lat="43.49298" lon="6.937">
        <ele>169</ele>
        <time>2012-04-23T10:12:56Z</time>
      </trkpt>
      <trkpt lat="43.49306" lon="6.93683">
        <ele>170</ele>
        <time>2012-04-23T10:13:00Z</time>
      </trkpt>
      <trkpt lat="43.49317" lon="6.93671">
        <ele>172</ele>
        <time>2012-04-23T10:13:05Z</time>
      </trkpt>
      <trkpt lat="43.49321" lon="6.93667">
        <ele>171</ele>
        <time>2012-04-23T10:13:07Z</time>
      </trkpt>
      <trkpt lat="43.49334" lon="6.93649">
        <ele>170</ele>
        <time>2012-04-23T10:13:12Z</time>
      </trkpt>
      <trkpt lat="43.49334" lon="6.93629">
        <ele>168</ele>
        <time>2012-04-23T10:13:15Z</time>
      </trkpt>
      <trkpt lat="43.49342" lon="6.93596">
        <ele>169</ele>
        <time>2012-04-23T10:13:20Z</time>
      </trkpt>
      <trkpt lat="43.49347" lon="6.93583">
        <ele>171</ele>
        <time>2012-04-23T10:13:22Z</time>
      </trkpt>
      <trkpt lat="43.49357" lon="6.93565">
        <ele>169</ele>
        <time>2012-04-23T10:13:27Z</time>
      </trkpt>
      <trkpt lat="43.49357" lon="6.93566">
        <ele>169</ele>
        <time>2012-04-23T10:13:41Z</time>
      </trkpt>
      <trkpt lat="43.49351" lon="6.93561">
        <ele>170</ele>
        <time>2012-04-23T10:13:47Z</time>
      </trkpt>
      <trkpt lat="43.49351" lon="6.93561">
        <ele>170</ele>
        <time>2012-04-23T10:13:48Z</time>
      </trkpt>
      <trkpt lat="43.49346" lon="6.9355">
        <ele>170</ele>
        <time>2012-04-23T10:13:53Z</time>
      </trkpt>
      <trkpt lat="43.4934" lon="6.93523">
        <ele>172</ele>
        <time>2012-04-23T10:14:01Z</time>
      </trkpt>
      <trkpt lat="43.49337" lon="6.93514">
        <ele>174</ele>
        <time>2012-04-23T10:14:06Z</time>
      </trkpt>
      <trkpt lat="43.49336" lon="6.93514">
        <ele>174</ele>
        <time>2012-04-23T10:14:15Z</time>
      </trkpt>
      <trkpt lat="43.49335" lon="6.93507">
        <ele>175</ele>
        <time>2012-04-23T10:14:28Z</time>
      </trkpt>
      <trkpt lat="43.49333" lon="6.93492">
        <ele>174</ele>
        <time>2012-04-23T10:14:34Z</time>
      </trkpt>
      <trkpt lat="43.49333" lon="6.93474">
        <ele>170</ele>
        <time>2012-04-23T10:14:41Z</time>
      </trkpt>
      <trkpt lat="43.49337" lon="6.93455">
        <ele>175</ele>
        <time>2012-04-23T10:14:49Z</time>
      </trkpt>
      <trkpt lat="43.49341" lon="6.93436">
        <ele>176</ele>
        <time>2012-04-23T10:14:56Z</time>
      </trkpt>
      <trkpt lat="43.49342" lon="6.93425">
        <ele>177</ele>
        <time>2012-04-23T10:15:00Z</time>
      </trkpt>
      <trkpt lat="43.4934" lon="6.93424">
        <ele>177</ele>
        <time>2012-04-23T10:15:04Z</time>
      </trkpt>
      <trkpt lat="43.4934" lon="6.93424">
        <ele>177</ele>
        <time>2012-04-23T10:15:13Z</time>
      </trkpt>
      <trkpt lat="43.49332" lon="6.93416">
        <ele>179</ele>
        <time>2012-04-23T10:15:18Z</time>
      </trkpt>
      <trkpt lat="43.49333" lon="6.93396">
        <ele>171</ele>
        <time>2012-04-23T10:15:23Z</time>
      </trkpt>
      <trkpt lat="43.49333" lon="6.93385">
        <ele>168</ele>
        <time>2012-04-23T10:15:26Z</time>
      </trkpt>
      <trkpt lat="43.4933" lon="6.93371">
        <ele>167</ele>
        <time>2012-04-23T10:15:30Z</time>
      </trkpt>
      <trkpt lat="43.4933" lon="6.93355">
        <ele>168</ele>
        <time>2012-04-23T10:15:33Z</time>
      </trkpt>
      <trkpt lat="43.49333" lon="6.93337">
        <ele>172</ele>
        <time>2012-04-23T10:15:37Z</time>
      </trkpt>
      <trkpt lat="43.49335" lon="6.93325">
        <ele>171</ele>
        <time>2012-04-23T10:15:42Z</time>
      </trkpt>
      <trkpt lat="43.49335" lon="6.93325">
        <ele>171</ele>
        <time>2012-04-23T10:15:49Z</time>
      </trkpt>
      <trkpt lat="43.49332" lon="6.9332">
        <ele>165</ele>
        <time>2012-04-23T10:15:55Z</time>
      </trkpt>
      <trkpt lat="43.49339" lon="6.93306">
        <ele>168</ele>
        <time>2012-04-23T10:16:00Z</time>
      </trkpt>
      <trkpt lat="43.49349" lon="6.93294">
        <ele>166</ele>
        <time>2012-04-23T10:16:04Z</time>
      </trkpt>
      <trkpt lat="43.49353" lon="6.93284">
        <ele>166</ele>
        <time>2012-04-23T10:16:07Z</time>
      </trkpt>
      <trkpt lat="43.49356" lon="6.93276">
        <ele>165</ele>
        <time>2012-04-23T10:16:10Z</time>
      </trkpt>
      <trkpt lat="43.4936" lon="6.9327">
        <ele>165</ele>
        <time>2012-04-23T10:16:13Z</time>
      </trkpt>
      <trkpt lat="43.49361" lon="6.93268">
        <ele>165</ele>
        <time>2012-04-23T10:16:14Z</time>
      </trkpt>
      <trkpt lat="43.49367" lon="6.93247">
        <ele>160</ele>
        <time>2012-04-23T10:16:20Z</time>
      </trkpt>
      <trkpt lat="43.49361" lon="6.93238">
        <ele>160</ele>
        <time>2012-04-23T10:16:23Z</time>
      </trkpt>
      <trkpt lat="43.49354" lon="6.93238">
        <ele>160</ele>
        <time>2012-04-23T10:16:25Z</time>
      </trkpt>
      <trkpt lat="43.49342" lon="6.93241">
        <ele>160</ele>
        <time>2012-04-23T10:16:30Z</time>
      </trkpt>
      <trkpt lat="43.49342" lon="6.93241">
        <ele>160</ele>
        <time>2012-04-23T10:16:44Z</time>
      </trkpt>
      <trkpt lat="43.49351" lon="6.93238">
        <ele>160</ele>
        <time>2012-04-23T10:16:51Z</time>
      </trkpt>
      <trkpt lat="43.49353" lon="6.93238">
        <ele>160</ele>
        <time>2012-04-23T10:16:52Z</time>
      </trkpt>
      <trkpt lat="43.49363" lon="6.93239">
        <ele>160</ele>
        <time>2012-04-23T10:17:00Z</time>
      </trkpt>
      <trkpt lat="43.49368" lon="6.93242">
        <ele>160</ele>
        <time>2012-04-23T10:17:07Z</time>
      </trkpt>
      <trkpt lat="43.49369" lon="6.93241">
        <ele>160</ele>
        <time>2012-04-23T10:17:11Z</time>
      </trkpt>
      <trkpt lat="43.49369" lon="6.93238">
        <ele>160</ele>
        <time>2012-04-23T10:17:13Z</time>
      </trkpt>
      <trkpt lat="43.49375" lon="6.93227">
        <ele>160</ele>
        <time>2012-04-23T10:17:18Z</time>
      </trkpt>
      <trkpt lat="43.49373" lon="6.93214">
        <ele>159</ele>
        <time>2012-04-23T10:17:22Z</time>
      </trkpt>
      <trkpt lat="43.49368" lon="6.932">
        <ele>158</ele>
        <time>2012-04-23T10:17:26Z</time>
      </trkpt>
      <trkpt lat="43.49368" lon="6.93198">
        <ele>158</ele>
        <time>2012-04-23T10:17:30Z</time>
      </trkpt>
      <trkpt lat="43.49369" lon="6.93198">
        <ele>158</ele>
        <time>2012-04-23T10:17:48Z</time>
      </trkpt>
      <trkpt lat="43.49372" lon="6.9319">
        <ele>158</ele>
        <time>2012-04-23T10:17:53Z</time>
      </trkpt>
      <trkpt lat="43.4937" lon="6.93171">
        <ele>157</ele>
        <time>2012-04-23T10:17:59Z</time>
      </trkpt>
      <trkpt lat="43.49374" lon="6.93155">
        <ele>152</ele>
        <time>2012-04-23T10:18:03Z</time>
      </trkpt>
      <trkpt lat="43.49385" lon="6.9314">
        <ele>152</ele>
        <time>2012-04-23T10:18:09Z</time>
      </trkpt>
      <trkpt lat="43.4939" lon="6.93136">
        <ele>153</ele>
        <time>2012-04-23T10:18:14Z</time>
      </trkpt>
      <trkpt lat="43.49395" lon="6.93133">
        <ele>153</ele>
        <time>2012-04-23T10:18:46Z</time>
      </trkpt>
      <trkpt lat="43.49409" lon="6.93125">
        <ele>154</ele>
        <time>2012-04-23T10:18:51Z</time>
      </trkpt>
      <trkpt lat="43.49429" lon="6.93116">
        <ele>155</ele>
        <time>2012-04-23T10:18:58Z</time>
      </trkpt>
      <trkpt lat="43.49439" lon="6.93109">
        <ele>154</ele>
        <time>2012-04-23T10:19:03Z</time>
      </trkpt>
      <trkpt lat="43.49441" lon="6.93093">
        <ele>154</ele>
        <time>2012-04-23T10:19:07Z</time>
      </trkpt>
      <trkpt lat="43.49442" lon="6.93065">
        <ele>150</ele>
        <time>2012-04-23T10:19:12Z</time>
      </trkpt>
      <trkpt lat="43.49446" lon="6.93046">
        <ele>149</ele>
        <time>2012-04-23T10:19:15Z</time>
      </trkpt>
      <trkpt lat="43.49451" lon="6.93034">
        <ele>148</ele>
        <time>2012-04-23T10:19:17Z</time>
      </trkpt>
      <trkpt lat="43.49457" lon="6.9301">
        <ele>147</ele>
        <time>2012-04-23T10:19:21Z</time>
      </trkpt>
      <trkpt lat="43.49462" lon="6.92996">
        <ele>141</ele>
        <time>2012-04-23T10:19:24Z</time>
      </trkpt>
      <trkpt lat="43.49457" lon="6.9299">
        <ele>141</ele>
        <time>2012-04-23T10:19:28Z</time>
      </trkpt>
      <trkpt lat="43.49448" lon="6.92991">
        <ele>141</ele>
        <time>2012-04-23T10:19:31Z</time>
      </trkpt>
      <trkpt lat="43.49445" lon="6.92982">
        <ele>141</ele>
        <time>2012-04-23T10:19:33Z</time>
      </trkpt>
      <trkpt lat="43.49443" lon="6.92966">
        <ele>140</ele>
        <time>2012-04-23T10:19:36Z</time>
      </trkpt>
      <trkpt lat="43.49435" lon="6.92947">
        <ele>139</ele>
        <time>2012-04-23T10:19:41Z</time>
      </trkpt>
      <trkpt lat="43.49433" lon="6.92926">
        <ele>137</ele>
        <time>2012-04-23T10:19:46Z</time>
      </trkpt>
      <trkpt lat="43.49435" lon="6.92921">
        <ele>137</ele>
        <time>2012-04-23T10:19:47Z</time>
      </trkpt>
      <trkpt lat="43.49444" lon="6.92902">
        <ele>130</ele>
        <time>2012-04-23T10:19:52Z</time>
      </trkpt>
      <trkpt lat="43.49446" lon="6.92896">
        <ele>130</ele>
        <time>2012-04-23T10:19:56Z</time>
      </trkpt>
      <trkpt lat="43.49454" lon="6.92885">
        <ele>129</ele>
        <time>2012-04-23T10:20:00Z</time>
      </trkpt>
      <trkpt lat="43.49462" lon="6.92874">
        <ele>129</ele>
        <time>2012-04-23T10:20:03Z</time>
      </trkpt>
      <trkpt lat="43.49465" lon="6.92861">
        <ele>128</ele>
        <time>2012-04-23T10:20:08Z</time>
      </trkpt>
      <trkpt lat="43.49467" lon="6.92858">
        <ele>127</ele>
        <time>2012-04-23T10:20:11Z</time>
      </trkpt>
      <trkpt lat="43.49473" lon="6.9284">
        <ele>126</ele>
        <time>2012-04-23T10:20:15Z</time>
      </trkpt>
      <trkpt lat="43.49483" lon="6.92819">
        <ele>120</ele>
        <time>2012-04-23T10:20:20Z</time>
      </trkpt>
      <trkpt lat="43.49486" lon="6.92809">
        <ele>120</ele>
        <time>2012-04-23T10:20:25Z</time>
      </trkpt>
      <trkpt lat="43.49485" lon="6.92804">
        <ele>119</ele>
        <time>2012-04-23T10:20:31Z</time>
      </trkpt>
      <trkpt lat="43.49485" lon="6.92804">
        <ele>119</ele>
        <time>2012-04-23T10:20:43Z</time>
      </trkpt>
      <trkpt lat="43.49481" lon="6.92795">
        <ele>119</ele>
        <time>2012-04-23T10:20:47Z</time>
      </trkpt>
      <trkpt lat="43.49481" lon="6.92795">
        <ele>119</ele>
        <time>2012-04-23T10:20:52Z</time>
      </trkpt>
      <trkpt lat="43.49481" lon="6.92796">
        <ele>119</ele>
        <time>2012-04-23T10:21:01Z</time>
      </trkpt>
      <trkpt lat="43.49487" lon="6.92784">
        <ele>118</ele>
        <time>2012-04-23T10:21:07Z</time>
      </trkpt>
      <trkpt lat="43.49488" lon="6.92781">
        <ele>118</ele>
        <time>2012-04-23T10:21:08Z</time>
      </trkpt>
      <trkpt lat="43.49486" lon="6.92775">
        <ele>118</ele>
        <time>2012-04-23T10:21:12Z</time>
      </trkpt>
      <trkpt lat="43.49486" lon="6.92777">
        <ele>118</ele>
        <time>2012-04-23T10:21:13Z</time>
      </trkpt>
      <trkpt lat="43.49482" lon="6.92795">
        <ele>119</ele>
        <time>2012-04-23T10:21:20Z</time>
      </trkpt>
      <trkpt lat="43.49474" lon="6.92812">
        <ele>119</ele>
        <time>2012-04-23T10:21:27Z</time>
      </trkpt>
      <trkpt lat="43.49463" lon="6.92829">
        <ele>119</ele>
        <time>2012-04-23T10:21:34Z</time>
      </trkpt>
      <trkpt lat="43.49452" lon="6.92842">
        <ele>126</ele>
        <time>2012-04-23T10:21:41Z</time>
      </trkpt>
      <trkpt lat="43.49439" lon="6.9284">
        <ele>125</ele>
        <time>2012-04-23T10:21:47Z</time>
      </trkpt>
      <trkpt lat="43.49423" lon="6.92842">
        <ele>124</ele>
        <time>2012-04-23T10:21:54Z</time>
      </trkpt>
      <trkpt lat="43.49419" lon="6.92844">
        <ele>124</ele>
        <time>2012-04-23T10:21:58Z</time>
      </trkpt>
      <trkpt lat="43.49414" lon="6.92849">
        <ele>118</ele>
        <time>2012-04-23T10:22:04Z</time>
      </trkpt>
      <trkpt lat="43.49402" lon="6.92871">
        <ele>117</ele>
        <time>2012-04-23T10:22:12Z</time>
      </trkpt>
      <trkpt lat="43.49401" lon="6.92873">
        <ele>117</ele>
        <time>2012-04-23T10:22:16Z</time>
      </trkpt>
      <trkpt lat="43.49403" lon="6.92873">
        <ele>118</ele>
        <time>2012-04-23T10:22:26Z</time>
      </trkpt>
      <trkpt lat="43.49408" lon="6.92858">
        <ele>117</ele>
        <time>2012-04-23T10:22:32Z</time>
      </trkpt>
      <trkpt lat="43.4941" lon="6.92854">
        <ele>118</ele>
        <time>2012-04-23T10:22:33Z</time>
      </trkpt>
      <trkpt lat="43.49429" lon="6.9284">
        <ele>124</ele>
        <time>2012-04-23T10:22:38Z</time>
      </trkpt>
      <trkpt lat="43.49441" lon="6.92841">
        <ele>125</ele>
        <time>2012-04-23T10:22:41Z</time>
      </trkpt>
      <trkpt lat="43.49459" lon="6.92837">
        <ele>126</ele>
        <time>2012-04-23T10:22:46Z</time>
      </trkpt>
      <trkpt lat="43.49474" lon="6.92814">
        <ele>119</ele>
        <time>2012-04-23T10:22:52Z</time>
      </trkpt>
      <trkpt lat="43.49485" lon="6.92802">
        <ele>119</ele>
        <time>2012-04-23T10:22:57Z</time>
      </trkpt>
      <trkpt lat="43.49484" lon="6.92801">
        <ele>119</ele>
        <time>2012-04-23T10:23:01Z</time>
      </trkpt>
      <trkpt lat="43.49485" lon="6.92791">
        <ele>119</ele>
        <time>2012-04-23T10:23:05Z</time>
      </trkpt>
      <trkpt lat="43.49487" lon="6.92763">
        <ele>118</ele>
        <time>2012-04-23T10:23:10Z</time>
      </trkpt>
      <trkpt lat="43.49482" lon="6.92749">
        <ele>118</ele>
        <time>2012-04-23T10:23:16Z</time>
      </trkpt>
      <trkpt lat="43.4948" lon="6.92744">
        <ele>117</ele>
        <time>2012-04-23T10:23:21Z</time>
      </trkpt>
      <trkpt lat="43.49481" lon="6.92746">
        <ele>117</ele>
        <time>2012-04-23T10:23:57Z</time>
      </trkpt>
      <trkpt lat="43.49489" lon="6.92749">
        <ele>118</ele>
        <time>2012-04-23T10:24:05Z</time>
      </trkpt>
      <trkpt lat="43.49491" lon="6.9275">
        <ele>119</ele>
        <time>2012-04-23T10:24:10Z</time>
      </trkpt>
      <trkpt lat="43.49492" lon="6.92751">
        <ele>119</ele>
        <time>2012-04-23T10:24:30Z</time>
      </trkpt>
      <trkpt lat="43.49489" lon="6.9276">
        <ele>119</ele>
        <time>2012-04-23T10:24:37Z</time>
      </trkpt>
      <trkpt lat="43.49488" lon="6.9276">
        <ele>119</ele>
        <time>2012-04-23T10:24:38Z</time>
      </trkpt>
      <trkpt lat="43.49482" lon="6.9275">
        <ele>118</ele>
        <time>2012-04-23T10:24:44Z</time>
      </trkpt>
      <trkpt lat="43.49474" lon="6.92728">
        <ele>117</ele>
        <time>2012-04-23T10:24:53Z</time>
      </trkpt>
      <trkpt lat="43.49471" lon="6.92706">
        <ele>117</ele>
        <time>2012-04-23T10:25:02Z</time>
      </trkpt>
      <trkpt lat="43.4947" lon="6.92695">
        <ele>118</ele>
        <time>2012-04-23T10:25:09Z</time>
      </trkpt>
      <trkpt lat="43.49472" lon="6.92688">
        <ele>118</ele>
        <time>2012-04-23T10:25:14Z</time>
      </trkpt>
      <trkpt lat="43.49472" lon="6.92682">
        <ele>119</ele>
        <time>2012-04-23T10:25:18Z</time>
      </trkpt>
      <trkpt lat="43.49476" lon="6.9266">
        <ele>126</ele>
        <time>2012-04-23T10:25:28Z</time>
      </trkpt>
      <trkpt lat="43.49476" lon="6.92644">
        <ele>126</ele>
        <time>2012-04-23T10:25:35Z</time>
      </trkpt>
      <trkpt lat="43.49474" lon="6.92627">
        <ele>127</ele>
        <time>2012-04-23T10:25:43Z</time>
      </trkpt>
      <trkpt lat="43.4947" lon="6.92607">
        <ele>129</ele>
        <time>2012-04-23T10:25:52Z</time>
      </trkpt>
      <trkpt lat="43.4947" lon="6.92604">
        <ele>129</ele>
        <time>2012-04-23T10:25:53Z</time>
      </trkpt>
      <trkpt lat="43.49463" lon="6.9259">
        <ele>129</ele>
        <time>2012-04-23T10:26:01Z</time>
      </trkpt>
      <trkpt lat="43.49452" lon="6.92571">
        <ele>138</ele>
        <time>2012-04-23T10:26:11Z</time>
      </trkpt>
      <trkpt lat="43.49441" lon="6.92551">
        <ele>139</ele>
        <time>2012-04-23T10:26:21Z</time>
      </trkpt>
      <trkpt lat="43.49435" lon="6.92532">
        <ele>141</ele>
        <time>2012-04-23T10:26:30Z</time>
      </trkpt>
      <trkpt lat="43.49431" lon="6.92505">
        <ele>143</ele>
        <time>2012-04-23T10:26:41Z</time>
      </trkpt>
      <trkpt lat="43.49428" lon="6.92484">
        <ele>151</ele>
        <time>2012-04-23T10:26:49Z</time>
      </trkpt>
      <trkpt lat="43.49426" lon="6.92461">
        <ele>155</ele>
        <time>2012-04-23T10:26:58Z</time>
      </trkpt>
      <trkpt lat="43.49422" lon="6.92447">
        <ele>156</ele>
        <time>2012-04-23T10:27:04Z</time>
      </trkpt>
      <trkpt lat="43.49422" lon="6.92438">
        <ele>157</ele>
        <time>2012-04-23T10:27:08Z</time>
      </trkpt>
      <trkpt lat="43.49425" lon="6.92434">
        <ele>158</ele>
        <time>2012-04-23T10:27:13Z</time>
      </trkpt>
      <trkpt lat="43.49426" lon="6.92434">
        <ele>158</ele>
        <time>2012-04-23T10:27:34Z</time>
      </trkpt>
      <trkpt lat="43.49429" lon="6.92434">
        <ele>158</ele>
        <time>2012-04-23T10:27:41Z</time>
      </trkpt>
      <trkpt lat="43.49431" lon="6.92436">
        <ele>158</ele>
        <time>2012-04-23T10:31:33Z</time>
      </trkpt>
      <trkpt lat="43.49435" lon="6.92451">
        <ele>156</ele>
        <time>2012-04-23T10:31:39Z</time>
      </trkpt>
      <trkpt lat="43.4944" lon="6.92483">
        <ele>153</ele>
        <time>2012-04-23T10:31:48Z</time>
      </trkpt>
      <trkpt lat="43.49448" lon="6.92516">
        <ele>143</ele>
        <time>2012-04-23T10:31:56Z</time>
      </trkpt>
      <trkpt lat="43.49458" lon="6.92538">
        <ele>142</ele>
        <time>2012-04-23T10:32:02Z</time>
      </trkpt>
      <trkpt lat="43.49469" lon="6.92552">
        <ele>142</ele>
        <time>2012-04-23T10:32:08Z</time>
      </trkpt>
      <trkpt lat="43.49481" lon="6.92563">
        <ele>142</ele>
        <time>2012-04-23T10:32:15Z</time>
      </trkpt>
      <trkpt lat="43.49493" lon="6.92572">
        <ele>143</ele>
        <time>2012-04-23T10:32:22Z</time>
      </trkpt>
      <trkpt lat="43.49505" lon="6.92578">
        <ele>142</ele>
        <time>2012-04-23T10:32:30Z</time>
      </trkpt>
      <trkpt lat="43.49515" lon="6.92579">
        <ele>141</ele>
        <time>2012-04-23T10:32:36Z</time>
      </trkpt>
      <trkpt lat="43.49522" lon="6.9257">
        <ele>141</ele>
        <time>2012-04-23T10:32:42Z</time>
      </trkpt>
      <trkpt lat="43.49523" lon="6.92568">
        <ele>141</ele>
        <time>2012-04-23T10:32:43Z</time>
      </trkpt>
      <trkpt lat="43.49527" lon="6.9255">
        <ele>141</ele>
        <time>2012-04-23T10:32:52Z</time>
      </trkpt>
      <trkpt lat="43.49529" lon="6.9253">
        <ele>143</ele>
        <time>2012-04-23T10:33:02Z</time>
      </trkpt>
      <trkpt lat="43.49529" lon="6.92517">
        <ele>144</ele>
        <time>2012-04-23T10:33:08Z</time>
      </trkpt>
      <trkpt lat="43.49527" lon="6.92502">
        <ele>146</ele>
        <time>2012-04-23T10:33:15Z</time>
      </trkpt>
      <trkpt lat="43.49525" lon="6.92478">
        <ele>152</ele>
        <time>2012-04-23T10:33:25Z</time>
      </trkpt>
      <trkpt lat="43.49524" lon="6.92459">
        <ele>153</ele>
        <time>2012-04-23T10:33:34Z</time>
      </trkpt>
      <trkpt lat="43.49522" lon="6.92441">
        <ele>154</ele>
        <time>2012-04-23T10:33:43Z</time>
      </trkpt>
      <trkpt lat="43.49519" lon="6.92431">
        <ele>156</ele>
        <time>2012-04-23T10:33:49Z</time>
      </trkpt>
      <trkpt lat="43.49516" lon="6.9242">
        <ele>158</ele>
        <time>2012-04-23T10:33:55Z</time>
      </trkpt>
      <trkpt lat="43.4952" lon="6.92404">
        <ele>161</ele>
        <time>2012-04-23T10:34:03Z</time>
      </trkpt>
      <trkpt lat="43.49527" lon="6.92392">
        <ele>160</ele>
        <time>2012-04-23T10:34:10Z</time>
      </trkpt>
      <trkpt lat="43.49537" lon="6.92378">
        <ele>159</ele>
        <time>2012-04-23T10:34:19Z</time>
      </trkpt>
      <trkpt lat="43.49547" lon="6.92362">
        <ele>159</ele>
        <time>2012-04-23T10:34:28Z</time>
      </trkpt>
      <trkpt lat="43.4955" lon="6.92346">
        <ele>159</ele>
        <time>2012-04-23T10:34:35Z</time>
      </trkpt>
      <trkpt lat="43.4955" lon="6.92329">
        <ele>165</ele>
        <time>2012-04-23T10:34:44Z</time>
      </trkpt>
      <trkpt lat="43.4955" lon="6.92313">
        <ele>166</ele>
        <time>2012-04-23T10:34:52Z</time>
      </trkpt>
      <trkpt lat="43.49551" lon="6.92291">
        <ele>167</ele>
        <time>2012-04-23T10:35:02Z</time>
      </trkpt>
      <trkpt lat="43.49552" lon="6.92272">
        <ele>167</ele>
        <time>2012-04-23T10:35:11Z</time>
      </trkpt>
      <trkpt lat="43.49554" lon="6.92259">
        <ele>167</ele>
        <time>2012-04-23T10:35:18Z</time>
      </trkpt>
      <trkpt lat="43.49554" lon="6.92257">
        <ele>167</ele>
        <time>2012-04-23T10:35:25Z</time>
      </trkpt>
      <trkpt lat="43.49555" lon="6.92243">
        <ele>169</ele>
        <time>2012-04-23T10:35:32Z</time>
      </trkpt>
      <trkpt lat="43.49554" lon="6.92223">
        <ele>170</ele>
        <time>2012-04-23T10:35:41Z</time>
      </trkpt>
      <trkpt lat="43.49548" lon="6.92204">
        <ele>171</ele>
        <time>2012-04-23T10:35:50Z</time>
      </trkpt>
      <trkpt lat="43.49538" lon="6.92187">
        <ele>172</ele>
        <time>2012-04-23T10:35:59Z</time>
      </trkpt>
      <trkpt lat="43.49529" lon="6.92168">
        <ele>173</ele>
        <time>2012-04-23T10:36:08Z</time>
      </trkpt>
      <trkpt lat="43.49519" lon="6.9216">
        <ele>175</ele>
        <time>2012-04-23T10:36:15Z</time>
      </trkpt>
      <trkpt lat="43.49512" lon="6.92166">
        <ele>176</ele>
        <time>2012-04-23T10:36:20Z</time>
      </trkpt>
      <trkpt lat="43.495" lon="6.92183">
        <ele>181</ele>
        <time>2012-04-23T10:36:30Z</time>
      </trkpt>
      <trkpt lat="43.49498" lon="6.92186">
        <ele>182</ele>
        <time>2012-04-23T10:36:31Z</time>
      </trkpt>
      <trkpt lat="43.4949" lon="6.92185">
        <ele>182</ele>
        <time>2012-04-23T10:36:37Z</time>
      </trkpt>
      <trkpt lat="43.49489" lon="6.92183">
        <ele>182</ele>
        <time>2012-04-23T10:36:38Z</time>
      </trkpt>
      <trkpt lat="43.49489" lon="6.92165">
        <ele>179</ele>
        <time>2012-04-23T10:36:47Z</time>
      </trkpt>
      <trkpt lat="43.49488" lon="6.92154">
        <ele>180</ele>
        <time>2012-04-23T10:36:53Z</time>
      </trkpt>
      <trkpt lat="43.49483" lon="6.92141">
        <ele>181</ele>
        <time>2012-04-23T10:36:59Z</time>
      </trkpt>
      <trkpt lat="43.4948" lon="6.92126">
        <ele>181</ele>
        <time>2012-04-23T10:37:06Z</time>
      </trkpt>
      <trkpt lat="43.49471" lon="6.92113">
        <ele>181</ele>
        <time>2012-04-23T10:37:14Z</time>
      </trkpt>
      <trkpt lat="43.49461" lon="6.92108">
        <ele>182</ele>
        <time>2012-04-23T10:37:21Z</time>
      </trkpt>
      <trkpt lat="43.49448" lon="6.92107">
        <ele>182</ele>
        <time>2012-04-23T10:37:29Z</time>
      </trkpt>
      <trkpt lat="43.49439" lon="6.92102">
        <ele>182</ele>
        <time>2012-04-23T10:37:35Z</time>
      </trkpt>
      <trkpt lat="43.49433" lon="6.92092">
        <ele>183</ele>
        <time>2012-04-23T10:37:41Z</time>
      </trkpt>
      <trkpt lat="43.49427" lon="6.92082">
        <ele>183</ele>
        <time>2012-04-23T10:37:47Z</time>
      </trkpt>
      <trkpt lat="43.49424" lon="6.92075">
        <ele>183</ele>
        <time>2012-04-23T10:37:50Z</time>
      </trkpt>
      <trkpt lat="43.49422" lon="6.92071">
        <ele>183</ele>
        <time>2012-04-23T10:37:53Z</time>
      </trkpt>
      <trkpt lat="43.49419" lon="6.92052">
        <ele>184</ele>
        <time>2012-04-23T10:38:02Z</time>
      </trkpt>
      <trkpt lat="43.49419" lon="6.92037">
        <ele>184</ele>
        <time>2012-04-23T10:38:09Z</time>
      </trkpt>
      <trkpt lat="43.49426" lon="6.92027">
        <ele>185</ele>
        <time>2012-04-23T10:38:17Z</time>
      </trkpt>
      <trkpt lat="43.49431" lon="6.9202">
        <ele>185</ele>
        <time>2012-04-23T10:38:24Z</time>
      </trkpt>
      <trkpt lat="43.4944" lon="6.9201">
        <ele>185</ele>
        <time>2012-04-23T10:38:31Z</time>
      </trkpt>
      <trkpt lat="43.49454" lon="6.92">
        <ele>185</ele>
        <time>2012-04-23T10:38:40Z</time>
      </trkpt>
      <trkpt lat="43.49469" lon="6.91988">
        <ele>194</ele>
        <time>2012-04-23T10:38:50Z</time>
      </trkpt>
      <trkpt lat="43.49477" lon="6.91977">
        <ele>195</ele>
        <time>2012-04-23T10:38:57Z</time>
      </trkpt>
      <trkpt lat="43.49483" lon="6.91965">
        <ele>196</ele>
        <time>2012-04-23T10:39:04Z</time>
      </trkpt>
      <trkpt lat="43.49491" lon="6.9195">
        <ele>199</ele>
        <time>2012-04-23T10:39:12Z</time>
      </trkpt>
      <trkpt lat="43.49501" lon="6.91945">
        <ele>200</ele>
        <time>2012-04-23T10:39:19Z</time>
      </trkpt>
      <trkpt lat="43.49511" lon="6.9195">
        <ele>199</ele>
        <time>2012-04-23T10:39:26Z</time>
      </trkpt>
      <trkpt lat="43.49524" lon="6.91954">
        <ele>198</ele>
        <time>2012-04-23T10:39:34Z</time>
      </trkpt>
      <trkpt lat="43.49534" lon="6.91945">
        <ele>198</ele>
        <time>2012-04-23T10:39:41Z</time>
      </trkpt>
      <trkpt lat="43.49541" lon="6.9193">
        <ele>200</ele>
        <time>2012-04-23T10:39:49Z</time>
      </trkpt>
      <trkpt lat="43.49547" lon="6.91917">
        <ele>200</ele>
        <time>2012-04-23T10:39:56Z</time>
      </trkpt>
      <trkpt lat="43.49548" lon="6.91914">
        <ele>213</ele>
        <time>2012-04-23T10:40:01Z</time>
      </trkpt>
      <trkpt lat="43.49547" lon="6.91915">
        <ele>213</ele>
        <time>2012-04-23T10:40:21Z</time>
      </trkpt>
      <trkpt lat="43.49544" lon="6.91918">
        <ele>200</ele>
        <time>2012-04-23T10:41:46Z</time>
      </trkpt>
      <trkpt lat="43.49551" lon="6.91909">
        <ele>213</ele>
        <time>2012-04-23T10:43:20Z</time>
      </trkpt>
      <trkpt lat="43.49558" lon="6.91892">
        <ele>214</ele>
        <time>2012-04-23T10:43:28Z</time>
      </trkpt>
      <trkpt lat="43.49568" lon="6.91875">
        <ele>217</ele>
        <time>2012-04-23T10:43:38Z</time>
      </trkpt>
      <trkpt lat="43.49574" lon="6.91871">
        <ele>218</ele>
        <time>2012-04-23T10:43:43Z</time>
      </trkpt>
      <trkpt lat="43.49587" lon="6.91881">
        <ele>220</ele>
        <time>2012-04-23T10:43:52Z</time>
      </trkpt>
      <trkpt lat="43.496" lon="6.91892">
        <ele>218</ele>
        <time>2012-04-23T10:44:02Z</time>
      </trkpt>
      <trkpt lat="43.49611" lon="6.91898">
        <ele>219</ele>
        <time>2012-04-23T10:44:09Z</time>
      </trkpt>
      <trkpt lat="43.49621" lon="6.91904">
        <ele>221</ele>
        <time>2012-04-23T10:44:16Z</time>
      </trkpt>
      <trkpt lat="43.49629" lon="6.91918">
        <ele>211</ele>
        <time>2012-04-23T10:44:24Z</time>
      </trkpt>
      <trkpt lat="43.49637" lon="6.91932">
        <ele>212</ele>
        <time>2012-04-23T10:44:32Z</time>
      </trkpt>
      <trkpt lat="43.49645" lon="6.91947">
        <ele>212</ele>
        <time>2012-04-23T10:44:40Z</time>
      </trkpt>
      <trkpt lat="43.49655" lon="6.91962">
        <ele>211</ele>
        <time>2012-04-23T10:44:49Z</time>
      </trkpt>
      <trkpt lat="43.49665" lon="6.91976">
        <ele>211</ele>
        <time>2012-04-23T10:44:58Z</time>
      </trkpt>
      <trkpt lat="43.49673" lon="6.91988">
        <ele>218</ele>
        <time>2012-04-23T10:45:06Z</time>
      </trkpt>
      <trkpt lat="43.49681" lon="6.92">
        <ele>215</ele>
        <time>2012-04-23T10:45:14Z</time>
      </trkpt>
      <trkpt lat="43.49689" lon="6.92013">
        <ele>216</ele>
        <time>2012-04-23T10:45:22Z</time>
      </trkpt>
      <trkpt lat="43.49696" lon="6.92021">
        <ele>217</ele>
        <time>2012-04-23T10:45:29Z</time>
      </trkpt>
      <trkpt lat="43.49697" lon="6.92022">
        <ele>217</ele>
        <time>2012-04-23T10:45:33Z</time>
      </trkpt>
      <trkpt lat="43.49702" lon="6.92027">
        <ele>218</ele>
        <time>2012-04-23T10:46:00Z</time>
      </trkpt>
      <trkpt lat="43.4971" lon="6.9204">
        <ele>219</ele>
        <time>2012-04-23T10:46:07Z</time>
      </trkpt>
      <trkpt lat="43.49715" lon="6.92055">
        <ele>219</ele>
        <time>2012-04-23T10:46:14Z</time>
      </trkpt>
      <trkpt lat="43.49716" lon="6.92057">
        <ele>219</ele>
        <time>2012-04-23T10:46:15Z</time>
      </trkpt>
      <trkpt lat="43.49718" lon="6.92067">
        <ele>219</ele>
        <time>2012-04-23T10:46:20Z</time>
      </trkpt>
      <trkpt lat="43.4972" lon="6.92087">
        <ele>216</ele>
        <time>2012-04-23T10:46:29Z</time>
      </trkpt>
      <trkpt lat="43.49721" lon="6.92105">
        <ele>215</ele>
        <time>2012-04-23T10:46:37Z</time>
      </trkpt>
      <trkpt lat="43.49724" lon="6.92124">
        <ele>215</ele>
        <time>2012-04-23T10:46:46Z</time>
      </trkpt>
      <trkpt lat="43.49728" lon="6.92146">
        <ele>216</ele>
        <time>2012-04-23T10:46:56Z</time>
      </trkpt>
      <trkpt lat="43.49732" lon="6.9216">
        <ele>218</ele>
        <time>2012-04-23T10:47:04Z</time>
      </trkpt>
      <trkpt lat="43.49738" lon="6.92178">
        <ele>215</ele>
        <time>2012-04-23T10:47:12Z</time>
      </trkpt>
      <trkpt lat="43.49746" lon="6.92194">
        <ele>211</ele>
        <time>2012-04-23T10:47:20Z</time>
      </trkpt>
      <trkpt lat="43.49755" lon="6.92207">
        <ele>224</ele>
        <time>2012-04-23T10:47:28Z</time>
      </trkpt>
      <trkpt lat="43.49764" lon="6.92216">
        <ele>223</ele>
        <time>2012-04-23T10:47:35Z</time>
      </trkpt>
      <trkpt lat="43.49764" lon="6.92215">
        <ele>223</ele>
        <time>2012-04-23T10:47:41Z</time>
      </trkpt>
      <trkpt lat="43.49765" lon="6.92213">
        <ele>223</ele>
        <time>2012-04-23T10:48:14Z</time>
      </trkpt>
      <trkpt lat="43.49764" lon="6.92212">
        <ele>224</ele>
        <time>2012-04-23T10:48:37Z</time>
      </trkpt>
      <trkpt lat="43.49765" lon="6.92212">
        <ele>224</ele>
        <time>2012-04-23T10:49:28Z</time>
      </trkpt>
      <trkpt lat="43.49767" lon="6.92214">
        <ele>224</ele>
        <time>2012-04-23T10:49:32Z</time>
      </trkpt>
      <trkpt lat="43.49776" lon="6.92219">
        <ele>224</ele>
        <time>2012-04-23T10:49:38Z</time>
      </trkpt>
      <trkpt lat="43.4979" lon="6.92225">
        <ele>225</ele>
        <time>2012-04-23T10:49:48Z</time>
      </trkpt>
      <trkpt lat="43.49797" lon="6.92227">
        <ele>226</ele>
        <time>2012-04-23T10:49:52Z</time>
      </trkpt>
      <trkpt lat="43.4981" lon="6.92221">
        <ele>227</ele>
        <time>2012-04-23T10:50:01Z</time>
      </trkpt>
      <trkpt lat="43.49816" lon="6.92216">
        <ele>228</ele>
        <time>2012-04-23T10:50:06Z</time>
      </trkpt>
      <trkpt lat="43.49818" lon="6.9221">
        <ele>228</ele>
        <time>2012-04-23T10:50:10Z</time>
      </trkpt>
      <trkpt lat="43.49816" lon="6.92202">
        <ele>227</ele>
        <time>2012-04-23T10:50:17Z</time>
      </trkpt>
      <trkpt lat="43.49811" lon="6.9219">
        <ele>227</ele>
        <time>2012-04-23T10:50:25Z</time>
      </trkpt>
      <trkpt lat="43.4981" lon="6.92188">
        <ele>227</ele>
        <time>2012-04-23T10:50:30Z</time>
      </trkpt>
      <trkpt lat="43.49809" lon="6.92187">
        <ele>227</ele>
        <time>2012-04-23T10:50:37Z</time>
      </trkpt>
      <trkpt lat="43.49808" lon="6.92187">
        <ele>227</ele>
        <time>2012-04-23T10:51:13Z</time>
      </trkpt>
      <trkpt lat="43.49809" lon="6.92187">
        <ele>227</ele>
        <time>2012-04-23T10:51:38Z</time>
      </trkpt>
      <trkpt lat="43.49812" lon="6.92191">
        <ele>227</ele>
        <time>2012-04-23T10:51:42Z</time>
      </trkpt>
      <trkpt lat="43.49816" lon="6.92211">
        <ele>227</ele>
        <time>2012-04-23T10:51:49Z</time>
      </trkpt>
      <trkpt lat="43.49815" lon="6.92213">
        <ele>227</ele>
        <time>2012-04-23T10:51:50Z</time>
      </trkpt>
      <trkpt lat="43.49808" lon="6.92222">
        <ele>227</ele>
        <time>2012-04-23T10:51:56Z</time>
      </trkpt>
      <trkpt lat="43.49804" lon="6.92225">
        <ele>227</ele>
        <time>2012-04-23T10:51:59Z</time>
      </trkpt>
      <trkpt lat="43.49794" lon="6.92227">
        <ele>225</ele>
        <time>2012-04-23T10:52:04Z</time>
      </trkpt>
      <trkpt lat="43.49788" lon="6.92225">
        <ele>225</ele>
        <time>2012-04-23T10:52:09Z</time>
      </trkpt>
      <trkpt lat="43.49787" lon="6.92226">
        <ele>225</ele>
        <time>2012-04-23T10:52:26Z</time>
      </trkpt>
      <trkpt lat="43.49787" lon="6.92228">
        <ele>225</ele>
        <time>2012-04-23T10:52:28Z</time>
      </trkpt>
      <trkpt lat="43.49789" lon="6.92229">
        <ele>225</ele>
        <time>2012-04-23T10:52:30Z</time>
      </trkpt>
      <trkpt lat="43.49802" lon="6.92224">
        <ele>226</ele>
        <time>2012-04-23T10:52:36Z</time>
      </trkpt>
      <trkpt lat="43.49806" lon="6.92222">
        <ele>227</ele>
        <time>2012-04-23T10:52:38Z</time>
      </trkpt>
      <trkpt lat="43.49813" lon="6.92207">
        <ele>227</ele>
        <time>2012-04-23T10:52:44Z</time>
      </trkpt>
      <trkpt lat="43.49811" lon="6.92196">
        <ele>227</ele>
        <time>2012-04-23T10:52:48Z</time>
      </trkpt>
      <trkpt lat="43.49799" lon="6.92173">
        <ele>227</ele>
        <time>2012-04-23T10:52:55Z</time>
      </trkpt>
      <trkpt lat="43.49783" lon="6.92137">
        <ele>226</ele>
        <time>2012-04-23T10:53:04Z</time>
      </trkpt>
      <trkpt lat="43.49773" lon="6.92101">
        <ele>226</ele>
        <time>2012-04-23T10:53:12Z</time>
      </trkpt>
      <trkpt lat="43.49763" lon="6.92077">
        <ele>226</ele>
        <time>2012-04-23T10:53:18Z</time>
      </trkpt>
      <trkpt lat="43.49752" lon="6.92038">
        <ele>226</ele>
        <time>2012-04-23T10:53:27Z</time>
      </trkpt>
      <trkpt lat="43.4974" lon="6.92004">
        <ele>227</ele>
        <time>2012-04-23T10:53:35Z</time>
      </trkpt>
      <trkpt lat="43.49729" lon="6.91978">
        <ele>227</ele>
        <time>2012-04-23T10:53:41Z</time>
      </trkpt>
      <trkpt lat="43.4971" lon="6.91936">
        <ele>226</ele>
        <time>2012-04-23T10:53:50Z</time>
      </trkpt>
      <trkpt lat="43.49696" lon="6.91906">
        <ele>229</ele>
        <time>2012-04-23T10:53:57Z</time>
      </trkpt>
      <trkpt lat="43.4969" lon="6.9189">
        <ele>229</ele>
        <time>2012-04-23T10:54:02Z</time>
      </trkpt>
      <trkpt lat="43.49677" lon="6.91855">
        <ele>232</ele>
        <time>2012-04-23T10:54:13Z</time>
      </trkpt>
      <trkpt lat="43.4967" lon="6.91827">
        <ele>236</ele>
        <time>2012-04-23T10:54:22Z</time>
      </trkpt>
      <trkpt lat="43.4966" lon="6.91803">
        <ele>239</ele>
        <time>2012-04-23T10:54:30Z</time>
      </trkpt>
      <trkpt lat="43.4965" lon="6.91776">
        <ele>240</ele>
        <time>2012-04-23T10:54:39Z</time>
      </trkpt>
      <trkpt lat="43.49649" lon="6.91772">
        <ele>240</ele>
        <time>2012-04-23T10:54:43Z</time>
      </trkpt>
      <trkpt lat="43.4965" lon="6.91774">
        <ele>240</ele>
        <time>2012-04-23T10:54:53Z</time>
      </trkpt>
      <trkpt lat="43.4965" lon="6.91774">
        <ele>240</ele>
        <time>2012-04-23T10:54:54Z</time>
      </trkpt>
      <trkpt lat="43.49639" lon="6.91771">
        <ele>240</ele>
        <time>2012-04-23T10:54:58Z</time>
      </trkpt>
      <trkpt lat="43.49627" lon="6.91763">
        <ele>240</ele>
        <time>2012-04-23T10:55:01Z</time>
      </trkpt>
      <trkpt lat="43.49619" lon="6.91759">
        <ele>241</ele>
        <time>2012-04-23T10:55:03Z</time>
      </trkpt>
      <trkpt lat="43.49601" lon="6.91759">
        <ele>242</ele>
        <time>2012-04-23T10:55:07Z</time>
      </trkpt>
      <trkpt lat="43.49588" lon="6.91764">
        <ele>243</ele>
        <time>2012-04-23T10:55:12Z</time>
      </trkpt>
      <trkpt lat="43.49588" lon="6.91764">
        <ele>243</ele>
        <time>2012-04-23T10:55:16Z</time>
      </trkpt>
      <trkpt lat="43.49586" lon="6.91765">
        <ele>243</ele>
        <time>2012-04-23T10:55:21Z</time>
      </trkpt>
      <trkpt lat="43.49584" lon="6.91767">
        <ele>242</ele>
        <time>2012-04-23T10:55:27Z</time>
      </trkpt>
      <trkpt lat="43.4958" lon="6.91772">
        <ele>244</ele>
        <time>2012-04-23T10:55:30Z</time>
      </trkpt>
      <trkpt lat="43.49569" lon="6.91783">
        <ele>242</ele>
        <time>2012-04-23T10:55:34Z</time>
      </trkpt>
      <trkpt lat="43.49566" lon="6.91786">
        <ele>242</ele>
        <time>2012-04-23T10:55:35Z</time>
      </trkpt>
      <trkpt lat="43.49555" lon="6.91798">
        <ele>241</ele>
        <time>2012-04-23T10:55:38Z</time>
      </trkpt>
      <trkpt lat="43.49545" lon="6.91824">
        <ele>238</ele>
        <time>2012-04-23T10:55:42Z</time>
      </trkpt>
      <trkpt lat="43.49537" lon="6.91842">
        <ele>222</ele>
        <time>2012-04-23T10:55:46Z</time>
      </trkpt>
      <trkpt lat="43.49531" lon="6.91851">
        <ele>221</ele>
        <time>2012-04-23T10:55:50Z</time>
      </trkpt>
      <trkpt lat="43.49529" lon="6.9186">
        <ele>220</ele>
        <time>2012-04-23T10:55:54Z</time>
      </trkpt>
      <trkpt lat="43.49528" lon="6.91861">
        <ele>220</ele>
        <time>2012-04-23T10:55:59Z</time>
      </trkpt>
      <trkpt lat="43.49527" lon="6.91862">
        <ele>220</ele>
        <time>2012-04-23T10:56:12Z</time>
      </trkpt>
      <trkpt lat="43.49525" lon="6.91864">
        <ele>220</ele>
        <time>2012-04-23T10:56:20Z</time>
      </trkpt>
      <trkpt lat="43.49524" lon="6.91867">
        <ele>219</ele>
        <time>2012-04-23T10:56:27Z</time>
      </trkpt>
      <trkpt lat="43.49523" lon="6.91869">
        <ele>219</ele>
        <time>2012-04-23T10:56:36Z</time>
      </trkpt>
      <trkpt lat="43.49523" lon="6.91873">
        <ele>218</ele>
        <time>2012-04-23T10:56:45Z</time>
      </trkpt>
      <trkpt lat="43.49521" lon="6.91876">
        <ele>218</ele>
        <time>2012-04-23T10:56:51Z</time>
      </trkpt>
      <trkpt lat="43.49512" lon="6.91884">
        <ele>216</ele>
        <time>2012-04-23T10:56:55Z</time>
      </trkpt>
      <trkpt lat="43.49504" lon="6.91891">
        <ele>215</ele>
        <time>2012-04-23T10:56:59Z</time>
      </trkpt>
      <trkpt lat="43.49489" lon="6.91904">
        <ele>214</ele>
        <time>2012-04-23T10:57:04Z</time>
      </trkpt>
      <trkpt lat="43.49479" lon="6.91915">
        <ele>214</ele>
        <time>2012-04-23T10:57:08Z</time>
      </trkpt>
      <trkpt lat="43.49471" lon="6.91927">
        <ele>201</ele>
        <time>2012-04-23T10:57:12Z</time>
      </trkpt>
      <trkpt lat="43.49467" lon="6.91935">
        <ele>200</ele>
        <time>2012-04-23T10:57:17Z</time>
      </trkpt>
      <trkpt lat="43.49464" lon="6.9194">
        <ele>199</ele>
        <time>2012-04-23T10:57:23Z</time>
      </trkpt>
      <trkpt lat="43.49456" lon="6.91954">
        <ele>198</ele>
        <time>2012-04-23T10:57:28Z</time>
      </trkpt>
      <trkpt lat="43.49455" lon="6.91956">
        <ele>197</ele>
        <time>2012-04-23T10:57:29Z</time>
      </trkpt>
      <trkpt lat="43.49441" lon="6.91975">
        <ele>195</ele>
        <time>2012-04-23T10:57:34Z</time>
      </trkpt>
      <trkpt lat="43.49439" lon="6.91991">
        <ele>193</ele>
        <time>2012-04-23T10:57:38Z</time>
      </trkpt>
      <trkpt lat="43.4943" lon="6.92019">
        <ele>185</ele>
        <time>2012-04-23T10:57:44Z</time>
      </trkpt>
      <trkpt lat="43.49429" lon="6.92023">
        <ele>185</ele>
        <time>2012-04-23T10:57:48Z</time>
      </trkpt>
      <trkpt lat="43.49429" lon="6.92022">
        <ele>185</ele>
        <time>2012-04-23T10:58:04Z</time>
      </trkpt>
      <trkpt lat="43.49423" lon="6.92035">
        <ele>184</ele>
        <time>2012-04-23T10:58:09Z</time>
      </trkpt>
      <trkpt lat="43.49422" lon="6.9206">
        <ele>184</ele>
        <time>2012-04-23T10:58:13Z</time>
      </trkpt>
      <trkpt lat="43.49423" lon="6.92067">
        <ele>183</ele>
        <time>2012-04-23T10:58:14Z</time>
      </trkpt>
      <trkpt lat="43.49435" lon="6.92109">
        <ele>183</ele>
        <time>2012-04-23T10:58:21Z</time>
      </trkpt>
      <trkpt lat="43.49444" lon="6.92131">
        <ele>183</ele>
        <time>2012-04-23T10:58:26Z</time>
      </trkpt>
      <trkpt lat="43.49451" lon="6.92144">
        <ele>183</ele>
        <time>2012-04-23T10:58:31Z</time>
      </trkpt>
      <trkpt lat="43.49453" lon="6.92147">
        <ele>183</ele>
        <time>2012-04-23T10:58:32Z</time>
      </trkpt>
      <trkpt lat="43.49459" lon="6.92176">
        <ele>185</ele>
        <time>2012-04-23T10:58:38Z</time>
      </trkpt>
      <trkpt lat="43.49463" lon="6.92211">
        <ele>186</ele>
        <time>2012-04-23T10:58:43Z</time>
      </trkpt>
      <trkpt lat="43.49468" lon="6.9223">
        <ele>186</ele>
        <time>2012-04-23T10:58:46Z</time>
      </trkpt>
      <trkpt lat="43.49476" lon="6.92253">
        <ele>184</ele>
        <time>2012-04-23T10:58:50Z</time>
      </trkpt>
      <trkpt lat="43.4948" lon="6.92258">
        <ele>183</ele>
        <time>2012-04-23T10:58:51Z</time>
      </trkpt>
      <trkpt lat="43.49488" lon="6.92268">
        <ele>183</ele>
        <time>2012-04-23T10:58:53Z</time>
      </trkpt>
      <trkpt lat="43.49505" lon="6.92295">
        <ele>171</ele>
        <time>2012-04-23T10:58:59Z</time>
      </trkpt>
      <trkpt lat="43.49511" lon="6.92323">
        <ele>171</ele>
        <time>2012-04-23T10:59:04Z</time>
      </trkpt>
      <trkpt lat="43.49515" lon="6.92334">
        <ele>167</ele>
        <time>2012-04-23T10:59:06Z</time>
      </trkpt>
      <trkpt lat="43.49516" lon="6.92358">
        <ele>163</ele>
        <time>2012-04-23T10:59:10Z</time>
      </trkpt>
      <trkpt lat="43.49507" lon="6.92375">
        <ele>162</ele>
        <time>2012-04-23T10:59:14Z</time>
      </trkpt>
      <trkpt lat="43.49505" lon="6.92388">
        <ele>162</ele>
        <time>2012-04-23T10:59:16Z</time>
      </trkpt>
      <trkpt lat="43.49506" lon="6.92431">
        <ele>158</ele>
        <time>2012-04-23T10:59:22Z</time>
      </trkpt>
      <trkpt lat="43.49509" lon="6.92472">
        <ele>154</ele>
        <time>2012-04-23T10:59:28Z</time>
      </trkpt>
      <trkpt lat="43.4951" lon="6.92501">
        <ele>152</ele>
        <time>2012-04-23T10:59:32Z</time>
      </trkpt>
      <trkpt lat="43.49508" lon="6.9252">
        <ele>148</ele>
        <time>2012-04-23T10:59:35Z</time>
      </trkpt>
      <trkpt lat="43.49504" lon="6.92541">
        <ele>144</ele>
        <time>2012-04-23T10:59:41Z</time>
      </trkpt>
      <trkpt lat="43.49502" lon="6.92559">
        <ele>143</ele>
        <time>2012-04-23T10:59:46Z</time>
      </trkpt>
      <trkpt lat="43.49508" lon="6.92578">
        <ele>142</ele>
        <time>2012-04-23T10:59:52Z</time>
      </trkpt>
      <trkpt lat="43.49515" lon="6.9258">
        <ele>142</ele>
        <time>2012-04-23T10:59:56Z</time>
      </trkpt>
      <trkpt lat="43.49526" lon="6.92566">
        <ele>141</ele>
        <time>2012-04-23T11:00:03Z</time>
      </trkpt>
      <trkpt lat="43.4953" lon="6.92558">
        <ele>141</ele>
        <time>2012-04-23T11:00:08Z</time>
      </trkpt>
      <trkpt lat="43.49531" lon="6.92551">
        <ele>141</ele>
        <time>2012-04-23T11:00:21Z</time>
      </trkpt>
      <trkpt lat="43.49532" lon="6.9253">
        <ele>142</ele>
        <time>2012-04-23T11:00:27Z</time>
      </trkpt>
      <trkpt lat="43.49531" lon="6.92504">
        <ele>145</ele>
        <time>2012-04-23T11:00:34Z</time>
      </trkpt>
      <trkpt lat="43.49528" lon="6.92476">
        <ele>151</ele>
        <time>2012-04-23T11:00:42Z</time>
      </trkpt>
      <trkpt lat="43.49526" lon="6.92453">
        <ele>153</ele>
        <time>2012-04-23T11:00:49Z</time>
      </trkpt>
      <trkpt lat="43.49521" lon="6.92431">
        <ele>155</ele>
        <time>2012-04-23T11:00:56Z</time>
      </trkpt>
      <trkpt lat="43.4952" lon="6.9241">
        <ele>161</ele>
        <time>2012-04-23T11:01:01Z</time>
      </trkpt>
      <trkpt lat="43.49531" lon="6.92388">
        <ele>160</ele>
        <time>2012-04-23T11:01:07Z</time>
      </trkpt>
      <trkpt lat="43.49549" lon="6.92362">
        <ele>159</ele>
        <time>2012-04-23T11:01:15Z</time>
      </trkpt>
      <trkpt lat="43.49553" lon="6.92342">
        <ele>159</ele>
        <time>2012-04-23T11:01:20Z</time>
      </trkpt>
      <trkpt lat="43.49552" lon="6.92314">
        <ele>165</ele>
        <time>2012-04-23T11:01:27Z</time>
      </trkpt>
      <trkpt lat="43.49554" lon="6.92288">
        <ele>166</ele>
        <time>2012-04-23T11:01:34Z</time>
      </trkpt>
      <trkpt lat="43.49555" lon="6.92259">
        <ele>167</ele>
        <time>2012-04-23T11:01:42Z</time>
      </trkpt>
      <trkpt lat="43.49556" lon="6.92239">
        <ele>169</ele>
        <time>2012-04-23T11:01:48Z</time>
      </trkpt>
      <trkpt lat="43.49553" lon="6.92215">
        <ele>171</ele>
        <time>2012-04-23T11:01:55Z</time>
      </trkpt>
      <trkpt lat="43.49542" lon="6.92193">
        <ele>172</ele>
        <time>2012-04-23T11:02:03Z</time>
      </trkpt>
      <trkpt lat="43.49533" lon="6.92173">
        <ele>173</ele>
        <time>2012-04-23T11:02:10Z</time>
      </trkpt>
      <trkpt lat="43.49521" lon="6.92164">
        <ele>175</ele>
        <time>2012-04-23T11:02:16Z</time>
      </trkpt>
      <trkpt lat="43.49508" lon="6.92174">
        <ele>175</ele>
        <time>2012-04-23T11:02:22Z</time>
      </trkpt>
      <trkpt lat="43.49498" lon="6.92188">
        <ele>182</ele>
        <time>2012-04-23T11:02:28Z</time>
      </trkpt>
      <trkpt lat="43.49489" lon="6.92184">
        <ele>182</ele>
        <time>2012-04-23T11:02:33Z</time>
      </trkpt>
      <trkpt lat="43.49489" lon="6.9218">
        <ele>182</ele>
        <time>2012-04-23T11:02:34Z</time>
      </trkpt>
      <trkpt lat="43.49486" lon="6.92153">
        <ele>180</ele>
        <time>2012-04-23T11:02:42Z</time>
      </trkpt>
      <trkpt lat="43.49481" lon="6.92129">
        <ele>181</ele>
        <time>2012-04-23T11:02:49Z</time>
      </trkpt>
      <trkpt lat="43.49472" lon="6.92113">
        <ele>181</ele>
        <time>2012-04-23T11:02:55Z</time>
      </trkpt>
      <trkpt lat="43.49452" lon="6.92106">
        <ele>182</ele>
        <time>2012-04-23T11:03:03Z</time>
      </trkpt>
      <trkpt lat="43.49439" lon="6.92095">
        <ele>182</ele>
        <time>2012-04-23T11:03:09Z</time>
      </trkpt>
      <trkpt lat="43.4943" lon="6.9208">
        <ele>183</ele>
        <time>2012-04-23T11:03:15Z</time>
      </trkpt>
      <trkpt lat="43.4942" lon="6.92055">
        <ele>184</ele>
        <time>2012-04-23T11:03:23Z</time>
      </trkpt>
      <trkpt lat="43.49422" lon="6.92036">
        <ele>184</ele>
        <time>2012-04-23T11:03:28Z</time>
      </trkpt>
      <trkpt lat="43.49431" lon="6.92022">
        <ele>185</ele>
        <time>2012-04-23T11:03:33Z</time>
      </trkpt>
      <trkpt lat="43.49445" lon="6.92006">
        <ele>185</ele>
        <time>2012-04-23T11:03:40Z</time>
      </trkpt>
      <trkpt lat="43.49462" lon="6.91994">
        <ele>194</ele>
        <time>2012-04-23T11:03:48Z</time>
      </trkpt>
      <trkpt lat="43.49477" lon="6.91977">
        <ele>195</ele>
        <time>2012-04-23T11:03:56Z</time>
      </trkpt>
      <trkpt lat="43.49486" lon="6.91957">
        <ele>198</ele>
        <time>2012-04-23T11:04:03Z</time>
      </trkpt>
      <trkpt lat="43.49498" lon="6.91945">
        <ele>200</ele>
        <time>2012-04-23T11:04:09Z</time>
      </trkpt>
      <trkpt lat="43.4951" lon="6.9195">
        <ele>199</ele>
        <time>2012-04-23T11:04:14Z</time>
      </trkpt>
      <trkpt lat="43.49526" lon="6.91955">
        <ele>198</ele>
        <time>2012-04-23T11:04:21Z</time>
      </trkpt>
      <trkpt lat="43.49536" lon="6.91943">
        <ele>199</ele>
        <time>2012-04-23T11:04:27Z</time>
      </trkpt>
      <trkpt lat="43.49543" lon="6.91927">
        <ele>200</ele>
        <time>2012-04-23T11:04:33Z</time>
      </trkpt>
      <trkpt lat="43.49551" lon="6.91905">
        <ele>213</ele>
        <time>2012-04-23T11:04:41Z</time>
      </trkpt>
      <trkpt lat="43.49562" lon="6.91884">
        <ele>216</ele>
        <time>2012-04-23T11:04:49Z</time>
      </trkpt>
      <trkpt lat="43.4957" lon="6.91872">
        <ele>218</ele>
        <time>2012-04-23T11:04:54Z</time>
      </trkpt>
      <trkpt lat="43.49583" lon="6.91875">
        <ele>221</ele>
        <time>2012-04-23T11:05:00Z</time>
      </trkpt>
      <trkpt lat="43.496" lon="6.91891">
        <ele>219</ele>
        <time>2012-04-23T11:05:09Z</time>
      </trkpt>
      <trkpt lat="43.49611" lon="6.91897">
        <ele>220</ele>
        <time>2012-04-23T11:05:15Z</time>
      </trkpt>
      <trkpt lat="43.49625" lon="6.9191">
        <ele>221</ele>
        <time>2012-04-23T11:05:23Z</time>
      </trkpt>
      <trkpt lat="43.49636" lon="6.91928">
        <ele>212</ele>
        <time>2012-04-23T11:05:31Z</time>
      </trkpt>
      <trkpt lat="43.49648" lon="6.91948">
        <ele>212</ele>
        <time>2012-04-23T11:05:40Z</time>
      </trkpt>
      <trkpt lat="43.49662" lon="6.91969">
        <ele>211</ele>
        <time>2012-04-23T11:05:50Z</time>
      </trkpt>
      <trkpt lat="43.49676" lon="6.91989">
        <ele>218</ele>
        <time>2012-04-23T11:05:59Z</time>
      </trkpt>
      <trkpt lat="43.49687" lon="6.92006">
        <ele>216</ele>
        <time>2012-04-23T11:06:07Z</time>
      </trkpt>
      <trkpt lat="43.49696" lon="6.9202">
        <ele>217</ele>
        <time>2012-04-23T11:06:14Z</time>
      </trkpt>
      <trkpt lat="43.49708" lon="6.92036">
        <ele>219</ele>
        <time>2012-04-23T11:06:22Z</time>
      </trkpt>
      <trkpt lat="43.49717" lon="6.92055">
        <ele>219</ele>
        <time>2012-04-23T11:06:30Z</time>
      </trkpt>
      <trkpt lat="43.49721" lon="6.92083">
        <ele>220</ele>
        <time>2012-04-23T11:06:40Z</time>
      </trkpt>
      <trkpt lat="43.49722" lon="6.92105">
        <ele>216</ele>
        <time>2012-04-23T11:06:48Z</time>
      </trkpt>
      <trkpt lat="43.49725" lon="6.92128">
        <ele>215</ele>
        <time>2012-04-23T11:06:56Z</time>
      </trkpt>
      <trkpt lat="43.49732" lon="6.92156">
        <ele>218</ele>
        <time>2012-04-23T11:07:06Z</time>
      </trkpt>
      <trkpt lat="43.49739" lon="6.92178">
        <ele>215</ele>
        <time>2012-04-23T11:07:14Z</time>
      </trkpt>
      <trkpt lat="43.49752" lon="6.92199">
        <ele>224</ele>
        <time>2012-04-23T11:07:23Z</time>
      </trkpt>
      <trkpt lat="43.49767" lon="6.92215">
        <ele>223</ele>
        <time>2012-04-23T11:07:32Z</time>
      </trkpt>
      <trkpt lat="43.49781" lon="6.92223">
        <ele>224</ele>
        <time>2012-04-23T11:07:40Z</time>
      </trkpt>
      <trkpt lat="43.4978" lon="6.92222">
        <ele>224</ele>
        <time>2012-04-23T11:07:53Z</time>
      </trkpt>
      <trkpt lat="43.49784" lon="6.92225">
        <ele>224</ele>
        <time>2012-04-23T11:11:52Z</time>
      </trkpt>
      <trkpt lat="43.49793" lon="6.92227">
        <ele>225</ele>
        <time>2012-04-23T11:11:59Z</time>
      </trkpt>
      <trkpt lat="43.49803" lon="6.92225">
        <ele>227</ele>
        <time>2012-04-23T11:12:06Z</time>
      </trkpt>
      <trkpt lat="43.49812" lon="6.92221">
        <ele>227</ele>
        <time>2012-04-23T11:12:13Z</time>
      </trkpt>
      <trkpt lat="43.49813" lon="6.9222">
        <ele>227</ele>
        <time>2012-04-23T11:12:14Z</time>
      </trkpt>
      <trkpt lat="43.49817" lon="6.92211">
        <ele>228</ele>
        <time>2012-04-23T11:12:22Z</time>
      </trkpt>
      <trkpt lat="43.49812" lon="6.92193">
        <ele>227</ele>
        <time>2012-04-23T11:12:30Z</time>
      </trkpt>
      <trkpt lat="43.49803" lon="6.92177">
        <ele>227</ele>
        <time>2012-04-23T11:12:38Z</time>
      </trkpt>
      <trkpt lat="43.49792" lon="6.92156">
        <ele>227</ele>
        <time>2012-04-23T11:12:47Z</time>
      </trkpt>
      <trkpt lat="43.49782" lon="6.92132">
        <ele>226</ele>
        <time>2012-04-23T11:12:55Z</time>
      </trkpt>
      <trkpt lat="43.49773" lon="6.92099">
        <ele>226</ele>
        <time>2012-04-23T11:13:05Z</time>
      </trkpt>
      <trkpt lat="43.49764" lon="6.92077">
        <ele>226</ele>
        <time>2012-04-23T11:13:12Z</time>
      </trkpt>
      <trkpt lat="43.49756" lon="6.9205">
        <ele>225</ele>
        <time>2012-04-23T11:13:20Z</time>
      </trkpt>
      <trkpt lat="43.49745" lon="6.92014">
        <ele>226</ele>
        <time>2012-04-23T11:13:30Z</time>
      </trkpt>
      <trkpt lat="43.49733" lon="6.91984">
        <ele>228</ele>
        <time>2012-04-23T11:13:39Z</time>
      </trkpt>
      <trkpt lat="43.49721" lon="6.91958">
        <ele>226</ele>
        <time>2012-04-23T11:13:47Z</time>
      </trkpt>
      <trkpt lat="43.49711" lon="6.91937">
        <ele>226</ele>
        <time>2012-04-23T11:13:54Z</time>
      </trkpt>
      <trkpt lat="43.49702" lon="6.91915">
        <ele>229</ele>
        <time>2012-04-23T11:14:02Z</time>
      </trkpt>
      <trkpt lat="43.49694" lon="6.91898">
        <ele>229</ele>
        <time>2012-04-23T11:14:09Z</time>
      </trkpt>
      <trkpt lat="43.49688" lon="6.91881">
        <ele>230</ele>
        <time>2012-04-23T11:14:16Z</time>
      </trkpt>
      <trkpt lat="43.49685" lon="6.91871">
        <ele>230</ele>
        <time>2012-04-23T11:14:22Z</time>
      </trkpt>
      <trkpt lat="43.49683" lon="6.91868">
        <ele>231</ele>
        <time>2012-04-23T11:14:51Z</time>
      </trkpt>
      <trkpt lat="43.49677" lon="6.91849">
        <ele>233</ele>
        <time>2012-04-23T11:15:00Z</time>
      </trkpt>
      <trkpt lat="43.49672" lon="6.91833">
        <ele>236</ele>
        <time>2012-04-23T11:15:08Z</time>
      </trkpt>
      <trkpt lat="43.49668" lon="6.91823">
        <ele>235</ele>
        <time>2012-04-23T11:15:14Z</time>
      </trkpt>
      <trkpt lat="43.49665" lon="6.91814">
        <ele>238</ele>
        <time>2012-04-23T11:15:20Z</time>
      </trkpt>
      <trkpt lat="43.49662" lon="6.91807">
        <ele>238</ele>
        <time>2012-04-23T11:15:43Z</time>
      </trkpt>
      <trkpt lat="43.49655" lon="6.9179">
        <ele>239</ele>
        <time>2012-04-23T11:15:50Z</time>
      </trkpt>
      <trkpt lat="43.4965" lon="6.91771">
        <ele>240</ele>
        <time>2012-04-23T11:15:57Z</time>
      </trkpt>
      <trkpt lat="43.49647" lon="6.9175">
        <ele>247</ele>
        <time>2012-04-23T11:16:05Z</time>
      </trkpt>
      <trkpt lat="43.49648" lon="6.91737">
        <ele>247</ele>
        <time>2012-04-23T11:16:11Z</time>
      </trkpt>
      <trkpt lat="43.4965" lon="6.91715">
        <ele>249</ele>
        <time>2012-04-23T11:16:20Z</time>
      </trkpt>
      <trkpt lat="43.49651" lon="6.91703">
        <ele>250</ele>
        <time>2012-04-23T11:16:25Z</time>
      </trkpt>
      <trkpt lat="43.49659" lon="6.91668">
        <ele>248</ele>
        <time>2012-04-23T11:16:34Z</time>
      </trkpt>
      <trkpt lat="43.49668" lon="6.91633">
        <ele>247</ele>
        <time>2012-04-23T11:16:42Z</time>
      </trkpt>
      <trkpt lat="43.49679" lon="6.91606">
        <ele>251</ele>
        <time>2012-04-23T11:16:49Z</time>
      </trkpt>
      <trkpt lat="43.49694" lon="6.91585">
        <ele>251</ele>
        <time>2012-04-23T11:16:56Z</time>
      </trkpt>
      <trkpt lat="43.49712" lon="6.91557">
        <ele>262</ele>
        <time>2012-04-23T11:17:04Z</time>
      </trkpt>
      <trkpt lat="43.49728" lon="6.91542">
        <ele>262</ele>
        <time>2012-04-23T11:17:10Z</time>
      </trkpt>
      <trkpt lat="43.49744" lon="6.91539">
        <ele>262</ele>
        <time>2012-04-23T11:17:15Z</time>
      </trkpt>
      <trkpt lat="43.49772" lon="6.91543">
        <ele>255</ele>
        <time>2012-04-23T11:17:23Z</time>
      </trkpt>
      <trkpt lat="43.49799" lon="6.91556">
        <ele>253</ele>
        <time>2012-04-23T11:17:30Z</time>
      </trkpt>
      <trkpt lat="43.49827" lon="6.91575">
        <ele>248</ele>
        <time>2012-04-23T11:17:38Z</time>
      </trkpt>
      <trkpt lat="43.49852" lon="6.91584">
        <ele>233</ele>
        <time>2012-04-23T11:17:45Z</time>
      </trkpt>
      <trkpt lat="43.49872" lon="6.9158">
        <ele>241</ele>
        <time>2012-04-23T11:17:51Z</time>
      </trkpt>
      <trkpt lat="43.49888" lon="6.91562">
        <ele>240</ele>
        <time>2012-04-23T11:17:58Z</time>
      </trkpt>
      <trkpt lat="43.49898" lon="6.91542">
        <ele>241</ele>
        <time>2012-04-23T11:18:04Z</time>
      </trkpt>
      <trkpt lat="43.49905" lon="6.91519">
        <ele>242</ele>
        <time>2012-04-23T11:18:10Z</time>
      </trkpt>
      <trkpt lat="43.49909" lon="6.91484">
        <ele>243</ele>
        <time>2012-04-23T11:18:18Z</time>
      </trkpt>
      <trkpt lat="43.49901" lon="6.91459">
        <ele>243</ele>
        <time>2012-04-23T11:18:24Z</time>
      </trkpt>
      <trkpt lat="43.49888" lon="6.91439">
        <ele>243</ele>
        <time>2012-04-23T11:18:30Z</time>
      </trkpt>
      <trkpt lat="43.49865" lon="6.91417">
        <ele>247</ele>
        <time>2012-04-23T11:18:38Z</time>
      </trkpt>
      <trkpt lat="43.49847" lon="6.914">
        <ele>243</ele>
        <time>2012-04-23T11:18:44Z</time>
      </trkpt>
      <trkpt lat="43.49841" lon="6.91392">
        <ele>242</ele>
        <time>2012-04-23T11:18:46Z</time>
      </trkpt>
      <trkpt lat="43.49819" lon="6.9136">
        <ele>253</ele>
        <time>2012-04-23T11:18:54Z</time>
      </trkpt>
      <trkpt lat="43.49803" lon="6.91322">
        <ele>244</ele>
        <time>2012-04-23T11:19:02Z</time>
      </trkpt>
      <trkpt lat="43.49792" lon="6.91304">
        <ele>245</ele>
        <time>2012-04-23T11:19:07Z</time>
      </trkpt>
      <trkpt lat="43.49789" lon="6.91301">
        <ele>245</ele>
        <time>2012-04-23T11:19:08Z</time>
      </trkpt>
      <trkpt lat="43.49773" lon="6.91295">
        <ele>247</ele>
        <time>2012-04-23T11:19:12Z</time>
      </trkpt>
      <trkpt lat="43.4976" lon="6.91293">
        <ele>247</ele>
        <time>2012-04-23T11:19:15Z</time>
      </trkpt>
      <trkpt lat="43.49745" lon="6.9128">
        <ele>263</ele>
        <time>2012-04-23T11:19:19Z</time>
      </trkpt>
      <trkpt lat="43.49725" lon="6.9125">
        <ele>255</ele>
        <time>2012-04-23T11:19:26Z</time>
      </trkpt>
      <trkpt lat="43.49714" lon="6.91225">
        <ele>258</ele>
        <time>2012-04-23T11:19:31Z</time>
      </trkpt>
      <trkpt lat="43.49711" lon="6.91198">
        <ele>257</ele>
        <time>2012-04-23T11:19:36Z</time>
      </trkpt>
      <trkpt lat="43.49709" lon="6.91169">
        <ele>256</ele>
        <time>2012-04-23T11:19:42Z</time>
      </trkpt>
      <trkpt lat="43.497" lon="6.91129">
        <ele>250</ele>
        <time>2012-04-23T11:19:50Z</time>
      </trkpt>
      <trkpt lat="43.49695" lon="6.91103">
        <ele>250</ele>
        <time>2012-04-23T11:19:55Z</time>
      </trkpt>
      <trkpt lat="43.49689" lon="6.91072">
        <ele>249</ele>
        <time>2012-04-23T11:20:01Z</time>
      </trkpt>
      <trkpt lat="43.49676" lon="6.91036">
        <ele>249</ele>
        <time>2012-04-23T11:20:09Z</time>
      </trkpt>
      <trkpt lat="43.49674" lon="6.91012">
        <ele>254</ele>
        <time>2012-04-23T11:20:14Z</time>
      </trkpt>
      <trkpt lat="43.4968" lon="6.90994">
        <ele>254</ele>
        <time>2012-04-23T11:20:18Z</time>
      </trkpt>
      <trkpt lat="43.49693" lon="6.90981">
        <ele>248</ele>
        <time>2012-04-23T11:20:22Z</time>
      </trkpt>
      <trkpt lat="43.49705" lon="6.90957">
        <ele>244</ele>
        <time>2012-04-23T11:20:28Z</time>
      </trkpt>
      <trkpt lat="43.49703" lon="6.90935">
        <ele>246</ele>
        <time>2012-04-23T11:20:33Z</time>
      </trkpt>
      <trkpt lat="43.49698" lon="6.90906">
        <ele>248</ele>
        <time>2012-04-23T11:20:39Z</time>
      </trkpt>
      <trkpt lat="43.49695" lon="6.90877">
        <ele>245</ele>
        <time>2012-04-23T11:20:45Z</time>
      </trkpt>
      <trkpt lat="43.49687" lon="6.90845">
        <ele>248</ele>
        <time>2012-04-23T11:20:51Z</time>
      </trkpt>
      <trkpt lat="43.49684" lon="6.9082">
        <ele>242</ele>
        <time>2012-04-23T11:20:56Z</time>
      </trkpt>
      <trkpt lat="43.49673" lon="6.9079">
        <ele>235</ele>
        <time>2012-04-23T11:21:02Z</time>
      </trkpt>
      <trkpt lat="43.49662" lon="6.90767">
        <ele>256</ele>
        <time>2012-04-23T11:21:07Z</time>
      </trkpt>
      <trkpt lat="43.49644" lon="6.9074">
        <ele>246</ele>
        <time>2012-04-23T11:21:14Z</time>
      </trkpt>
      <trkpt lat="43.49623" lon="6.90715">
        <ele>249</ele>
        <time>2012-04-23T11:21:21Z</time>
      </trkpt>
      <trkpt lat="43.49597" lon="6.90687">
        <ele>250</ele>
        <time>2012-04-23T11:21:29Z</time>
      </trkpt>
      <trkpt lat="43.49577" lon="6.9066">
        <ele>252</ele>
        <time>2012-04-23T11:21:36Z</time>
      </trkpt>
      <trkpt lat="43.49561" lon="6.90636">
        <ele>252</ele>
        <time>2012-04-23T11:21:42Z</time>
      </trkpt>
      <trkpt lat="43.49558" lon="6.90632">
        <ele>252</ele>
        <time>2012-04-23T11:21:43Z</time>
      </trkpt>
      <trkpt lat="43.49545" lon="6.90628">
        <ele>253</ele>
        <time>2012-04-23T11:21:47Z</time>
      </trkpt>
      <trkpt lat="43.49534" lon="6.90628">
        <ele>255</ele>
        <time>2012-04-23T11:21:51Z</time>
      </trkpt>
      <trkpt lat="43.49525" lon="6.90609">
        <ele>254</ele>
        <time>2012-04-23T11:21:56Z</time>
      </trkpt>
      <trkpt lat="43.4952" lon="6.90601">
        <ele>254</ele>
        <time>2012-04-23T11:21:58Z</time>
      </trkpt>
      <trkpt lat="43.49506" lon="6.90584">
        <ele>256</ele>
        <time>2012-04-23T11:22:03Z</time>
      </trkpt>
      <trkpt lat="43.49502" lon="6.90564">
        <ele>247</ele>
        <time>2012-04-23T11:22:07Z</time>
      </trkpt>
      <trkpt lat="43.495" lon="6.90543">
        <ele>243</ele>
        <time>2012-04-23T11:22:11Z</time>
      </trkpt>
      <trkpt lat="43.49504" lon="6.90511">
        <ele>243</ele>
        <time>2012-04-23T11:22:17Z</time>
      </trkpt>
      <trkpt lat="43.49505" lon="6.90473">
        <ele>237</ele>
        <time>2012-04-23T11:22:24Z</time>
      </trkpt>
      <trkpt lat="43.49506" lon="6.90448">
        <ele>236</ele>
        <time>2012-04-23T11:22:29Z</time>
      </trkpt>
      <trkpt lat="43.49502" lon="6.90419">
        <ele>240</ele>
        <time>2012-04-23T11:22:35Z</time>
      </trkpt>
      <trkpt lat="43.49499" lon="6.90403">
        <ele>237</ele>
        <time>2012-04-23T11:22:40Z</time>
      </trkpt>
      <trkpt lat="43.49496" lon="6.90399">
        <ele>236</ele>
        <time>2012-04-23T11:22:42Z</time>
      </trkpt>
      <trkpt lat="43.49494" lon="6.90391">
        <ele>235</ele>
        <time>2012-04-23T11:22:48Z</time>
      </trkpt>
      <trkpt lat="43.4949" lon="6.90393">
        <ele>235</ele>
        <time>2012-04-23T11:22:52Z</time>
      </trkpt>
      <trkpt lat="43.4949" lon="6.90397">
        <ele>235</ele>
        <time>2012-04-23T11:22:58Z</time>
      </trkpt>
      <trkpt lat="43.49489" lon="6.90406">
        <ele>236</ele>
        <time>2012-04-23T11:23:29Z</time>
      </trkpt>
      <trkpt lat="43.49482" lon="6.90427">
        <ele>239</ele>
        <time>2012-04-23T11:23:36Z</time>
      </trkpt>
      <trkpt lat="43.49473" lon="6.90448">
        <ele>238</ele>
        <time>2012-04-23T11:23:43Z</time>
      </trkpt>
      <trkpt lat="43.49461" lon="6.90463">
        <ele>238</ele>
        <time>2012-04-23T11:23:50Z</time>
      </trkpt>
      <trkpt lat="43.49461" lon="6.90463">
        <ele>238</ele>
        <time>2012-04-23T11:23:56Z</time>
      </trkpt>
      <trkpt lat="43.49461" lon="6.90465">
        <ele>238</ele>
        <time>2012-04-23T11:24:36Z</time>
      </trkpt>
      <trkpt lat="43.49462" lon="6.90464">
        <ele>238</ele>
        <time>2012-04-23T11:24:53Z</time>
      </trkpt>
      <trkpt lat="43.49459" lon="6.90466">
        <ele>238</ele>
        <time>2012-04-23T11:25:25Z</time>
      </trkpt>
      <trkpt lat="43.49446" lon="6.90477">
        <ele>238</ele>
        <time>2012-04-23T11:25:30Z</time>
      </trkpt>
      <trkpt lat="43.49428" lon="6.90497">
        <ele>238</ele>
        <time>2012-04-23T11:25:38Z</time>
      </trkpt>
      <trkpt lat="43.49418" lon="6.90515">
        <ele>243</ele>
        <time>2012-04-23T11:25:44Z</time>
      </trkpt>
      <trkpt lat="43.49416" lon="6.90534">
        <ele>234</ele>
        <time>2012-04-23T11:25:50Z</time>
      </trkpt>
      <trkpt lat="43.49421" lon="6.90567">
        <ele>248</ele>
        <time>2012-04-23T11:26:00Z</time>
      </trkpt>
      <trkpt lat="43.49423" lon="6.90576">
        <ele>248</ele>
        <time>2012-04-23T11:26:05Z</time>
      </trkpt>
      <trkpt lat="43.49424" lon="6.90573">
        <ele>248</ele>
        <time>2012-04-23T11:26:29Z</time>
      </trkpt>
      <trkpt lat="43.49424" lon="6.90581">
        <ele>248</ele>
        <time>2012-04-23T11:26:33Z</time>
      </trkpt>
      <trkpt lat="43.49422" lon="6.90609">
        <ele>256</ele>
        <time>2012-04-23T11:26:40Z</time>
      </trkpt>
      <trkpt lat="43.49411" lon="6.90644">
        <ele>251</ele>
        <time>2012-04-23T11:26:49Z</time>
      </trkpt>
      <trkpt lat="43.49395" lon="6.90673">
        <ele>262</ele>
        <time>2012-04-23T11:26:57Z</time>
      </trkpt>
      <trkpt lat="43.49375" lon="6.90694">
        <ele>262</ele>
        <time>2012-04-23T11:27:04Z</time>
      </trkpt>
      <trkpt lat="43.49356" lon="6.90701">
        <ele>261</ele>
        <time>2012-04-23T11:27:09Z</time>
      </trkpt>
      <trkpt lat="43.49325" lon="6.90712">
        <ele>249</ele>
        <time>2012-04-23T11:27:17Z</time>
      </trkpt>
      <trkpt lat="43.49297" lon="6.90732">
        <ele>249</ele>
        <time>2012-04-23T11:27:25Z</time>
      </trkpt>
      <trkpt lat="43.49277" lon="6.90748">
        <ele>248</ele>
        <time>2012-04-23T11:27:32Z</time>
      </trkpt>
      <trkpt lat="43.49276" lon="6.90749">
        <ele>248</ele>
        <time>2012-04-23T11:27:36Z</time>
      </trkpt>
      <trkpt lat="43.49276" lon="6.90749">
        <ele>248</ele>
        <time>2012-04-23T11:28:01Z</time>
      </trkpt>
      <trkpt lat="43.49273" lon="6.90752">
        <ele>261</ele>
        <time>2012-04-23T11:28:06Z</time>
      </trkpt>
      <trkpt lat="43.4926" lon="6.90761">
        <ele>258</ele>
        <time>2012-04-23T11:28:11Z</time>
      </trkpt>
      <trkpt lat="43.49251" lon="6.90777">
        <ele>262</ele>
        <time>2012-04-23T11:28:15Z</time>
      </trkpt>
      <trkpt lat="43.49239" lon="6.90815">
        <ele>255</ele>
        <time>2012-04-23T11:28:23Z</time>
      </trkpt>
      <trkpt lat="43.49224" lon="6.90845">
        <ele>265</ele>
        <time>2012-04-23T11:28:30Z</time>
      </trkpt>
      <trkpt lat="43.49217" lon="6.90855">
        <ele>265</ele>
        <time>2012-04-23T11:28:34Z</time>
      </trkpt>
      <trkpt lat="43.49205" lon="6.90869">
        <ele>264</ele>
        <time>2012-04-23T11:28:40Z</time>
      </trkpt>
      <trkpt lat="43.49189" lon="6.9089">
        <ele>264</ele>
        <time>2012-04-23T11:28:48Z</time>
      </trkpt>
      <trkpt lat="43.49174" lon="6.90909">
        <ele>263</ele>
        <time>2012-04-23T11:28:55Z</time>
      </trkpt>
      <trkpt lat="43.49158" lon="6.90931">
        <ele>267</ele>
        <time>2012-04-23T11:29:03Z</time>
      </trkpt>
      <trkpt lat="43.49139" lon="6.90954">
        <ele>271</ele>
        <time>2012-04-23T11:29:11Z</time>
      </trkpt>
      <trkpt lat="43.49116" lon="6.90968">
        <ele>273</ele>
        <time>2012-04-23T11:29:19Z</time>
      </trkpt>
      <trkpt lat="43.49096" lon="6.90968">
        <ele>273</ele>
        <time>2012-04-23T11:29:26Z</time>
      </trkpt>
      <trkpt lat="43.49082" lon="6.90956">
        <ele>277</ele>
        <time>2012-04-23T11:29:31Z</time>
      </trkpt>
      <trkpt lat="43.49073" lon="6.90941">
        <ele>274</ele>
        <time>2012-04-23T11:29:35Z</time>
      </trkpt>
      <trkpt lat="43.49062" lon="6.90913">
        <ele>261</ele>
        <time>2012-04-23T11:29:42Z</time>
      </trkpt>
      <trkpt lat="43.49055" lon="6.90892">
        <ele>261</ele>
        <time>2012-04-23T11:29:47Z</time>
      </trkpt>
      <trkpt lat="43.49046" lon="6.90867">
        <ele>259</ele>
        <time>2012-04-23T11:29:54Z</time>
      </trkpt>
      <trkpt lat="43.49029" lon="6.9085">
        <ele>260</ele>
        <time>2012-04-23T11:30:00Z</time>
      </trkpt>
      <trkpt lat="43.49006" lon="6.90828">
        <ele>255</ele>
        <time>2012-04-23T11:30:08Z</time>
      </trkpt>
      <trkpt lat="43.48988" lon="6.90819">
        <ele>255</ele>
        <time>2012-04-23T11:30:14Z</time>
      </trkpt>
      <trkpt lat="43.48985" lon="6.90819">
        <ele>255</ele>
        <time>2012-04-23T11:30:17Z</time>
      </trkpt>
      <trkpt lat="43.48982" lon="6.90822">
        <ele>255</ele>
        <time>2012-04-23T11:30:35Z</time>
      </trkpt>
      <trkpt lat="43.48967" lon="6.90829">
        <ele>254</ele>
        <time>2012-04-23T11:30:39Z</time>
      </trkpt>
      <trkpt lat="43.48935" lon="6.90849">
        <ele>272</ele>
        <time>2012-04-23T11:30:48Z</time>
      </trkpt>
      <trkpt lat="43.48912" lon="6.90852">
        <ele>277</ele>
        <time>2012-04-23T11:30:54Z</time>
      </trkpt>
      <trkpt lat="43.48891" lon="6.9084">
        <ele>279</ele>
        <time>2012-04-23T11:31:00Z</time>
      </trkpt>
      <trkpt lat="43.48874" lon="6.90821">
        <ele>266</ele>
        <time>2012-04-23T11:31:06Z</time>
      </trkpt>
      <trkpt lat="43.48867" lon="6.90812">
        <ele>266</ele>
        <time>2012-04-23T11:31:11Z</time>
      </trkpt>
      <trkpt lat="43.48866" lon="6.9081">
        <ele>266</ele>
        <time>2012-04-23T11:31:37Z</time>
      </trkpt>
      <trkpt lat="43.48865" lon="6.90811">
        <ele>266</ele>
        <time>2012-04-23T11:32:04Z</time>
      </trkpt>
      <trkpt lat="43.48863" lon="6.90805">
        <ele>265</ele>
        <time>2012-04-23T11:33:30Z</time>
      </trkpt>
      <trkpt lat="43.48854" lon="6.90793">
        <ele>264</ele>
        <time>2012-04-23T11:33:35Z</time>
      </trkpt>
      <trkpt lat="43.48839" lon="6.90776">
        <ele>262</ele>
        <time>2012-04-23T11:33:43Z</time>
      </trkpt>
      <trkpt lat="43.48826" lon="6.90765">
        <ele>265</ele>
        <time>2012-04-23T11:33:50Z</time>
      </trkpt>
      <trkpt lat="43.4881" lon="6.90755">
        <ele>266</ele>
        <time>2012-04-23T11:33:57Z</time>
      </trkpt>
      <trkpt lat="43.48796" lon="6.90745">
        <ele>255</ele>
        <time>2012-04-23T11:34:04Z</time>
      </trkpt>
      <trkpt lat="43.48776" lon="6.90735">
        <ele>256</ele>
        <time>2012-04-23T11:34:14Z</time>
      </trkpt>
      <trkpt lat="43.48765" lon="6.9074">
        <ele>257</ele>
        <time>2012-04-23T11:34:21Z</time>
      </trkpt>
      <trkpt lat="43.48759" lon="6.90758">
        <ele>265</ele>
        <time>2012-04-23T11:34:29Z</time>
      </trkpt>
      <trkpt lat="43.48759" lon="6.90781">
        <ele>267</ele>
        <time>2012-04-23T11:34:37Z</time>
      </trkpt>
      <trkpt lat="43.48762" lon="6.90803">
        <ele>269</ele>
        <time>2012-04-23T11:34:45Z</time>
      </trkpt>
      <trkpt lat="43.48763" lon="6.90809">
        <ele>270</ele>
        <time>2012-04-23T11:34:50Z</time>
      </trkpt>
      <trkpt lat="43.48763" lon="6.90815">
        <ele>270</ele>
        <time>2012-04-23T11:34:54Z</time>
      </trkpt>
      <trkpt lat="43.48764" lon="6.90833">
        <ele>270</ele>
        <time>2012-04-23T11:35:02Z</time>
      </trkpt>
      <trkpt lat="43.48764" lon="6.90851">
        <ele>279</ele>
        <time>2012-04-23T11:35:10Z</time>
      </trkpt>
      <trkpt lat="43.48765" lon="6.90869">
        <ele>282</ele>
        <time>2012-04-23T11:35:18Z</time>
      </trkpt>
      <trkpt lat="43.48764" lon="6.90893">
        <ele>283</ele>
        <time>2012-04-23T11:35:28Z</time>
      </trkpt>
      <trkpt lat="43.48762" lon="6.90917">
        <ele>288</ele>
        <time>2012-04-23T11:35:37Z</time>
      </trkpt>
      <trkpt lat="43.48759" lon="6.90929">
        <ele>290</ele>
        <time>2012-04-23T11:35:42Z</time>
      </trkpt>
      <trkpt lat="43.48752" lon="6.90948">
        <ele>295</ele>
        <time>2012-04-23T11:35:50Z</time>
      </trkpt>
      <trkpt lat="43.48744" lon="6.90969">
        <ele>284</ele>
        <time>2012-04-23T11:35:58Z</time>
      </trkpt>
      <trkpt lat="43.48734" lon="6.90996">
        <ele>289</ele>
        <time>2012-04-23T11:36:08Z</time>
      </trkpt>
      <trkpt lat="43.48725" lon="6.91018">
        <ele>306</ele>
        <time>2012-04-23T11:36:16Z</time>
      </trkpt>
      <trkpt lat="43.48715" lon="6.91024">
        <ele>307</ele>
        <time>2012-04-23T11:36:21Z</time>
      </trkpt>
      <trkpt lat="43.48698" lon="6.9102">
        <ele>305</ele>
        <time>2012-04-23T11:36:28Z</time>
      </trkpt>
      <trkpt lat="43.48679" lon="6.91012">
        <ele>298</ele>
        <time>2012-04-23T11:36:36Z</time>
      </trkpt>
      <trkpt lat="43.48662" lon="6.91008">
        <ele>289</ele>
        <time>2012-04-23T11:36:43Z</time>
      </trkpt>
      <trkpt lat="43.4864" lon="6.91004">
        <ele>290</ele>
        <time>2012-04-23T11:36:52Z</time>
      </trkpt>
      <trkpt lat="43.48621" lon="6.9101">
        <ele>289</ele>
        <time>2012-04-23T11:37:00Z</time>
      </trkpt>
      <trkpt lat="43.48605" lon="6.91027">
        <ele>289</ele>
        <time>2012-04-23T11:37:08Z</time>
      </trkpt>
      <trkpt lat="43.48592" lon="6.91047">
        <ele>293</ele>
        <time>2012-04-23T11:37:16Z</time>
      </trkpt>
      <trkpt lat="43.48578" lon="6.91072">
        <ele>287</ele>
        <time>2012-04-23T11:37:25Z</time>
      </trkpt>
      <trkpt lat="43.48563" lon="6.91097">
        <ele>298</ele>
        <time>2012-04-23T11:37:34Z</time>
      </trkpt>
      <trkpt lat="43.48548" lon="6.91123">
        <ele>298</ele>
        <time>2012-04-23T11:37:43Z</time>
      </trkpt>
      <trkpt lat="43.4853" lon="6.91147">
        <ele>298</ele>
        <time>2012-04-23T11:37:53Z</time>
      </trkpt>
      <trkpt lat="43.48515" lon="6.91167">
        <ele>308</ele>
        <time>2012-04-23T11:38:02Z</time>
      </trkpt>
      <trkpt lat="43.48505" lon="6.91177">
        <ele>305</ele>
        <time>2012-04-23T11:38:08Z</time>
      </trkpt>
      <trkpt lat="43.48488" lon="6.91198">
        <ele>298</ele>
        <time>2012-04-23T11:38:18Z</time>
      </trkpt>
      <trkpt lat="43.48469" lon="6.91216">
        <ele>300</ele>
        <time>2012-04-23T11:38:28Z</time>
      </trkpt>
      <trkpt lat="43.48449" lon="6.91235">
        <ele>300</ele>
        <time>2012-04-23T11:38:39Z</time>
      </trkpt>
      <trkpt lat="43.48445" lon="6.91239">
        <ele>301</ele>
        <time>2012-04-23T11:38:44Z</time>
      </trkpt>
      <trkpt lat="43.4844" lon="6.91241">
        <ele>301</ele>
        <time>2012-04-23T11:38:48Z</time>
      </trkpt>
      <trkpt lat="43.48423" lon="6.91252">
        <ele>307</ele>
        <time>2012-04-23T11:38:57Z</time>
      </trkpt>
      <trkpt lat="43.48407" lon="6.91262">
        <ele>310</ele>
        <time>2012-04-23T11:39:05Z</time>
      </trkpt>
      <trkpt lat="43.4839" lon="6.9127">
        <ele>314</ele>
        <time>2012-04-23T11:39:13Z</time>
      </trkpt>
      <trkpt lat="43.48374" lon="6.91272">
        <ele>316</ele>
        <time>2012-04-23T11:39:20Z</time>
      </trkpt>
      <trkpt lat="43.48359" lon="6.91268">
        <ele>316</ele>
        <time>2012-04-23T11:39:27Z</time>
      </trkpt>
      <trkpt lat="43.48344" lon="6.9126">
        <ele>314</ele>
        <time>2012-04-23T11:39:34Z</time>
      </trkpt>
      <trkpt lat="43.48328" lon="6.91246">
        <ele>312</ele>
        <time>2012-04-23T11:39:41Z</time>
      </trkpt>
      <trkpt lat="43.48314" lon="6.91225">
        <ele>314</ele>
        <time>2012-04-23T11:39:50Z</time>
      </trkpt>
      <trkpt lat="43.48301" lon="6.912">
        <ele>313</ele>
        <time>2012-04-23T11:40:00Z</time>
      </trkpt>
      <trkpt lat="43.48292" lon="6.91183">
        <ele>313</ele>
        <time>2012-04-23T11:40:07Z</time>
      </trkpt>
      <trkpt lat="43.4828" lon="6.91165">
        <ele>303</ele>
        <time>2012-04-23T11:40:15Z</time>
      </trkpt>
      <trkpt lat="43.48261" lon="6.91136">
        <ele>303</ele>
        <time>2012-04-23T11:40:28Z</time>
      </trkpt>
      <trkpt lat="43.48251" lon="6.91123">
        <ele>301</ele>
        <time>2012-04-23T11:40:35Z</time>
      </trkpt>
      <trkpt lat="43.48245" lon="6.91112">
        <ele>313</ele>
        <time>2012-04-23T11:40:41Z</time>
      </trkpt>
      <trkpt lat="43.48233" lon="6.91093">
        <ele>310</ele>
        <time>2012-04-23T11:40:49Z</time>
      </trkpt>
      <trkpt lat="43.48215" lon="6.91075">
        <ele>295</ele>
        <time>2012-04-23T11:40:59Z</time>
      </trkpt>
      <trkpt lat="43.482" lon="6.91074">
        <ele>296</ele>
        <time>2012-04-23T11:41:06Z</time>
      </trkpt>
      <trkpt lat="43.48182" lon="6.9108">
        <ele>300</ele>
        <time>2012-04-23T11:41:14Z</time>
      </trkpt>
      <trkpt lat="43.48161" lon="6.91092">
        <ele>312</ele>
        <time>2012-04-23T11:41:24Z</time>
      </trkpt>
      <trkpt lat="43.48147" lon="6.91102">
        <ele>315</ele>
        <time>2012-04-23T11:41:31Z</time>
      </trkpt>
      <trkpt lat="43.48123" lon="6.9112">
        <ele>318</ele>
        <time>2012-04-23T11:41:41Z</time>
      </trkpt>
      <trkpt lat="43.48101" lon="6.91135">
        <ele>319</ele>
        <time>2012-04-23T11:41:50Z</time>
      </trkpt>
      <trkpt lat="43.48082" lon="6.91147">
        <ele>319</ele>
        <time>2012-04-23T11:41:58Z</time>
      </trkpt>
      <trkpt lat="43.48068" lon="6.91159">
        <ele>320</ele>
        <time>2012-04-23T11:42:04Z</time>
      </trkpt>
      <trkpt lat="43.48058" lon="6.91181">
        <ele>318</ele>
        <time>2012-04-23T11:42:11Z</time>
      </trkpt>
      <trkpt lat="43.48052" lon="6.91192">
        <ele>317</ele>
        <time>2012-04-23T11:42:16Z</time>
      </trkpt>
      <trkpt lat="43.4805" lon="6.91197">
        <ele>316</ele>
        <time>2012-04-23T11:42:21Z</time>
      </trkpt>
      <trkpt lat="43.4805" lon="6.91193">
        <ele>317</ele>
        <time>2012-04-23T11:42:42Z</time>
      </trkpt>
      <trkpt lat="43.48048" lon="6.91189">
        <ele>317</ele>
        <time>2012-04-23T11:42:48Z</time>
      </trkpt>
      <trkpt lat="43.48047" lon="6.91189">
        <ele>317</ele>
        <time>2012-04-23T11:42:57Z</time>
      </trkpt>
      <trkpt lat="43.48044" lon="6.91193">
        <ele>316</ele>
        <time>2012-04-23T11:43:05Z</time>
      </trkpt>
      <trkpt lat="43.48047" lon="6.91193">
        <ele>316</ele>
        <time>2012-04-23T11:44:15Z</time>
      </trkpt>
      <trkpt lat="43.48055" lon="6.91195">
        <ele>317</ele>
        <time>2012-04-23T11:44:21Z</time>
      </trkpt>
      <trkpt lat="43.48059" lon="6.91195">
        <ele>317</ele>
        <time>2012-04-23T11:44:27Z</time>
      </trkpt>
      <trkpt lat="43.48062" lon="6.91198">
        <ele>317</ele>
        <time>2012-04-23T11:44:33Z</time>
      </trkpt>
      <trkpt lat="43.48061" lon="6.91197">
        <ele>317</ele>
        <time>2012-04-23T11:44:44Z</time>
      </trkpt>
      <trkpt lat="43.4807" lon="6.9121">
        <ele>316</ele>
        <time>2012-04-23T11:44:48Z</time>
      </trkpt>
      <trkpt lat="43.48086" lon="6.91237">
        <ele>323</ele>
        <time>2012-04-23T11:44:52Z</time>
      </trkpt>
      <trkpt lat="43.481" lon="6.91276">
        <ele>318</ele>
        <time>2012-04-23T11:44:57Z</time>
      </trkpt>
      <trkpt lat="43.48102" lon="6.91286">
        <ele>317</ele>
        <time>2012-04-23T11:45:00Z</time>
      </trkpt>
      <trkpt lat="43.48103" lon="6.9129">
        <ele>317</ele>
        <time>2012-04-23T11:45:05Z</time>
      </trkpt>
      <trkpt lat="43.48105" lon="6.91298">
        <ele>315</ele>
        <time>2012-04-23T11:45:15Z</time>
      </trkpt>
      <trkpt lat="43.4811" lon="6.91312">
        <ele>314</ele>
        <time>2012-04-23T11:45:19Z</time>
      </trkpt>
      <trkpt lat="43.48116" lon="6.91339">
        <ele>299</ele>
        <time>2012-04-23T11:45:25Z</time>
      </trkpt>
      <trkpt lat="43.48123" lon="6.91364">
        <ele>298</ele>
        <time>2012-04-23T11:45:29Z</time>
      </trkpt>
      <trkpt lat="43.48127" lon="6.91377">
        <ele>297</ele>
        <time>2012-04-23T11:45:31Z</time>
      </trkpt>
      <trkpt lat="43.48139" lon="6.91392">
        <ele>296</ele>
        <time>2012-04-23T11:45:35Z</time>
      </trkpt>
      <trkpt lat="43.48174" lon="6.91412">
        <ele>304</ele>
        <time>2012-04-23T11:45:42Z</time>
      </trkpt>
      <trkpt lat="43.48186" lon="6.9142">
        <ele>295</ele>
        <time>2012-04-23T11:45:44Z</time>
      </trkpt>
      <trkpt lat="43.48204" lon="6.9144">
        <ele>295</ele>
        <time>2012-04-23T11:45:49Z</time>
      </trkpt>
      <trkpt lat="43.48206" lon="6.91442">
        <ele>295</ele>
        <time>2012-04-23T11:45:53Z</time>
      </trkpt>
      <trkpt lat="43.48206" lon="6.91441">
        <ele>295</ele>
        <time>2012-04-23T11:46:31Z</time>
      </trkpt>
      <trkpt lat="43.48211" lon="6.91446">
        <ele>295</ele>
        <time>2012-04-23T11:46:38Z</time>
      </trkpt>
      <trkpt lat="43.48213" lon="6.91449">
        <ele>295</ele>
        <time>2012-04-23T11:46:39Z</time>
      </trkpt>
      <trkpt lat="43.48219" lon="6.91471">
        <ele>292</ele>
        <time>2012-04-23T11:46:43Z</time>
      </trkpt>
      <trkpt lat="43.48222" lon="6.91494">
        <ele>290</ele>
        <time>2012-04-23T11:46:46Z</time>
      </trkpt>
      <trkpt lat="43.48227" lon="6.91528">
        <ele>273</ele>
        <time>2012-04-23T11:46:50Z</time>
      </trkpt>
      <trkpt lat="43.48227" lon="6.91564">
        <ele>268</ele>
        <time>2012-04-23T11:46:54Z</time>
      </trkpt>
      <trkpt lat="43.4823" lon="6.91615">
        <ele>257</ele>
        <time>2012-04-23T11:47:00Z</time>
      </trkpt>
      <trkpt lat="43.48231" lon="6.91623">
        <ele>257</ele>
        <time>2012-04-23T11:47:01Z</time>
      </trkpt>
      <trkpt lat="43.48235" lon="6.9165">
        <ele>256</ele>
        <time>2012-04-23T11:47:06Z</time>
      </trkpt>
      <trkpt lat="43.48235" lon="6.9165">
        <ele>256</ele>
        <time>2012-04-23T11:47:11Z</time>
      </trkpt>
      <trkpt lat="43.48236" lon="6.91649">
        <ele>256</ele>
        <time>2012-04-23T11:47:37Z</time>
      </trkpt>
      <trkpt lat="43.48236" lon="6.91648">
        <ele>256</ele>
        <time>2012-04-23T11:48:07Z</time>
      </trkpt>
      <trkpt lat="43.48244" lon="6.91639">
        <ele>256</ele>
        <time>2012-04-23T11:48:12Z</time>
      </trkpt>
      <trkpt lat="43.48251" lon="6.91631">
        <ele>256</ele>
        <time>2012-04-23T11:48:14Z</time>
      </trkpt>
      <trkpt lat="43.48263" lon="6.91614">
        <ele>258</ele>
        <time>2012-04-23T11:48:17Z</time>
      </trkpt>
      <trkpt lat="43.48285" lon="6.91582">
        <ele>272</ele>
        <time>2012-04-23T11:48:22Z</time>
      </trkpt>
      <trkpt lat="43.48314" lon="6.91559">
        <ele>271</ele>
        <time>2012-04-23T11:48:27Z</time>
      </trkpt>
      <trkpt lat="43.48343" lon="6.91554">
        <ele>268</ele>
        <time>2012-04-23T11:48:31Z</time>
      </trkpt>
      <trkpt lat="43.48358" lon="6.91556">
        <ele>268</ele>
        <time>2012-04-23T11:48:33Z</time>
      </trkpt>
      <trkpt lat="43.48393" lon="6.91572">
        <ele>263</ele>
        <time>2012-04-23T11:48:38Z</time>
      </trkpt>
      <trkpt lat="43.48422" lon="6.91575">
        <ele>254</ele>
        <time>2012-04-23T11:48:43Z</time>
      </trkpt>
      <trkpt lat="43.48448" lon="6.91569">
        <ele>257</ele>
        <time>2012-04-23T11:48:48Z</time>
      </trkpt>
      <trkpt lat="43.48481" lon="6.91561">
        <ele>254</ele>
        <time>2012-04-23T11:48:53Z</time>
      </trkpt>
      <trkpt lat="43.48502" lon="6.91555">
        <ele>249</ele>
        <time>2012-04-23T11:48:56Z</time>
      </trkpt>
      <trkpt lat="43.48527" lon="6.91539">
        <ele>255</ele>
        <time>2012-04-23T11:49:01Z</time>
      </trkpt>
      <trkpt lat="43.48528" lon="6.91538">
        <ele>255</ele>
        <time>2012-04-23T11:49:04Z</time>
      </trkpt>
      <trkpt lat="43.48528" lon="6.91537">
        <ele>255</ele>
        <time>2012-04-23T11:49:09Z</time>
      </trkpt>
      <trkpt lat="43.48532" lon="6.91536">
        <ele>256</ele>
        <time>2012-04-23T11:49:30Z</time>
      </trkpt>
      <trkpt lat="43.48537" lon="6.91538">
        <ele>255</ele>
        <time>2012-04-23T11:50:25Z</time>
      </trkpt>
      <trkpt lat="43.48551" lon="6.91539">
        <ele>255</ele>
        <time>2012-04-23T11:50:29Z</time>
      </trkpt>
      <trkpt lat="43.4856" lon="6.91542">
        <ele>254</ele>
        <time>2012-04-23T11:50:31Z</time>
      </trkpt>
      <trkpt lat="43.48592" lon="6.91551">
        <ele>262</ele>
        <time>2012-04-23T11:50:37Z</time>
      </trkpt>
      <trkpt lat="43.48602" lon="6.91569">
        <ele>257</ele>
        <time>2012-04-23T11:50:41Z</time>
      </trkpt>
      <trkpt lat="43.48602" lon="6.91574">
        <ele>255</ele>
        <time>2012-04-23T11:50:42Z</time>
      </trkpt>
      <trkpt lat="43.48603" lon="6.91584">
        <ele>237</ele>
        <time>2012-04-23T11:50:44Z</time>
      </trkpt>
      <trkpt lat="43.48617" lon="6.91615">
        <ele>236</ele>
        <time>2012-04-23T11:50:50Z</time>
      </trkpt>
      <trkpt lat="43.48634" lon="6.91649">
        <ele>233</ele>
        <time>2012-04-23T11:50:56Z</time>
      </trkpt>
      <trkpt lat="43.48648" lon="6.91672">
        <ele>218</ele>
        <time>2012-04-23T11:51:00Z</time>
      </trkpt>
      <trkpt lat="43.48663" lon="6.91693">
        <ele>214</ele>
        <time>2012-04-23T11:51:04Z</time>
      </trkpt>
      <trkpt lat="43.48691" lon="6.91721">
        <ele>225</ele>
        <time>2012-04-23T11:51:11Z</time>
      </trkpt>
      <trkpt lat="43.48708" lon="6.91736">
        <ele>224</ele>
        <time>2012-04-23T11:51:15Z</time>
      </trkpt>
      <trkpt lat="43.48731" lon="6.9175">
        <ele>224</ele>
        <time>2012-04-23T11:51:20Z</time>
      </trkpt>
      <trkpt lat="43.48769" lon="6.9177">
        <ele>216</ele>
        <time>2012-04-23T11:51:26Z</time>
      </trkpt>
      <trkpt lat="43.48782" lon="6.91779">
        <ele>215</ele>
        <time>2012-04-23T11:51:28Z</time>
      </trkpt>
      <trkpt lat="43.48802" lon="6.91798">
        <ele>213</ele>
        <time>2012-04-23T11:51:32Z</time>
      </trkpt>
      <trkpt lat="43.48808" lon="6.91805">
        <ele>213</ele>
        <time>2012-04-23T11:51:36Z</time>
      </trkpt>
      <trkpt lat="43.48812" lon="6.9181">
        <ele>212</ele>
        <time>2012-04-23T11:51:40Z</time>
      </trkpt>
      <trkpt lat="43.48819" lon="6.91819">
        <ele>212</ele>
        <time>2012-04-23T11:51:47Z</time>
      </trkpt>
      <trkpt lat="43.48819" lon="6.91819">
        <ele>212</ele>
        <time>2012-04-23T11:52:07Z</time>
      </trkpt>
      <trkpt lat="43.48819" lon="6.9182">
        <ele>211</ele>
        <time>2012-04-23T11:52:24Z</time>
      </trkpt>
      <trkpt lat="43.48821" lon="6.91826">
        <ele>211</ele>
        <time>2012-04-23T11:53:47Z</time>
      </trkpt>
      <trkpt lat="43.48836" lon="6.91844">
        <ele>204</ele>
        <time>2012-04-23T11:53:54Z</time>
      </trkpt>
      <trkpt lat="43.48851" lon="6.91855">
        <ele>198</ele>
        <time>2012-04-23T11:54:01Z</time>
      </trkpt>
      <trkpt lat="43.48867" lon="6.91856">
        <ele>196</ele>
        <time>2012-04-23T11:54:07Z</time>
      </trkpt>
      <trkpt lat="43.48874" lon="6.91851">
        <ele>196</ele>
        <time>2012-04-23T11:54:12Z</time>
      </trkpt>
      <trkpt lat="43.48875" lon="6.91851">
        <ele>196</ele>
        <time>2012-04-23T11:54:19Z</time>
      </trkpt>
      <trkpt lat="43.48875" lon="6.91852">
        <ele>196</ele>
        <time>2012-04-23T11:54:45Z</time>
      </trkpt>
      <trkpt lat="43.48874" lon="6.91852">
        <ele>196</ele>
        <time>2012-04-23T11:55:13Z</time>
      </trkpt>
      <trkpt lat="43.48873" lon="6.91852">
        <ele>196</ele>
        <time>2012-04-23T11:55:31Z</time>
      </trkpt>
      <trkpt lat="43.48878" lon="6.91846">
        <ele>196</ele>
        <time>2012-04-23T11:55:44Z</time>
      </trkpt>
      <trkpt lat="43.48884" lon="6.91833">
        <ele>210</ele>
        <time>2012-04-23T11:55:50Z</time>
      </trkpt>
      <trkpt lat="43.48886" lon="6.91826">
        <ele>210</ele>
        <time>2012-04-23T11:55:54Z</time>
      </trkpt>
      <trkpt lat="43.4889" lon="6.91813">
        <ele>211</ele>
        <time>2012-04-23T11:56:01Z</time>
      </trkpt>
      <trkpt lat="43.48894" lon="6.91798">
        <ele>213</ele>
        <time>2012-04-23T11:56:09Z</time>
      </trkpt>
      <trkpt lat="43.48898" lon="6.91781">
        <ele>215</ele>
        <time>2012-04-23T11:56:18Z</time>
      </trkpt>
      <trkpt lat="43.48901" lon="6.91768">
        <ele>216</ele>
        <time>2012-04-23T11:56:25Z</time>
      </trkpt>
      <trkpt lat="43.48904" lon="6.91757">
        <ele>217</ele>
        <time>2012-04-23T11:56:30Z</time>
      </trkpt>
      <trkpt lat="43.4891" lon="6.91731">
        <ele>228</ele>
        <time>2012-04-23T11:56:41Z</time>
      </trkpt>
      <trkpt lat="43.48912" lon="6.91717">
        <ele>232</ele>
        <time>2012-04-23T11:56:47Z</time>
      </trkpt>
      <trkpt lat="43.48917" lon="6.91702">
        <ele>213</ele>
        <time>2012-04-23T11:56:54Z</time>
      </trkpt>
      <trkpt lat="43.48921" lon="6.91686">
        <ele>218</ele>
        <time>2012-04-23T11:57:01Z</time>
      </trkpt>
      <trkpt lat="43.48929" lon="6.91673">
        <ele>221</ele>
        <time>2012-04-23T11:57:08Z</time>
      </trkpt>
      <trkpt lat="43.48938" lon="6.91661">
        <ele>226</ele>
        <time>2012-04-23T11:57:15Z</time>
      </trkpt>
      <trkpt lat="43.48946" lon="6.91648">
        <ele>224</ele>
        <time>2012-04-23T11:57:21Z</time>
      </trkpt>
      <trkpt lat="43.48952" lon="6.91631">
        <ele>223</ele>
        <time>2012-04-23T11:57:29Z</time>
      </trkpt>
      <trkpt lat="43.48957" lon="6.91614">
        <ele>224</ele>
        <time>2012-04-23T11:57:37Z</time>
      </trkpt>
      <trkpt lat="43.48962" lon="6.91601">
        <ele>224</ele>
        <time>2012-04-23T11:57:43Z</time>
      </trkpt>
      <trkpt lat="43.48964" lon="6.91594">
        <ele>224</ele>
        <time>2012-04-23T11:57:49Z</time>
      </trkpt>
      <trkpt lat="43.48969" lon="6.91579">
        <ele>233</ele>
        <time>2012-04-23T11:57:56Z</time>
      </trkpt>
      <trkpt lat="43.48975" lon="6.91555">
        <ele>234</ele>
        <time>2012-04-23T11:58:05Z</time>
      </trkpt>
      <trkpt lat="43.48978" lon="6.91531">
        <ele>236</ele>
        <time>2012-04-23T11:58:14Z</time>
      </trkpt>
      <trkpt lat="43.48979" lon="6.91517">
        <ele>236</ele>
        <time>2012-04-23T11:58:20Z</time>
      </trkpt>
      <trkpt lat="43.48977" lon="6.91507">
        <ele>237</ele>
        <time>2012-04-23T11:58:26Z</time>
      </trkpt>
      <trkpt lat="43.48974" lon="6.91492">
        <ele>250</ele>
        <time>2012-04-23T11:58:33Z</time>
      </trkpt>
      <trkpt lat="43.4898" lon="6.91477">
        <ele>251</ele>
        <time>2012-04-23T11:58:40Z</time>
      </trkpt>
      <trkpt lat="43.48986" lon="6.91461">
        <ele>254</ele>
        <time>2012-04-23T11:58:47Z</time>
      </trkpt>
      <trkpt lat="43.48992" lon="6.91442">
        <ele>256</ele>
        <time>2012-04-23T11:58:55Z</time>
      </trkpt>
      <trkpt lat="43.49001" lon="6.91438">
        <ele>246</ele>
        <time>2012-04-23T11:58:59Z</time>
      </trkpt>
      <trkpt lat="43.49012" lon="6.91441">
        <ele>245</ele>
        <time>2012-04-23T11:59:06Z</time>
      </trkpt>
      <trkpt lat="43.49013" lon="6.91441">
        <ele>245</ele>
        <time>2012-04-23T11:59:11Z</time>
      </trkpt>
      <trkpt lat="43.49011" lon="6.9144">
        <ele>245</ele>
        <time>2012-04-23T12:00:18Z</time>
      </trkpt>
      <trkpt lat="43.49012" lon="6.91441">
        <ele>245</ele>
        <time>2012-04-23T12:00:42Z</time>
      </trkpt>
      <trkpt lat="43.49021" lon="6.91439">
        <ele>245</ele>
        <time>2012-04-23T12:00:49Z</time>
      </trkpt>
      <trkpt lat="43.49029" lon="6.91436">
        <ele>245</ele>
        <time>2012-04-23T12:00:55Z</time>
      </trkpt>
      <trkpt lat="43.49035" lon="6.91434">
        <ele>245</ele>
        <time>2012-04-23T12:00:59Z</time>
      </trkpt>
      <trkpt lat="43.49047" lon="6.91422">
        <ele>247</ele>
        <time>2012-04-23T12:01:09Z</time>
      </trkpt>
      <trkpt lat="43.49056" lon="6.91414">
        <ele>268</ele>
        <time>2012-04-23T12:01:17Z</time>
      </trkpt>
      <trkpt lat="43.49065" lon="6.91418">
        <ele>250</ele>
        <time>2012-04-23T12:01:23Z</time>
      </trkpt>
      <trkpt lat="43.49072" lon="6.91425">
        <ele>251</ele>
        <time>2012-04-23T12:01:31Z</time>
      </trkpt>
      <trkpt lat="43.49074" lon="6.91428">
        <ele>251</ele>
        <time>2012-04-23T12:02:12Z</time>
      </trkpt>
      <trkpt lat="43.49078" lon="6.9143">
        <ele>251</ele>
        <time>2012-04-23T12:03:23Z</time>
      </trkpt>
      <trkpt lat="43.49087" lon="6.91438">
        <ele>257</ele>
        <time>2012-04-23T12:03:30Z</time>
      </trkpt>
      <trkpt lat="43.49098" lon="6.91446">
        <ele>257</ele>
        <time>2012-04-23T12:03:39Z</time>
      </trkpt>
      <trkpt lat="43.49107" lon="6.91451">
        <ele>257</ele>
        <time>2012-04-23T12:03:46Z</time>
      </trkpt>
      <trkpt lat="43.49116" lon="6.91459">
        <ele>257</ele>
        <time>2012-04-23T12:03:54Z</time>
      </trkpt>
      <trkpt lat="43.49125" lon="6.91465">
        <ele>258</ele>
        <time>2012-04-23T12:04:01Z</time>
      </trkpt>
      <trkpt lat="43.49136" lon="6.91467">
        <ele>260</ele>
        <time>2012-04-23T12:04:09Z</time>
      </trkpt>
      <trkpt lat="43.49149" lon="6.91469">
        <ele>262</ele>
        <time>2012-04-23T12:04:17Z</time>
      </trkpt>
      <trkpt lat="43.49155" lon="6.9148">
        <ele>262</ele>
        <time>2012-04-23T12:04:24Z</time>
      </trkpt>
      <trkpt lat="43.49157" lon="6.91489">
        <ele>262</ele>
        <time>2012-04-23T12:04:31Z</time>
      </trkpt>
      <trkpt lat="43.49159" lon="6.91495">
        <ele>262</ele>
        <time>2012-04-23T12:04:48Z</time>
      </trkpt>
      <trkpt lat="43.49161" lon="6.91522">
        <ele>246</ele>
        <time>2012-04-23T12:04:53Z</time>
      </trkpt>
      <trkpt lat="43.49173" lon="6.91562">
        <ele>261</ele>
        <time>2012-04-23T12:05:00Z</time>
      </trkpt>
      <trkpt lat="43.49185" lon="6.91587">
        <ele>250</ele>
        <time>2012-04-23T12:05:06Z</time>
      </trkpt>
      <trkpt lat="43.49197" lon="6.9162">
        <ele>253</ele>
        <time>2012-04-23T12:05:14Z</time>
      </trkpt>
      <trkpt lat="43.49208" lon="6.91651">
        <ele>254</ele>
        <time>2012-04-23T12:05:22Z</time>
      </trkpt>
      <trkpt lat="43.49217" lon="6.9168">
        <ele>243</ele>
        <time>2012-04-23T12:05:30Z</time>
      </trkpt>
      <trkpt lat="43.49225" lon="6.91713">
        <ele>240</ele>
        <time>2012-04-23T12:05:38Z</time>
      </trkpt>
      <trkpt lat="43.49236" lon="6.91741">
        <ele>241</ele>
        <time>2012-04-23T12:05:46Z</time>
      </trkpt>
      <trkpt lat="43.49249" lon="6.91756">
        <ele>238</ele>
        <time>2012-04-23T12:05:53Z</time>
      </trkpt>
      <trkpt lat="43.4925" lon="6.91757">
        <ele>237</ele>
        <time>2012-04-23T12:05:57Z</time>
      </trkpt>
      <trkpt lat="43.49252" lon="6.91759">
        <ele>243</ele>
        <time>2012-04-23T12:06:07Z</time>
      </trkpt>
      <trkpt lat="43.49255" lon="6.91761">
        <ele>242</ele>
        <time>2012-04-23T12:08:07Z</time>
      </trkpt>
      <trkpt lat="43.49269" lon="6.91767">
        <ele>241</ele>
        <time>2012-04-23T12:08:11Z</time>
      </trkpt>
      <trkpt lat="43.49294" lon="6.91776">
        <ele>242</ele>
        <time>2012-04-23T12:08:18Z</time>
      </trkpt>
      <trkpt lat="43.49318" lon="6.91784">
        <ele>243</ele>
        <time>2012-04-23T12:08:25Z</time>
      </trkpt>
      <trkpt lat="43.49344" lon="6.91794">
        <ele>248</ele>
        <time>2012-04-23T12:08:32Z</time>
      </trkpt>
      <trkpt lat="43.49375" lon="6.91809">
        <ele>247</ele>
        <time>2012-04-23T12:08:39Z</time>
      </trkpt>
      <trkpt lat="43.49405" lon="6.91826">
        <ele>242</ele>
        <time>2012-04-23T12:08:44Z</time>
      </trkpt>
      <trkpt lat="43.49422" lon="6.91836">
        <ele>232</ele>
        <time>2012-04-23T12:08:47Z</time>
      </trkpt>
      <trkpt lat="43.4945" lon="6.91839">
        <ele>226</ele>
        <time>2012-04-23T12:08:51Z</time>
      </trkpt>
      <trkpt lat="43.49456" lon="6.91836">
        <ele>225</ele>
        <time>2012-04-23T12:08:52Z</time>
      </trkpt>
      <trkpt lat="43.49473" lon="6.91827">
        <ele>243</ele>
        <time>2012-04-23T12:08:57Z</time>
      </trkpt>
      <trkpt lat="43.49483" lon="6.91825">
        <ele>242</ele>
        <time>2012-04-23T12:09:03Z</time>
      </trkpt>
      <trkpt lat="43.49495" lon="6.91823">
        <ele>239</ele>
        <time>2012-04-23T12:09:10Z</time>
      </trkpt>
      <trkpt lat="43.49512" lon="6.91817">
        <ele>238</ele>
        <time>2012-04-23T12:09:19Z</time>
      </trkpt>
      <trkpt lat="43.49522" lon="6.91807">
        <ele>241</ele>
        <time>2012-04-23T12:09:26Z</time>
      </trkpt>
      <trkpt lat="43.4953" lon="6.91794">
        <ele>243</ele>
        <time>2012-04-23T12:09:34Z</time>
      </trkpt>
      <trkpt lat="43.49534" lon="6.91787">
        <ele>244</ele>
        <time>2012-04-23T12:09:40Z</time>
      </trkpt>
      <trkpt lat="43.49529" lon="6.91793">
        <ele>243</ele>
        <time>2012-04-23T12:09:45Z</time>
      </trkpt>
      <trkpt lat="43.49518" lon="6.91812">
        <ele>240</ele>
        <time>2012-04-23T12:09:51Z</time>
      </trkpt>
      <trkpt lat="43.49508" lon="6.91819">
        <ele>238</ele>
        <time>2012-04-23T12:09:57Z</time>
      </trkpt>
      <trkpt lat="43.49504" lon="6.9182">
        <ele>237</ele>
        <time>2012-04-23T12:10:02Z</time>
      </trkpt>
      <trkpt lat="43.49503" lon="6.9182">
        <ele>237</ele>
        <time>2012-04-23T12:10:26Z</time>
      </trkpt>
      <trkpt lat="43.49504" lon="6.91823">
        <ele>236</ele>
        <time>2012-04-23T12:10:32Z</time>
      </trkpt>
      <trkpt lat="43.49506" lon="6.91823">
        <ele>236</ele>
        <time>2012-04-23T12:10:37Z</time>
      </trkpt>
      <trkpt lat="43.49518" lon="6.91814">
        <ele>239</ele>
        <time>2012-04-23T12:10:44Z</time>
      </trkpt>
      <trkpt lat="43.49526" lon="6.91801">
        <ele>242</ele>
        <time>2012-04-23T12:10:50Z</time>
      </trkpt>
      <trkpt lat="43.49533" lon="6.91784">
        <ele>244</ele>
        <time>2012-04-23T12:10:57Z</time>
      </trkpt>
      <trkpt lat="43.49544" lon="6.9177">
        <ele>245</ele>
        <time>2012-04-23T12:11:04Z</time>
      </trkpt>
      <trkpt lat="43.49557" lon="6.91766">
        <ele>245</ele>
        <time>2012-04-23T12:11:10Z</time>
      </trkpt>
      <trkpt lat="43.49575" lon="6.91761">
        <ele>245</ele>
        <time>2012-04-23T12:11:17Z</time>
      </trkpt>
      <trkpt lat="43.49589" lon="6.91756">
        <ele>244</ele>
        <time>2012-04-23T12:11:24Z</time>
      </trkpt>
      <trkpt lat="43.49604" lon="6.91752">
        <ele>242</ele>
        <time>2012-04-23T12:11:33Z</time>
      </trkpt>
      <trkpt lat="43.49616" lon="6.91751">
        <ele>241</ele>
        <time>2012-04-23T12:11:40Z</time>
      </trkpt>
      <trkpt lat="43.49635" lon="6.91756">
        <ele>240</ele>
        <time>2012-04-23T12:11:51Z</time>
      </trkpt>
      <trkpt lat="43.49641" lon="6.9176">
        <ele>240</ele>
        <time>2012-04-23T12:11:56Z</time>
      </trkpt>
      <trkpt lat="43.49644" lon="6.91761">
        <ele>240</ele>
        <time>2012-04-23T12:11:59Z</time>
      </trkpt>
      <trkpt lat="43.49648" lon="6.91765">
        <ele>240</ele>
        <time>2012-04-23T12:12:05Z</time>
      </trkpt>
      <trkpt lat="43.49652" lon="6.91774">
        <ele>240</ele>
        <time>2012-04-23T12:12:10Z</time>
      </trkpt>
      <trkpt lat="43.49658" lon="6.91797">
        <ele>239</ele>
        <time>2012-04-23T12:12:18Z</time>
      </trkpt>
      <trkpt lat="43.49668" lon="6.91821">
        <ele>235</ele>
        <time>2012-04-23T12:12:25Z</time>
      </trkpt>
      <trkpt lat="43.49676" lon="6.91841">
        <ele>234</ele>
        <time>2012-04-23T12:12:30Z</time>
      </trkpt>
      <trkpt lat="43.4968" lon="6.91853">
        <ele>232</ele>
        <time>2012-04-23T12:12:32Z</time>
      </trkpt>
      <trkpt lat="43.49687" lon="6.91873">
        <ele>230</ele>
        <time>2012-04-23T12:12:35Z</time>
      </trkpt>
      <trkpt lat="43.49703" lon="6.91914">
        <ele>229</ele>
        <time>2012-04-23T12:12:42Z</time>
      </trkpt>
      <trkpt lat="43.49722" lon="6.91957">
        <ele>227</ele>
        <time>2012-04-23T12:12:51Z</time>
      </trkpt>
      <trkpt lat="43.49734" lon="6.91984">
        <ele>228</ele>
        <time>2012-04-23T12:12:58Z</time>
      </trkpt>
      <trkpt lat="43.49745" lon="6.9201">
        <ele>227</ele>
        <time>2012-04-23T12:13:06Z</time>
      </trkpt>
      <trkpt lat="43.49755" lon="6.92039">
        <ele>225</ele>
        <time>2012-04-23T12:13:13Z</time>
      </trkpt>
      <trkpt lat="43.49766" lon="6.92078">
        <ele>226</ele>
        <time>2012-04-23T12:13:22Z</time>
      </trkpt>
      <trkpt lat="43.49779" lon="6.92105">
        <ele>226</ele>
        <time>2012-04-23T12:13:29Z</time>
      </trkpt>
      <trkpt lat="43.49788" lon="6.92142">
        <ele>227</ele>
        <time>2012-04-23T12:13:37Z</time>
      </trkpt>
      <trkpt lat="43.49803" lon="6.92173">
        <ele>227</ele>
        <time>2012-04-23T12:13:44Z</time>
      </trkpt>
      <trkpt lat="43.49822" lon="6.92212">
        <ele>228</ele>
        <time>2012-04-23T12:13:53Z</time>
      </trkpt>
      <trkpt lat="43.49832" lon="6.92222">
        <ele>229</ele>
        <time>2012-04-23T12:13:57Z</time>
      </trkpt>
      <trkpt lat="43.49834" lon="6.92223">
        <ele>237</ele>
        <time>2012-04-23T12:14:01Z</time>
      </trkpt>
      <trkpt lat="43.49838" lon="6.92223">
        <ele>237</ele>
        <time>2012-04-23T12:14:38Z</time>
      </trkpt>
      <trkpt lat="43.49845" lon="6.92231">
        <ele>237</ele>
        <time>2012-04-23T12:14:47Z</time>
      </trkpt>
      <trkpt lat="43.49852" lon="6.92242">
        <ele>237</ele>
        <time>2012-04-23T12:14:56Z</time>
      </trkpt>
      <trkpt lat="43.49857" lon="6.92249">
        <ele>238</ele>
        <time>2012-04-23T12:15:04Z</time>
      </trkpt>
      <trkpt lat="43.49864" lon="6.92251">
        <ele>242</ele>
        <time>2012-04-23T12:15:13Z</time>
      </trkpt>
      <trkpt lat="43.49868" lon="6.92248">
        <ele>240</ele>
        <time>2012-04-23T12:15:21Z</time>
      </trkpt>
      <trkpt lat="43.49872" lon="6.92242">
        <ele>240</ele>
        <time>2012-04-23T12:15:29Z</time>
      </trkpt>
      <trkpt lat="43.49872" lon="6.9224">
        <ele>240</ele>
        <time>2012-04-23T12:15:30Z</time>
      </trkpt>
      <trkpt lat="43.49877" lon="6.92232">
        <ele>241</ele>
        <time>2012-04-23T12:15:39Z</time>
      </trkpt>
      <trkpt lat="43.49878" lon="6.92229">
        <ele>241</ele>
        <time>2012-04-23T12:15:46Z</time>
      </trkpt>
      <trkpt lat="43.49883" lon="6.92227">
        <ele>241</ele>
        <time>2012-04-23T12:15:53Z</time>
      </trkpt>
      <trkpt lat="43.49892" lon="6.9222">
        <ele>241</ele>
        <time>2012-04-23T12:16:02Z</time>
      </trkpt>
      <trkpt lat="43.49896" lon="6.92218">
        <ele>242</ele>
        <time>2012-04-23T12:16:09Z</time>
      </trkpt>
      <trkpt lat="43.49901" lon="6.92215">
        <ele>242</ele>
        <time>2012-04-23T12:16:39Z</time>
      </trkpt>
      <trkpt lat="43.4991" lon="6.9221">
        <ele>242</ele>
        <time>2012-04-23T12:16:49Z</time>
      </trkpt>
      <trkpt lat="43.49922" lon="6.92204">
        <ele>245</ele>
        <time>2012-04-23T12:17:00Z</time>
      </trkpt>
      <trkpt lat="43.49932" lon="6.92197">
        <ele>244</ele>
        <time>2012-04-23T12:17:10Z</time>
      </trkpt>
      <trkpt lat="43.49945" lon="6.92189">
        <ele>244</ele>
        <time>2012-04-23T12:17:22Z</time>
      </trkpt>
      <trkpt lat="43.49958" lon="6.9218">
        <ele>244</ele>
        <time>2012-04-23T12:17:36Z</time>
      </trkpt>
      <trkpt lat="43.49968" lon="6.9218">
        <ele>244</ele>
        <time>2012-04-23T12:17:45Z</time>
      </trkpt>
      <trkpt lat="43.4997" lon="6.92182">
        <ele>244</ele>
        <time>2012-04-23T12:17:51Z</time>
      </trkpt>
      <trkpt lat="43.4997" lon="6.92183">
        <ele>244</ele>
        <time>2012-04-23T12:18:17Z</time>
      </trkpt>
      <trkpt lat="43.4997" lon="6.92183">
        <ele>244</ele>
        <time>2012-04-23T12:18:18Z</time>
      </trkpt>
      <trkpt lat="43.49974" lon="6.92202">
        <ele>245</ele>
        <time>2012-04-23T12:18:25Z</time>
      </trkpt>
      <trkpt lat="43.49981" lon="6.92221">
        <ele>246</ele>
        <time>2012-04-23T12:18:30Z</time>
      </trkpt>
      <trkpt lat="43.49993" lon="6.92244">
        <ele>249</ele>
        <time>2012-04-23T12:18:35Z</time>
      </trkpt>
      <trkpt lat="43.49997" lon="6.92248">
        <ele>249</ele>
        <time>2012-04-23T12:18:38Z</time>
      </trkpt>
      <trkpt lat="43.50002" lon="6.92253">
        <ele>249</ele>
        <time>2012-04-23T12:18:53Z</time>
      </trkpt>
      <trkpt lat="43.50004" lon="6.92256">
        <ele>248</ele>
        <time>2012-04-23T12:18:54Z</time>
      </trkpt>
      <trkpt lat="43.50014" lon="6.92267">
        <ele>246</ele>
        <time>2012-04-23T12:18:57Z</time>
      </trkpt>
      <trkpt lat="43.50033" lon="6.92292">
        <ele>244</ele>
        <time>2012-04-23T12:19:03Z</time>
      </trkpt>
      <trkpt lat="43.50043" lon="6.92317">
        <ele>245</ele>
        <time>2012-04-23T12:19:07Z</time>
      </trkpt>
      <trkpt lat="43.50053" lon="6.92343">
        <ele>252</ele>
        <time>2012-04-23T12:19:11Z</time>
      </trkpt>
      <trkpt lat="43.50066" lon="6.92346">
        <ele>248</ele>
        <time>2012-04-23T12:19:13Z</time>
      </trkpt>
      <trkpt lat="43.50108" lon="6.92366">
        <ele>234</ele>
        <time>2012-04-23T12:19:19Z</time>
      </trkpt>
      <trkpt lat="43.50131" lon="6.92379">
        <ele>232</ele>
        <time>2012-04-23T12:19:23Z</time>
      </trkpt>
      <trkpt lat="43.50147" lon="6.92383">
        <ele>230</ele>
        <time>2012-04-23T12:19:27Z</time>
      </trkpt>
      <trkpt lat="43.50151" lon="6.92383">
        <ele>229</ele>
        <time>2012-04-23T12:19:28Z</time>
      </trkpt>
      <trkpt lat="43.50178" lon="6.92379">
        <ele>217</ele>
        <time>2012-04-23T12:19:34Z</time>
      </trkpt>
      <trkpt lat="43.50192" lon="6.92375">
        <ele>216</ele>
        <time>2012-04-23T12:19:37Z</time>
      </trkpt>
      <trkpt lat="43.50214" lon="6.9236">
        <ele>215</ele>
        <time>2012-04-23T12:19:43Z</time>
      </trkpt>
      <trkpt lat="43.50216" lon="6.92358">
        <ele>215</ele>
        <time>2012-04-23T12:19:46Z</time>
      </trkpt>
      <trkpt lat="43.50218" lon="6.92357">
        <ele>215</ele>
        <time>2012-04-23T12:19:54Z</time>
      </trkpt>
      <trkpt lat="43.50223" lon="6.92355">
        <ele>215</ele>
        <time>2012-04-23T12:19:58Z</time>
      </trkpt>
      <trkpt lat="43.50245" lon="6.92343">
        <ele>214</ele>
        <time>2012-04-23T12:20:04Z</time>
      </trkpt>
      <trkpt lat="43.50276" lon="6.92333">
        <ele>208</ele>
        <time>2012-04-23T12:20:11Z</time>
      </trkpt>
      <trkpt lat="43.50288" lon="6.9234">
        <ele>206</ele>
        <time>2012-04-23T12:20:15Z</time>
      </trkpt>
      <trkpt lat="43.50301" lon="6.92351">
        <ele>205</ele>
        <time>2012-04-23T12:20:20Z</time>
      </trkpt>
      <trkpt lat="43.50313" lon="6.92363">
        <ele>204</ele>
        <time>2012-04-23T12:20:25Z</time>
      </trkpt>
      <trkpt lat="43.50326" lon="6.92374">
        <ele>203</ele>
        <time>2012-04-23T12:20:30Z</time>
      </trkpt>
      <trkpt lat="43.50339" lon="6.92381">
        <ele>193</ele>
        <time>2012-04-23T12:20:35Z</time>
      </trkpt>
      <trkpt lat="43.50346" lon="6.9239">
        <ele>193</ele>
        <time>2012-04-23T12:20:40Z</time>
      </trkpt>
      <trkpt lat="43.50352" lon="6.924">
        <ele>193</ele>
        <time>2012-04-23T12:20:44Z</time>
      </trkpt>
      <trkpt lat="43.50367" lon="6.92413">
        <ele>192</ele>
        <time>2012-04-23T12:20:49Z</time>
      </trkpt>
      <trkpt lat="43.50373" lon="6.92417">
        <ele>191</ele>
        <time>2012-04-23T12:20:51Z</time>
      </trkpt>
      <trkpt lat="43.50389" lon="6.92425">
        <ele>187</ele>
        <time>2012-04-23T12:20:55Z</time>
      </trkpt>
      <trkpt lat="43.50412" lon="6.92442">
        <ele>186</ele>
        <time>2012-04-23T12:21:01Z</time>
      </trkpt>
      <trkpt lat="43.50414" lon="6.92448">
        <ele>186</ele>
        <time>2012-04-23T12:21:05Z</time>
      </trkpt>
      <trkpt lat="43.50415" lon="6.92449">
        <ele>186</ele>
        <time>2012-04-23T12:21:12Z</time>
      </trkpt>
      <trkpt lat="43.50414" lon="6.9245">
        <ele>185</ele>
        <time>2012-04-23T12:21:23Z</time>
      </trkpt>
      <trkpt lat="43.50409" lon="6.92452">
        <ele>185</ele>
        <time>2012-04-23T12:21:29Z</time>
      </trkpt>
      <trkpt lat="43.50403" lon="6.9245">
        <ele>186</ele>
        <time>2012-04-23T12:21:34Z</time>
      </trkpt>
      <trkpt lat="43.50388" lon="6.92446">
        <ele>186</ele>
        <time>2012-04-23T12:21:39Z</time>
      </trkpt>
      <trkpt lat="43.50364" lon="6.92444">
        <ele>187</ele>
        <time>2012-04-23T12:21:47Z</time>
      </trkpt>
      <trkpt lat="43.50351" lon="6.92444">
        <ele>188</ele>
        <time>2012-04-23T12:21:53Z</time>
      </trkpt>
      <trkpt lat="43.50351" lon="6.92445">
        <ele>188</ele>
        <time>2012-04-23T12:21:58Z</time>
      </trkpt>
      <trkpt lat="43.50344" lon="6.92445">
        <ele>188</ele>
        <time>2012-04-23T12:22:06Z</time>
      </trkpt>
      <trkpt lat="43.50325" lon="6.92445">
        <ele>189</ele>
        <time>2012-04-23T12:22:11Z</time>
      </trkpt>
      <trkpt lat="43.50321" lon="6.92444">
        <ele>189</ele>
        <time>2012-04-23T12:22:12Z</time>
      </trkpt>
      <trkpt lat="43.50305" lon="6.92439">
        <ele>190</ele>
        <time>2012-04-23T12:22:16Z</time>
      </trkpt>
      <trkpt lat="43.50269" lon="6.92438">
        <ele>191</ele>
        <time>2012-04-23T12:22:23Z</time>
      </trkpt>
      <trkpt lat="43.50246" lon="6.92446">
        <ele>200</ele>
        <time>2012-04-23T12:22:27Z</time>
      </trkpt>
      <trkpt lat="43.50213" lon="6.9248">
        <ele>199</ele>
        <time>2012-04-23T12:22:34Z</time>
      </trkpt>
      <trkpt lat="43.50206" lon="6.92509">
        <ele>192</ele>
        <time>2012-04-23T12:22:38Z</time>
      </trkpt>
      <trkpt lat="43.50208" lon="6.92524">
        <ele>191</ele>
        <time>2012-04-23T12:22:40Z</time>
      </trkpt>
      <trkpt lat="43.50208" lon="6.9254">
        <ele>190</ele>
        <time>2012-04-23T12:22:42Z</time>
      </trkpt>
      <trkpt lat="43.50217" lon="6.92599">
        <ele>186</ele>
        <time>2012-04-23T12:22:50Z</time>
      </trkpt>
      <trkpt lat="43.50233" lon="6.92659">
        <ele>180</ele>
        <time>2012-04-23T12:22:57Z</time>
      </trkpt>
      <trkpt lat="43.5024" lon="6.92721">
        <ele>187</ele>
        <time>2012-04-23T12:23:04Z</time>
      </trkpt>
      <trkpt lat="43.50254" lon="6.92797">
        <ele>163</ele>
        <time>2012-04-23T12:23:12Z</time>
      </trkpt>
      <trkpt lat="43.5027" lon="6.92847">
        <ele>169</ele>
        <time>2012-04-23T12:23:18Z</time>
      </trkpt>
      <trkpt lat="43.50273" lon="6.92854">
        <ele>167</ele>
        <time>2012-04-23T12:23:19Z</time>
      </trkpt>
      <trkpt lat="43.50278" lon="6.92881">
        <ele>165</ele>
        <time>2012-04-23T12:23:25Z</time>
      </trkpt>
      <trkpt lat="43.50286" lon="6.92907">
        <ele>164</ele>
        <time>2012-04-23T12:23:32Z</time>
      </trkpt>
      <trkpt lat="43.50293" lon="6.92921">
        <ele>162</ele>
        <time>2012-04-23T12:23:38Z</time>
      </trkpt>
      <trkpt lat="43.50295" lon="6.92922">
        <ele>161</ele>
        <time>2012-04-23T12:23:42Z</time>
      </trkpt>
      <trkpt lat="43.50295" lon="6.92921">
        <ele>161</ele>
        <time>2012-04-23T12:24:19Z</time>
      </trkpt>
      <trkpt lat="43.50291" lon="6.92928">
        <ele>163</ele>
        <time>2012-04-23T12:24:23Z</time>
      </trkpt>
      <trkpt lat="43.50281" lon="6.92946">
        <ele>166</ele>
        <time>2012-04-23T12:24:28Z</time>
      </trkpt>
      <trkpt lat="43.5027" lon="6.92964">
        <ele>168</ele>
        <time>2012-04-23T12:24:32Z</time>
      </trkpt>
      <trkpt lat="43.50269" lon="6.92991">
        <ele>170</ele>
        <time>2012-04-23T12:24:37Z</time>
      </trkpt>
      <trkpt lat="43.5027" lon="6.93003">
        <ele>170</ele>
        <time>2012-04-23T12:24:39Z</time>
      </trkpt>
      <trkpt lat="43.50279" lon="6.93038">
        <ele>163</ele>
        <time>2012-04-23T12:24:45Z</time>
      </trkpt>
      <trkpt lat="43.50286" lon="6.93055">
        <ele>162</ele>
        <time>2012-04-23T12:24:48Z</time>
      </trkpt>
      <trkpt lat="43.503" lon="6.93079">
        <ele>159</ele>
        <time>2012-04-23T12:24:53Z</time>
      </trkpt>
      <trkpt lat="43.50323" lon="6.93101">
        <ele>150</ele>
        <time>2012-04-23T12:25:00Z</time>
      </trkpt>
      <trkpt lat="43.50348" lon="6.93112">
        <ele>135</ele>
        <time>2012-04-23T12:25:07Z</time>
      </trkpt>
      <trkpt lat="43.50357" lon="6.93118">
        <ele>134</ele>
        <time>2012-04-23T12:25:11Z</time>
      </trkpt>
      <trkpt lat="43.50355" lon="6.93128">
        <ele>133</ele>
        <time>2012-04-23T12:25:16Z</time>
      </trkpt>
      <trkpt lat="43.50352" lon="6.93129">
        <ele>134</ele>
        <time>2012-04-23T12:25:18Z</time>
      </trkpt>
      <trkpt lat="43.5033" lon="6.93134">
        <ele>147</ele>
        <time>2012-04-23T12:25:24Z</time>
      </trkpt>
      <trkpt lat="43.50319" lon="6.93137">
        <ele>147</ele>
        <time>2012-04-23T12:25:26Z</time>
      </trkpt>
      <trkpt lat="43.50272" lon="6.93156">
        <ele>152</ele>
        <time>2012-04-23T12:25:34Z</time>
      </trkpt>
      <trkpt lat="43.5026" lon="6.93162">
        <ele>153</ele>
        <time>2012-04-23T12:25:36Z</time>
      </trkpt>
      <trkpt lat="43.50249" lon="6.93181">
        <ele>158</ele>
        <time>2012-04-23T12:25:40Z</time>
      </trkpt>
      <trkpt lat="43.50252" lon="6.93191">
        <ele>144</ele>
        <time>2012-04-23T12:25:43Z</time>
      </trkpt>
      <trkpt lat="43.50256" lon="6.93196">
        <ele>143</ele>
        <time>2012-04-23T12:25:46Z</time>
      </trkpt>
      <trkpt lat="43.50263" lon="6.93212">
        <ele>141</ele>
        <time>2012-04-23T12:25:53Z</time>
      </trkpt>
      <trkpt lat="43.50274" lon="6.93235">
        <ele>140</ele>
        <time>2012-04-23T12:25:57Z</time>
      </trkpt>
      <trkpt lat="43.50292" lon="6.93264">
        <ele>132</ele>
        <time>2012-04-23T12:26:02Z</time>
      </trkpt>
      <trkpt lat="43.50302" lon="6.93289">
        <ele>129</ele>
        <time>2012-04-23T12:26:06Z</time>
      </trkpt>
      <trkpt lat="43.50309" lon="6.93309">
        <ele>127</ele>
        <time>2012-04-23T12:26:09Z</time>
      </trkpt>
      <trkpt lat="43.50325" lon="6.93344">
        <ele>120</ele>
        <time>2012-04-23T12:26:14Z</time>
      </trkpt>
      <trkpt lat="43.50332" lon="6.93369">
        <ele>122</ele>
        <time>2012-04-23T12:26:17Z</time>
      </trkpt>
      <trkpt lat="43.50346" lon="6.93402">
        <ele>109</ele>
        <time>2012-04-23T12:26:22Z</time>
      </trkpt>
      <trkpt lat="43.50368" lon="6.93448">
        <ele>101</ele>
        <time>2012-04-23T12:26:29Z</time>
      </trkpt>
      <trkpt lat="43.50381" lon="6.93477">
        <ele>99</ele>
        <time>2012-04-23T12:26:34Z</time>
      </trkpt>
      <trkpt lat="43.50384" lon="6.9349">
        <ele>98</ele>
        <time>2012-04-23T12:26:38Z</time>
      </trkpt>
      <trkpt lat="43.50385" lon="6.93491">
        <ele>98</ele>
        <time>2012-04-23T12:26:42Z</time>
      </trkpt>
      <trkpt lat="43.50385" lon="6.93492">
        <ele>98</ele>
        <time>2012-04-23T12:27:04Z</time>
      </trkpt>
      <trkpt lat="43.50385" lon="6.93492">
        <ele>98</ele>
        <time>2012-04-23T12:27:15Z</time>
      </trkpt>
      <trkpt lat="43.50385" lon="6.93492">
        <ele>98</ele>
        <time>2012-04-23T12:27:30Z</time>
      </trkpt>
      <trkpt lat="43.50389" lon="6.93497">
        <ele>98</ele>
        <time>2012-04-23T12:28:00Z</time>
      </trkpt>
      <trkpt lat="43.50399" lon="6.93509">
        <ele>91</ele>
        <time>2012-04-23T12:28:05Z</time>
      </trkpt>
      <trkpt lat="43.50416" lon="6.93518">
        <ele>91</ele>
        <time>2012-04-23T12:28:12Z</time>
      </trkpt>
      <trkpt lat="43.50428" lon="6.93524">
        <ele>91</ele>
        <time>2012-04-23T12:28:15Z</time>
      </trkpt>
      <trkpt lat="43.50448" lon="6.93527">
        <ele>90</ele>
        <time>2012-04-23T12:28:19Z</time>
      </trkpt>
      <trkpt lat="43.50457" lon="6.93528">
        <ele>90</ele>
        <time>2012-04-23T12:28:21Z</time>
      </trkpt>
      <trkpt lat="43.50481" lon="6.93548">
        <ele>89</ele>
        <time>2012-04-23T12:28:27Z</time>
      </trkpt>
      <trkpt lat="43.50486" lon="6.93552">
        <ele>89</ele>
        <time>2012-04-23T12:28:28Z</time>
      </trkpt>
      <trkpt lat="43.50515" lon="6.9358">
        <ele>86</ele>
        <time>2012-04-23T12:28:35Z</time>
      </trkpt>
      <trkpt lat="43.50519" lon="6.93584">
        <ele>82</ele>
        <time>2012-04-23T12:28:36Z</time>
      </trkpt>
      <trkpt lat="43.50544" lon="6.9359">
        <ele>79</ele>
        <time>2012-04-23T12:28:41Z</time>
      </trkpt>
      <trkpt lat="43.50555" lon="6.93593">
        <ele>79</ele>
        <time>2012-04-23T12:28:43Z</time>
      </trkpt>
      <trkpt lat="43.50578" lon="6.93596">
        <ele>79</ele>
        <time>2012-04-23T12:28:47Z</time>
      </trkpt>
      <trkpt lat="43.50593" lon="6.93601">
        <ele>71</ele>
        <time>2012-04-23T12:28:50Z</time>
      </trkpt>
      <trkpt lat="43.50603" lon="6.93612">
        <ele>67</ele>
        <time>2012-04-23T12:28:54Z</time>
      </trkpt>
      <trkpt lat="43.50601" lon="6.93614">
        <ele>67</ele>
        <time>2012-04-23T12:28:58Z</time>
      </trkpt>
      <trkpt lat="43.50601" lon="6.93613">
        <ele>67</ele>
        <time>2012-04-23T12:29:05Z</time>
      </trkpt>
      <trkpt lat="43.50591" lon="6.93613">
        <ele>69</ele>
        <time>2012-04-23T12:29:10Z</time>
      </trkpt>
      <trkpt lat="43.50583" lon="6.93616">
        <ele>77</ele>
        <time>2012-04-23T12:29:12Z</time>
      </trkpt>
      <trkpt lat="43.50569" lon="6.93624">
        <ele>76</ele>
        <time>2012-04-23T12:29:15Z</time>
      </trkpt>
      <trkpt lat="43.50552" lon="6.93637">
        <ele>75</ele>
        <time>2012-04-23T12:29:19Z</time>
      </trkpt>
      <trkpt lat="43.50554" lon="6.93645">
        <ele>74</ele>
        <time>2012-04-23T12:29:22Z</time>
      </trkpt>
      <trkpt lat="43.50558" lon="6.93646">
        <ele>74</ele>
        <time>2012-04-23T12:29:24Z</time>
      </trkpt>
      <trkpt lat="43.50567" lon="6.93642">
        <ele>74</ele>
        <time>2012-04-23T12:29:32Z</time>
      </trkpt>
      <trkpt lat="43.50568" lon="6.93639">
        <ele>75</ele>
        <time>2012-04-23T12:30:01Z</time>
      </trkpt>
      <trkpt lat="43.50579" lon="6.93642">
        <ele>74</ele>
        <time>2012-04-23T12:30:06Z</time>
      </trkpt>
      <trkpt lat="43.50591" lon="6.93644">
        <ele>67</ele>
        <time>2012-04-23T12:30:09Z</time>
      </trkpt>
      <trkpt lat="43.50606" lon="6.93653">
        <ele>65</ele>
        <time>2012-04-23T12:30:13Z</time>
      </trkpt>
      <trkpt lat="43.50639" lon="6.93685">
        <ele>55</ele>
        <time>2012-04-23T12:30:21Z</time>
      </trkpt>
      <trkpt lat="43.50648" lon="6.93692">
        <ele>54</ele>
        <time>2012-04-23T12:30:23Z</time>
      </trkpt>
      <trkpt lat="43.50684" lon="6.93737">
        <ele>41</ele>
        <time>2012-04-23T12:30:32Z</time>
      </trkpt>
      <trkpt lat="43.50701" lon="6.93755">
        <ele>36</ele>
        <time>2012-04-23T12:30:36Z</time>
      </trkpt>
      <trkpt lat="43.50721" lon="6.93767">
        <ele>34</ele>
        <time>2012-04-23T12:30:41Z</time>
      </trkpt>
      <trkpt lat="43.5073" lon="6.93754">
        <ele>32</ele>
        <time>2012-04-23T12:30:44Z</time>
      </trkpt>
      <trkpt lat="43.50733" lon="6.93741">
        <ele>33</ele>
        <time>2012-04-23T12:30:46Z</time>
      </trkpt>
      <trkpt lat="43.50733" lon="6.93716">
        <ele>34</ele>
        <time>2012-04-23T12:30:49Z</time>
      </trkpt>
      <trkpt lat="43.50728" lon="6.93664">
        <ele>30</ele>
        <time>2012-04-23T12:30:54Z</time>
      </trkpt>
      <trkpt lat="43.50725" lon="6.93644">
        <ele>31</ele>
        <time>2012-04-23T12:30:56Z</time>
      </trkpt>
      <trkpt lat="43.50706" lon="6.936">
        <ele>34</ele>
        <time>2012-04-23T12:31:01Z</time>
      </trkpt>
      <trkpt lat="43.50689" lon="6.93554">
        <ele>32</ele>
        <time>2012-04-23T12:31:06Z</time>
      </trkpt>
      <trkpt lat="43.50688" lon="6.93543">
        <ele>31</ele>
        <time>2012-04-23T12:31:07Z</time>
      </trkpt>
      <trkpt lat="43.50676" lon="6.93493">
        <ele>30</ele>
        <time>2012-04-23T12:31:12Z</time>
      </trkpt>
      <trkpt lat="43.50677" lon="6.93479">
        <ele>30</ele>
        <time>2012-04-23T12:31:15Z</time>
      </trkpt>
      <trkpt lat="43.50679" lon="6.93479">
        <ele>30</ele>
        <time>2012-04-23T12:31:18Z</time>
      </trkpt>
      <trkpt lat="43.50679" lon="6.93479">
        <ele>30</ele>
        <time>2012-04-23T12:31:19Z</time>
      </trkpt>
      <trkpt lat="43.50683" lon="6.93491">
        <ele>30</ele>
        <time>2012-04-23T12:31:24Z</time>
      </trkpt>
      <trkpt lat="43.50691" lon="6.93509">
        <ele>29</ele>
        <time>2012-04-23T12:31:28Z</time>
      </trkpt>
      <trkpt lat="43.50694" lon="6.93515">
        <ele>29</ele>
        <time>2012-04-23T12:31:29Z</time>
      </trkpt>
      <trkpt lat="43.50719" lon="6.93561">
        <ele>27</ele>
        <time>2012-04-23T12:31:36Z</time>
      </trkpt>
      <trkpt lat="43.50728" lon="6.93576">
        <ele>25</ele>
        <time>2012-04-23T12:31:39Z</time>
      </trkpt>
      <trkpt lat="43.50752" lon="6.93607">
        <ele>19</ele>
        <time>2012-04-23T12:31:46Z</time>
      </trkpt>
      <trkpt lat="43.50754" lon="6.93614">
        <ele>20</ele>
        <time>2012-04-23T12:31:47Z</time>
      </trkpt>
      <trkpt lat="43.5076" lon="6.93633">
        <ele>20</ele>
        <time>2012-04-23T12:31:51Z</time>
      </trkpt>
      <trkpt lat="43.50761" lon="6.93636">
        <ele>20</ele>
        <time>2012-04-23T12:31:55Z</time>
      </trkpt>
      <trkpt lat="43.50764" lon="6.93644">
        <ele>21</ele>
        <time>2012-04-23T12:32:08Z</time>
      </trkpt>
      <trkpt lat="43.50774" lon="6.93671">
        <ele>21</ele>
        <time>2012-04-23T12:32:16Z</time>
      </trkpt>
      <trkpt lat="43.50779" lon="6.93692">
        <ele>21</ele>
        <time>2012-04-23T12:32:22Z</time>
      </trkpt>
      <trkpt lat="43.50784" lon="6.93713">
        <ele>21</ele>
        <time>2012-04-23T12:32:28Z</time>
      </trkpt>
      <trkpt lat="43.50792" lon="6.93727">
        <ele>21</ele>
        <time>2012-04-23T12:32:35Z</time>
      </trkpt>
      <trkpt lat="43.50795" lon="6.93733">
        <ele>21</ele>
        <time>2012-04-23T12:32:39Z</time>
      </trkpt>
      <trkpt lat="43.50854" lon="6.93793">
        <ele>12</ele>
        <time>2012-04-23T12:32:59Z</time>
      </trkpt>
      <trkpt lat="43.50847" lon="6.93803">
        <ele>11</ele>
        <time>2012-04-23T12:33:03Z</time>
      </trkpt>
      <trkpt lat="43.5085" lon="6.93812">
        <ele>11</ele>
        <time>2012-04-23T12:33:08Z</time>
      </trkpt>
      <trkpt lat="43.50858" lon="6.93823">
        <ele>11</ele>
        <time>2012-04-23T12:33:14Z</time>
      </trkpt>
      <trkpt lat="43.50866" lon="6.9382">
        <ele>11</ele>
        <time>2012-04-23T12:33:20Z</time>
      </trkpt>
      <trkpt lat="43.50875" lon="6.93812">
        <ele>11</ele>
        <time>2012-04-23T12:33:24Z</time>
      </trkpt>
      <trkpt lat="43.50888" lon="6.93802">
        <ele>11</ele>
        <time>2012-04-23T12:33:29Z</time>
      </trkpt>
      <trkpt lat="43.50905" lon="6.93789">
        <ele>12</ele>
        <time>2012-04-23T12:33:36Z</time>
      </trkpt>
      <trkpt lat="43.50918" lon="6.9378">
        <ele>9</ele>
        <time>2012-04-23T12:33:42Z</time>
      </trkpt>
      <trkpt lat="43.50929" lon="6.93773">
        <ele>9</ele>
        <time>2012-04-23T12:33:47Z</time>
      </trkpt>
      <trkpt lat="43.50945" lon="6.93763">
        <ele>8</ele>
        <time>2012-04-23T12:33:53Z</time>
      </trkpt>
      <trkpt lat="43.50964" lon="6.93753">
        <ele>7</ele>
        <time>2012-04-23T12:34:00Z</time>
      </trkpt>
      <trkpt lat="43.5098" lon="6.93745">
        <ele>11</ele>
        <time>2012-04-23T12:34:07Z</time>
      </trkpt>
      <trkpt lat="43.50995" lon="6.93737">
        <ele>10</ele>
        <time>2012-04-23T12:34:13Z</time>
      </trkpt>
      <trkpt lat="43.5101" lon="6.93729">
        <ele>11</ele>
        <time>2012-04-23T12:34:20Z</time>
      </trkpt>
      <trkpt lat="43.51031" lon="6.93718">
        <ele>14</ele>
        <time>2012-04-23T12:34:28Z</time>
      </trkpt>
      <trkpt lat="43.5105" lon="6.93716">
        <ele>15</ele>
        <time>2012-04-23T12:34:35Z</time>
      </trkpt>
      <trkpt lat="43.51054" lon="6.93722">
        <ele>14</ele>
        <time>2012-04-23T12:34:39Z</time>
      </trkpt>
      <trkpt lat="43.51051" lon="6.93722">
        <ele>14</ele>
        <time>2012-04-23T12:34:57Z</time>
      </trkpt>
      <trkpt lat="43.51051" lon="6.93718">
        <ele>14</ele>
        <time>2012-04-23T12:34:59Z</time>
      </trkpt>
      <trkpt lat="43.5104" lon="6.93714">
        <ele>15</ele>
        <time>2012-04-23T12:35:04Z</time>
      </trkpt>
      <trkpt lat="43.51034" lon="6.93716">
        <ele>14</ele>
        <time>2012-04-23T12:35:06Z</time>
      </trkpt>
      <trkpt lat="43.51006" lon="6.9373">
        <ele>11</ele>
        <time>2012-04-23T12:35:15Z</time>
      </trkpt>
      <trkpt lat="43.50982" lon="6.93744">
        <ele>11</ele>
        <time>2012-04-23T12:35:22Z</time>
      </trkpt>
      <trkpt lat="43.50956" lon="6.93757">
        <ele>8</ele>
        <time>2012-04-23T12:35:30Z</time>
      </trkpt>
      <trkpt lat="43.50932" lon="6.93771">
        <ele>9</ele>
        <time>2012-04-23T12:35:38Z</time>
      </trkpt>
      <trkpt lat="43.50913" lon="6.93782">
        <ele>11</ele>
        <time>2012-04-23T12:35:44Z</time>
      </trkpt>
      <trkpt lat="43.50885" lon="6.93801">
        <ele>11</ele>
        <time>2012-04-23T12:35:53Z</time>
      </trkpt>
      <trkpt lat="43.50868" lon="6.93815">
        <ele>11</ele>
        <time>2012-04-23T12:35:59Z</time>
      </trkpt>
      <trkpt lat="43.50857" lon="6.93824">
        <ele>11</ele>
        <time>2012-04-23T12:36:05Z</time>
      </trkpt>
      <trkpt lat="43.50854" lon="6.93826">
        <ele>10</ele>
        <time>2012-04-23T12:36:10Z</time>
      </trkpt>
      <trkpt lat="43.50854" lon="6.93826">
        <ele>10</ele>
        <time>2012-04-23T12:36:12Z</time>
      </trkpt>
      <trkpt lat="43.50851" lon="6.93821">
        <ele>10</ele>
        <time>2012-04-23T12:36:16Z</time>
      </trkpt>
      <trkpt lat="43.50845" lon="6.93814">
        <ele>11</ele>
        <time>2012-04-23T12:36:21Z</time>
      </trkpt>
      <trkpt lat="43.50839" lon="6.93811">
        <ele>11</ele>
        <time>2012-04-23T12:36:27Z</time>
      </trkpt>
      <trkpt lat="43.50836" lon="6.93809">
        <ele>11</ele>
        <time>2012-04-23T12:36:33Z</time>
      </trkpt>
      <trkpt lat="43.50833" lon="6.93808">
        <ele>16</ele>
        <time>2012-04-23T12:36:38Z</time>
      </trkpt>
      <trkpt lat="43.50831" lon="6.93808">
        <ele>16</ele>
        <time>2012-04-23T12:36:44Z</time>
      </trkpt>
      <trkpt lat="43.50827" lon="6.93808">
        <ele>16</ele>
        <time>2012-04-23T12:36:53Z</time>
      </trkpt>
      <trkpt lat="43.50823" lon="6.93807">
        <ele>17</ele>
        <time>2012-04-23T12:37:01Z</time>
      </trkpt>
      <trkpt lat="43.50821" lon="6.93809">
        <ele>17</ele>
        <time>2012-04-23T12:37:13Z</time>
      </trkpt>
      <trkpt lat="43.50819" lon="6.93814">
        <ele>17</ele>
        <time>2012-04-23T12:37:19Z</time>
      </trkpt>
      <trkpt lat="43.50815" lon="6.93831">
        <ele>16</ele>
        <time>2012-04-23T12:37:31Z</time>
      </trkpt>
      <trkpt lat="43.50808" lon="6.9384">
        <ele>16</ele>
        <time>2012-04-23T12:37:36Z</time>
      </trkpt>
      <trkpt lat="43.508" lon="6.93872">
        <ele>17</ele>
        <time>2012-04-23T12:37:45Z</time>
      </trkpt>
      <trkpt lat="43.5079" lon="6.93907">
        <ele>18</ele>
        <time>2012-04-23T12:37:54Z</time>
      </trkpt>
      <trkpt lat="43.50782" lon="6.93943">
        <ele>15</ele>
        <time>2012-04-23T12:38:02Z</time>
      </trkpt>
      <trkpt lat="43.50778" lon="6.93997">
        <ele>14</ele>
        <time>2012-04-23T12:38:12Z</time>
      </trkpt>
      <trkpt lat="43.50774" lon="6.94039">
        <ele>11</ele>
        <time>2012-04-23T12:38:19Z</time>
      </trkpt>
      <trkpt lat="43.50768" lon="6.94078">
        <ele>11</ele>
        <time>2012-04-23T12:38:25Z</time>
      </trkpt>
      <trkpt lat="43.50758" lon="6.94127">
        <ele>8</ele>
        <time>2012-04-23T12:38:31Z</time>
      </trkpt>
      <trkpt lat="43.50757" lon="6.94136">
        <ele>8</ele>
        <time>2012-04-23T12:38:32Z</time>
      </trkpt>
      <trkpt lat="43.50746" lon="6.94161">
        <ele>7</ele>
        <time>2012-04-23T12:38:36Z</time>
      </trkpt>
      <trkpt lat="43.50743" lon="6.94164">
        <ele>7</ele>
        <time>2012-04-23T12:38:39Z</time>
      </trkpt>
      <trkpt lat="43.5074" lon="6.94168">
        <ele>7</ele>
        <time>2012-04-23T12:38:44Z</time>
      </trkpt>
      <trkpt lat="43.50728" lon="6.94188">
        <ele>10</ele>
        <time>2012-04-23T12:38:49Z</time>
      </trkpt>
      <trkpt lat="43.50706" lon="6.94212">
        <ele>12</ele>
        <time>2012-04-23T12:38:56Z</time>
      </trkpt>
      <trkpt lat="43.50702" lon="6.94228">
        <ele>13</ele>
        <time>2012-04-23T12:39:00Z</time>
      </trkpt>
      <trkpt lat="43.50695" lon="6.94245">
        <ele>15</ele>
        <time>2012-04-23T12:39:05Z</time>
      </trkpt>
      <trkpt lat="43.50691" lon="6.94258">
        <ele>19</ele>
        <time>2012-04-23T12:39:10Z</time>
      </trkpt>
      <trkpt lat="43.5069" lon="6.94258">
        <ele>19</ele>
        <time>2012-04-23T12:39:13Z</time>
      </trkpt>
    </trkseg>
  </trk>
</gpx>